Time,TemperatureF,DewpointF,PressureIn,WindDirection,WindDirectionDegrees,WindSpeedMPH,WindSpeedGustMPH,Humidity,HourlyPrecipIn,Conditions,Clouds,dailyrainin,SoftwareType,DateUTC
2013-04-10 00:00:00,12.2,9.3,30.16,North,8,2.4,5.4,88,0.00,,---,0.00,VWS V14.01,2013-04-10 06:00:00,
2013-04-10 00:01:00,12.2,9.3,30.16,NNE,27,0.0,0.0,88,0.00,,---,0.00,VWS V14.01,2013-04-10 06:01:00,
2013-04-10 00:02:00,12.2,9.3,30.16,NNE,27,0.0,0.0,88,0.00,,---,0.00,VWS V14.01,2013-04-10 06:02:00,
2013-04-10 00:03:00,12.1,9.3,30.16,NNE,28,0.0,4.3,88,0.00,,---,0.00,VWS V14.01,2013-04-10 06:03:00,
2013-04-10 00:04:00,12.1,9.3,30.16,NNE,28,0.0,0.0,88,0.00,,---,0.00,VWS V14.01,2013-04-10 06:04:00,
2013-04-10 00:05:00,12.1,9.3,30.16,NNE,18,0.0,5.3,88,0.00,,---,0.00,VWS V14.01,2013-04-10 06:05:00,
2013-04-10 00:06:00,12.1,9.3,30.16,NNE,18,0.0,0.0,88,0.00,,---,0.00,VWS V14.01,2013-04-10 06:06:00,
2013-04-10 00:07:00,12.1,9.3,30.16,NNE,18,0.0,0.0,88,0.00,,---,0.00,VWS V14.01,2013-04-10 06:07:00,
2013-04-10 00:08:00,12.1,9.4,30.16,ENE,60,4.6,5.2,88,0.00,,---,0.00,VWS V14.01,2013-04-10 06:08:00,
2013-04-10 00:09:00,12.1,9.4,30.16,ENE,62,0.0,0.0,88,0.00,,---,0.00,VWS V14.01,2013-04-10 06:09:00,
2013-04-10 00:10:00,12.2,9.4,30.16,ENE,62,0.0,0.0,88,0.00,,---,0.00,VWS V14.01,2013-04-10 06:10:00,
2013-04-10 00:11:00,12.2,9.5,30.16,NE,35,6.2,6.2,88,0.00,,---,0.00,VWS V14.01,2013-04-10 06:11:00,
2013-04-10 00:12:00,12.2,9.5,30.15,North,0,6.0,6.5,88,0.00,,---,0.00,VWS V14.01,2013-04-10 06:12:00,
2013-04-10 00:13:00,12.2,9.4,30.16,NNE,30,0.0,0.0,88,0.00,,---,0.00,VWS V14.01,2013-04-10 06:13:00,
2013-04-10 00:14:00,12.2,9.5,30.16,North,4,0.0,0.0,88,0.00,,---,0.00,VWS V14.01,2013-04-10 06:14:00,
2013-04-10 00:15:00,12.2,9.5,30.16,NNE,13,7.3,7.3,89,0.00,,---,0.00,VWS V14.01,2013-04-10 06:15:00,
2013-04-10 00:16:00,12.1,9.4,30.15,NNE,15,5.5,7.0,89,0.00,,---,0.00,VWS V14.01,2013-04-10 06:16:00,
2013-04-10 00:17:00,12.1,9.4,30.15,North,7,4.9,5.5,89,0.00,,---,0.00,VWS V14.01,2013-04-10 06:17:00,
2013-04-10 00:18:00,12.1,9.4,30.15,North,6,0.0,0.0,89,0.00,,---,0.00,VWS V14.01,2013-04-10 06:18:00,
2013-04-10 00:19:00,12.2,9.6,30.15,North,6,0.0,0.0,89,0.00,,---,0.00,VWS V14.01,2013-04-10 06:19:00,
2013-04-10 00:20:00,12.2,9.6,30.15,North,6,0.0,0.0,89,0.00,,---,0.00,VWS V14.01,2013-04-10 06:20:00,
2013-04-10 00:21:00,12.2,9.6,30.15,North,6,0.0,0.0,89,0.00,,---,0.00,VWS V14.01,2013-04-10 06:21:00,
2013-04-10 00:22:00,12.2,9.6,30.15,North,6,0.0,0.0,89,0.00,,---,0.00,VWS V14.01,2013-04-10 06:22:00,
2013-04-10 00:23:00,12.2,9.6,30.15,North,6,0.0,0.0,89,0.00,,---,0.00,VWS V14.01,2013-04-10 06:23:00,
2013-04-10 00:24:00,12.3,9.7,30.15,North,6,0.0,0.0,89,0.00,,---,0.00,VWS V14.01,2013-04-10 06:24:00,
2013-04-10 00:25:00,12.3,9.7,30.15,North,6,0.0,0.0,89,0.00,,---,0.00,VWS V14.01,2013-04-10 06:25:00,
2013-04-10 00:26:00,12.4,9.8,30.15,NE,49,4.8,4.8,89,0.00,,---,0.00,VWS V14.01,2013-04-10 06:26:00,
2013-04-10 00:27:00,12.4,9.8,30.15,ENE,69,5.1,5.1,89,0.00,,---,0.00,VWS V14.01,2013-04-10 06:27:00,
2013-04-10 00:28:00,12.5,9.9,30.15,East,91,5.2,5.3,89,0.00,,---,0.00,VWS V14.01,2013-04-10 06:28:00,
2013-04-10 00:29:00,12.5,9.9,30.15,NE,38,7.8,7.8,89,0.00,,---,0.00,VWS V14.01,2013-04-10 06:29:00,
2013-04-10 00:30:00,12.5,9.8,30.15,NNE,25,3.4,3.5,89,0.00,,---,0.00,VWS V14.01,2013-04-10 06:30:00,
2013-04-10 00:31:00,12.5,9.8,30.15,ENE,75,2.0,5.2,89,0.00,,---,0.00,VWS V14.01,2013-04-10 06:31:00,
2013-04-10 00:32:00,12.5,9.8,30.15,NE,48,4.5,5.6,89,0.00,,---,0.00,VWS V14.01,2013-04-10 06:32:00,
2013-04-10 00:33:00,12.5,9.8,30.15,NE,49,5.8,6.3,89,0.00,,---,0.00,VWS V14.01,2013-04-10 06:33:00,
2013-04-10 00:34:00,12.5,9.8,30.15,NE,42,3.4,5.2,89,0.00,,---,0.00,VWS V14.01,2013-04-10 06:34:00,
2013-04-10 00:35:00,12.5,9.8,30.15,ENE,76,6.2,7.2,89,0.00,,---,0.00,VWS V14.01,2013-04-10 06:35:00,
2013-04-10 00:36:00,12.5,9.8,30.15,NE,49,6.4,6.4,89,0.00,,---,0.00,VWS V14.01,2013-04-10 06:36:00,
2013-04-10 00:37:00,12.5,9.8,30.15,NNE,31,6.4,6.4,89,0.00,,---,0.00,VWS V14.01,2013-04-10 06:37:00,
2013-04-10 00:38:00,12.5,9.8,30.16,NE,37,3.3,5.8,89,0.00,,---,0.00,VWS V14.01,2013-04-10 06:38:00,
2013-04-10 00:39:00,12.4,9.7,30.16,ENE,69,0.0,0.0,89,0.00,,---,0.00,VWS V14.01,2013-04-10 06:39:00,
2013-04-10 00:40:00,12.4,9.7,30.16,ENE,69,0.0,0.0,89,0.00,,---,0.00,VWS V14.01,2013-04-10 06:40:00,
2013-04-10 00:41:00,12.5,9.9,30.16,ENE,69,0.0,0.0,89,0.00,,---,0.00,VWS V14.01,2013-04-10 06:41:00,
2013-04-10 00:42:00,12.5,9.9,30.15,ENE,69,0.0,0.0,89,0.00,,---,0.00,VWS V14.01,2013-04-10 06:42:00,
2013-04-10 00:43:00,12.5,9.9,30.16,ENE,69,0.0,0.0,89,0.00,,---,0.00,VWS V14.01,2013-04-10 06:43:00,
2013-04-10 00:44:00,12.6,10.0,30.16,NE,35,4.3,5.0,89,0.00,,---,0.00,VWS V14.01,2013-04-10 06:44:00,
2013-04-10 00:45:00,12.6,10.0,30.15,ENE,65,0.0,0.0,89,0.00,,---,0.00,VWS V14.01,2013-04-10 06:45:00,
2013-04-10 00:46:00,12.6,10.0,30.16,ENE,65,0.0,0.0,89,0.00,,---,0.00,VWS V14.01,2013-04-10 06:46:00,
2013-04-10 00:47:00,12.6,10.0,30.15,ENE,65,0.0,0.0,89,0.00,,---,0.00,VWS V14.01,2013-04-10 06:47:00,
2013-04-10 00:48:00,12.7,10.1,30.15,ESE,108,5.1,7.5,89,0.00,,---,0.00,VWS V14.01,2013-04-10 06:48:00,
2013-04-10 00:49:00,12.7,10.1,30.15,ESE,114,3.2,7.0,89,0.00,,---,0.00,VWS V14.01,2013-04-10 06:49:00,
2013-04-10 00:50:00,12.7,10.1,30.15,SE,125,0.0,0.0,89,0.00,,---,0.00,VWS V14.01,2013-04-10 06:50:00,
2013-04-10 00:51:00,12.7,10.1,30.15,SE,125,0.0,0.0,89,0.00,,---,0.00,VWS V14.01,2013-04-10 06:51:00,
2013-04-10 00:52:00,12.8,10.2,30.15,SE,125,0.0,0.0,89,0.00,,---,0.00,VWS V14.01,2013-04-10 06:52:00,
2013-04-10 00:53:00,12.8,10.2,30.15,NE,49,2.8,4.3,89,0.00,,---,0.00,VWS V14.01,2013-04-10 06:53:00,
2013-04-10 00:54:00,12.8,10.1,30.15,East,97,3.3,5.3,89,0.00,,---,0.00,VWS V14.01,2013-04-10 06:54:00,
2013-04-10 00:55:00,12.8,10.1,30.15,East,97,0.0,0.0,89,0.00,,---,0.00,VWS V14.01,2013-04-10 06:55:00,
2013-04-10 00:56:00,12.8,10.1,30.16,East,97,0.0,0.0,89,0.00,,---,0.00,VWS V14.01,2013-04-10 06:56:00,
2013-04-10 00:57:00,12.8,10.1,30.15,SE,124,0.0,3.5,88,0.00,,---,0.00,VWS V14.01,2013-04-10 06:57:00,
2013-04-10 00:58:00,12.8,10.0,30.16,SSE,158,3.4,6.5,88,0.00,,---,0.00,VWS V14.01,2013-04-10 06:58:00,
2013-04-10 00:59:00,12.8,10.0,30.16,ESE,118,3.5,5.9,88,0.00,,---,0.00,VWS V14.01,2013-04-10 06:59:00,
2013-04-10 01:00:00,12.9,10.1,30.16,East,101,0.0,0.0,88,0.00,,---,0.00,VWS V14.01,2013-04-10 07:00:00,
2013-04-10 01:01:00,12.9,10.1,30.16,SE,145,6.0,7.3,88,0.00,,---,0.00,VWS V14.01,2013-04-10 07:01:00,
2013-04-10 01:02:00,12.8,10.0,30.16,SE,124,6.8,8.5,88,0.00,,---,0.00,VWS V14.01,2013-04-10 07:02:00,
2013-04-10 01:03:00,12.9,10.0,30.16,SE,125,0.0,0.0,88,0.00,,---,0.00,VWS V14.01,2013-04-10 07:03:00,
2013-04-10 01:04:00,12.9,10.0,30.16,ENE,58,2.8,6.5,88,0.00,,---,0.00,VWS V14.01,2013-04-10 07:04:00,
2013-04-10 01:05:00,12.8,9.9,30.16,East,100,5.8,7.2,88,0.00,,---,0.00,VWS V14.01,2013-04-10 07:05:00,
2013-04-10 01:06:00,12.8,9.9,30.16,NNE,31,0.0,3.4,88,0.00,,---,0.00,VWS V14.01,2013-04-10 07:06:00,
2013-04-10 01:07:00,12.8,9.8,30.15,NNE,31,0.0,0.0,88,0.00,,---,0.00,VWS V14.01,2013-04-10 07:07:00,
2013-04-10 01:08:00,12.8,9.8,30.16,SE,142,5.0,5.2,88,0.00,,---,0.00,VWS V14.01,2013-04-10 07:08:00,
2013-04-10 01:09:00,12.7,9.7,30.15,SSE,159,0.0,0.0,88,0.00,,---,0.00,VWS V14.01,2013-04-10 07:09:00,
2013-04-10 01:10:00,12.7,9.7,30.15,SSE,159,0.0,0.0,88,0.00,,---,0.00,VWS V14.01,2013-04-10 07:10:00,
2013-04-10 01:11:00,12.7,9.7,30.15,NE,41,2.4,4.7,88,0.00,,---,0.00,VWS V14.01,2013-04-10 07:11:00,
2013-04-10 01:12:00,12.7,9.7,30.15,SSE,160,5.9,6.0,88,0.00,,---,0.00,VWS V14.01,2013-04-10 07:12:00,
2013-04-10 01:13:00,12.7,9.7,30.15,ENE,68,5.4,6.5,88,0.00,,---,0.00,VWS V14.01,2013-04-10 07:13:00,
2013-04-10 01:14:00,12.7,9.7,30.15,NNE,27,0.0,0.0,87,0.00,,---,0.00,VWS V14.01,2013-04-10 07:14:00,
2013-04-10 01:15:00,12.7,9.7,30.15,NE,53,3.2,5.7,87,0.00,,---,0.00,VWS V14.01,2013-04-10 07:15:00,
2013-04-10 01:16:00,12.7,9.7,30.15,ENE,76,6.6,6.6,87,0.00,,---,0.00,VWS V14.01,2013-04-10 07:16:00,
2013-04-10 01:17:00,12.7,9.7,30.15,ESE,110,6.8,6.8,87,0.00,,---,0.00,VWS V14.01,2013-04-10 07:17:00,
2013-04-10 01:18:00,12.7,9.6,30.14,NE,41,4.2,5.8,87,0.00,,---,0.00,VWS V14.01,2013-04-10 07:18:00,
2013-04-10 01:19:00,12.6,9.5,30.14,NE,38,0.0,2.1,87,0.00,,---,0.00,VWS V14.01,2013-04-10 07:19:00,
2013-04-10 01:20:00,12.6,9.5,30.14,NE,38,0.0,0.0,87,0.00,,---,0.00,VWS V14.01,2013-04-10 07:20:00,
2013-04-10 01:21:00,12.6,9.6,30.14,NE,38,0.0,0.0,87,0.00,,---,0.00,VWS V14.01,2013-04-10 07:21:00,
2013-04-10 01:22:00,12.5,9.4,30.14,NE,38,0.0,0.0,87,0.00,,---,0.00,VWS V14.01,2013-04-10 07:22:00,
2013-04-10 01:23:00,12.5,9.5,30.14,NE,38,0.0,0.0,87,0.00,,---,0.00,VWS V14.01,2013-04-10 07:23:00,
2013-04-10 01:24:00,12.5,9.5,30.15,NE,38,0.0,0.0,88,0.00,,---,0.00,VWS V14.01,2013-04-10 07:24:00,
2013-04-10 01:25:00,12.6,9.6,30.15,NE,38,0.0,0.0,88,0.00,,---,0.00,VWS V14.01,2013-04-10 07:25:00,
2013-04-10 01:26:00,12.5,9.5,30.15,NE,38,0.0,0.0,88,0.00,,---,0.00,VWS V14.01,2013-04-10 07:26:00,
2013-04-10 01:27:00,12.6,9.6,30.15,NE,38,0.0,0.0,88,0.00,,---,0.00,VWS V14.01,2013-04-10 07:27:00,
2013-04-10 01:28:00,12.6,9.6,30.15,NE,38,0.0,0.0,88,0.00,,---,0.00,VWS V14.01,2013-04-10 07:28:00,
2013-04-10 01:29:00,12.6,9.6,30.15,East,80,0.0,0.0,87,0.00,,---,0.00,VWS V14.01,2013-04-10 07:29:00,
2013-04-10 01:30:00,12.6,9.6,30.15,East,79,6.0,6.0,88,0.00,,---,0.00,VWS V14.01,2013-04-10 07:30:00,
2013-04-10 01:31:00,12.6,9.6,30.15,SSE,166,2.8,4.8,88,0.00,,---,0.00,VWS V14.01,2013-04-10 07:31:00,
2013-04-10 01:32:00,12.6,9.6,30.15,SSE,166,0.0,0.0,87,0.00,,---,0.00,VWS V14.01,2013-04-10 07:32:00,
2013-04-10 01:33:00,12.6,9.6,30.15,SSE,166,0.0,0.0,87,0.00,,---,0.00,VWS V14.01,2013-04-10 07:33:00,
2013-04-10 01:34:00,12.6,9.5,30.15,SSE,166,0.0,0.0,87,0.00,,---,0.00,VWS V14.01,2013-04-10 07:34:00,
2013-04-10 01:35:00,12.6,9.5,30.15,ESE,110,6.3,8.1,87,0.00,,---,0.00,VWS V14.01,2013-04-10 07:35:00,
2013-04-10 01:36:00,12.5,9.4,30.15,South,170,0.0,5.3,87,0.00,,---,0.00,VWS V14.01,2013-04-10 07:36:00,
2013-04-10 01:37:00,12.5,9.4,30.15,SE,136,3.1,5.0,87,0.00,,---,0.00,VWS V14.01,2013-04-10 07:37:00,
2013-04-10 01:38:00,12.5,9.4,30.15,ESE,103,0.0,0.0,87,0.00,,---,0.00,VWS V14.01,2013-04-10 07:38:00,
2013-04-10 01:39:00,12.5,9.4,30.15,ESE,103,0.0,0.0,87,0.00,,---,0.00,VWS V14.01,2013-04-10 07:39:00,
2013-04-10 01:40:00,12.5,9.4,30.15,ESE,103,0.0,0.0,87,0.00,,---,0.00,VWS V14.01,2013-04-10 07:40:00,
2013-04-10 01:41:00,12.5,9.4,30.15,ESE,103,0.0,0.0,87,0.00,,---,0.00,VWS V14.01,2013-04-10 07:41:00,
2013-04-10 01:42:00,12.5,9.4,30.15,ESE,103,0.0,0.0,87,0.00,,---,0.00,VWS V14.01,2013-04-10 07:42:00,
2013-04-10 01:43:00,12.5,9.4,30.15,ESE,103,0.0,0.0,87,0.00,,---,0.00,VWS V14.01,2013-04-10 07:43:00,
2013-04-10 01:44:00,12.5,9.4,30.15,ESE,103,0.0,0.0,87,0.00,,---,0.00,VWS V14.01,2013-04-10 07:44:00,
2013-04-10 01:45:00,12.5,9.4,30.15,ESE,103,0.0,0.0,87,0.00,,---,0.00,VWS V14.01,2013-04-10 07:45:00,
2013-04-10 01:46:00,12.5,9.4,30.15,ESE,103,0.0,0.0,87,0.00,,---,0.00,VWS V14.01,2013-04-10 07:46:00,
2013-04-10 01:47:00,12.5,9.4,30.15,ESE,103,0.0,0.0,87,0.00,,---,0.00,VWS V14.01,2013-04-10 07:47:00,
2013-04-10 01:48:00,12.5,9.4,30.14,ESE,103,0.0,0.0,87,0.00,,---,0.00,VWS V14.01,2013-04-10 07:48:00,
2013-04-10 01:49:00,12.5,9.4,30.14,ESE,103,0.0,0.0,87,0.00,,---,0.00,VWS V14.01,2013-04-10 07:49:00,
2013-04-10 01:50:00,12.5,9.4,30.14,ESE,103,0.0,0.0,87,0.00,,---,0.00,VWS V14.01,2013-04-10 07:50:00,
2013-04-10 01:51:00,12.5,9.4,30.14,ESE,103,0.0,0.0,87,0.00,,---,0.00,VWS V14.01,2013-04-10 07:51:00,
2013-04-10 01:52:00,12.5,9.4,30.14,ESE,103,0.0,0.0,87,0.00,,---,0.00,VWS V14.01,2013-04-10 07:52:00,
2013-04-10 01:53:00,12.5,9.4,30.14,ESE,103,0.0,0.0,87,0.00,,---,0.00,VWS V14.01,2013-04-10 07:53:00,
2013-04-10 01:54:00,12.5,9.4,30.14,ESE,103,0.0,0.0,87,0.00,,---,0.00,VWS V14.01,2013-04-10 07:54:00,
2013-04-10 01:55:00,12.5,9.4,30.14,ESE,103,0.0,0.0,87,0.00,,---,0.00,VWS V14.01,2013-04-10 07:55:00,
2013-04-10 01:56:00,12.5,9.4,30.14,ESE,103,0.0,0.0,87,0.00,,---,0.00,VWS V14.01,2013-04-10 07:56:00,
2013-04-10 01:57:00,12.4,9.3,30.14,ESE,103,0.0,0.0,87,0.00,,---,0.00,VWS V14.01,2013-04-10 07:57:00,
2013-04-10 01:58:00,12.5,9.4,30.14,ESE,103,0.0,0.0,87,0.00,,---,0.00,VWS V14.01,2013-04-10 07:58:00,
2013-04-10 01:59:00,12.4,9.3,30.14,ESE,103,0.0,0.0,87,0.00,,---,0.00,VWS V14.01,2013-04-10 07:59:00,
2013-04-10 02:00:00,12.4,9.3,30.14,East,97,0.0,0.0,87,0.00,,---,0.00,VWS V14.01,2013-04-10 08:00:00,
2013-04-10 02:01:00,12.4,9.3,30.14,East,97,0.0,0.0,87,0.00,,---,0.00,VWS V14.01,2013-04-10 08:01:00,
2013-04-10 02:02:00,12.4,9.3,30.14,ENE,60,0.0,3.5,87,0.00,,---,0.00,VWS V14.01,2013-04-10 08:02:00,
2013-04-10 02:03:00,12.4,9.3,30.14,ENE,60,0.0,0.0,87,0.00,,---,0.00,VWS V14.01,2013-04-10 08:03:00,
2013-04-10 02:04:00,12.4,9.3,30.14,ENE,60,0.0,0.0,87,0.00,,---,0.00,VWS V14.01,2013-04-10 08:04:00,
2013-04-10 02:05:00,12.4,9.3,30.14,ENE,60,0.0,0.0,87,0.00,,---,0.00,VWS V14.01,2013-04-10 08:05:00,
2013-04-10 02:06:00,12.4,9.3,30.14,ENE,60,0.0,0.0,87,0.00,,---,0.00,VWS V14.01,2013-04-10 08:06:00,
2013-04-10 02:07:00,12.4,9.3,30.14,ENE,60,0.0,0.0,87,0.00,,---,0.00,VWS V14.01,2013-04-10 08:07:00,
2013-04-10 02:08:00,12.4,9.3,30.14,ENE,60,0.0,0.0,87,0.00,,---,0.00,VWS V14.01,2013-04-10 08:08:00,
2013-04-10 02:09:00,12.4,9.3,30.14,ENE,60,0.0,0.0,87,0.00,,---,0.00,VWS V14.01,2013-04-10 08:09:00,
2013-04-10 02:10:00,12.4,9.3,30.14,ENE,60,0.0,0.0,87,0.00,,---,0.00,VWS V14.01,2013-04-10 08:10:00,
2013-04-10 02:11:00,12.4,9.3,30.14,ENE,60,0.0,0.0,87,0.00,,---,0.00,VWS V14.01,2013-04-10 08:11:00,
2013-04-10 02:12:00,12.4,9.3,30.14,ENE,60,0.0,0.0,87,0.00,,---,0.00,VWS V14.01,2013-04-10 08:12:00,
2013-04-10 02:13:00,12.4,9.3,30.14,ENE,60,0.0,0.0,87,0.00,,---,0.00,VWS V14.01,2013-04-10 08:13:00,
2013-04-10 02:14:00,12.4,9.3,30.14,ENE,60,0.0,0.0,87,0.00,,---,0.00,VWS V14.01,2013-04-10 08:14:00,
2013-04-10 02:15:00,12.4,9.3,30.14,ENE,60,0.0,0.0,87,0.00,,---,0.00,VWS V14.01,2013-04-10 08:15:00,
2013-04-10 02:16:00,12.3,9.2,30.14,ENE,60,0.0,0.0,87,0.00,,---,0.00,VWS V14.01,2013-04-10 08:16:00,
2013-04-10 02:17:00,12.4,9.3,30.14,ENE,60,0.0,0.0,87,0.00,,---,0.00,VWS V14.01,2013-04-10 08:17:00,
2013-04-10 02:18:00,12.4,9.3,30.14,ENE,60,0.0,0.0,87,0.00,,---,0.00,VWS V14.01,2013-04-10 08:18:00,
2013-04-10 02:19:00,12.3,9.2,30.14,ENE,60,0.0,0.0,87,0.00,,---,0.00,VWS V14.01,2013-04-10 08:19:00,
2013-04-10 02:20:00,12.3,9.2,30.13,ENE,60,0.0,0.0,87,0.00,,---,0.00,VWS V14.01,2013-04-10 08:20:00,
2013-04-10 02:21:00,12.2,9.1,30.13,ENE,60,0.0,0.0,87,0.00,,---,0.00,VWS V14.01,2013-04-10 08:21:00,
2013-04-10 02:22:00,12.3,9.2,30.13,ENE,60,0.0,0.0,87,0.00,,---,0.00,VWS V14.01,2013-04-10 08:22:00,
2013-04-10 02:23:00,12.3,9.2,30.13,ENE,60,0.0,0.0,87,0.00,,---,0.00,VWS V14.01,2013-04-10 08:23:00,
2013-04-10 02:24:00,12.3,9.2,30.14,ENE,60,0.0,0.0,87,0.00,,---,0.00,VWS V14.01,2013-04-10 08:24:00,
2013-04-10 02:25:00,12.3,9.2,30.14,ENE,60,0.0,0.0,87,0.00,,---,0.00,VWS V14.01,2013-04-10 08:25:00,
2013-04-10 02:26:00,12.3,9.2,30.13,ENE,60,0.0,0.0,87,0.00,,---,0.00,VWS V14.01,2013-04-10 08:26:00,
2013-04-10 02:27:00,12.3,9.2,30.13,ENE,60,0.0,0.0,87,0.00,,---,0.00,VWS V14.01,2013-04-10 08:27:00,
2013-04-10 02:28:00,12.3,9.2,30.13,ENE,60,0.0,0.0,87,0.00,,---,0.00,VWS V14.01,2013-04-10 08:28:00,
2013-04-10 02:29:00,12.3,9.2,30.13,ENE,60,0.0,0.0,87,0.00,,---,0.00,VWS V14.01,2013-04-10 08:29:00,
2013-04-10 02:30:00,12.3,9.2,30.13,ENE,60,0.0,0.0,87,0.00,,---,0.00,VWS V14.01,2013-04-10 08:30:00,
2013-04-10 02:31:00,12.4,9.3,30.13,ENE,60,0.0,0.0,87,0.00,,---,0.00,VWS V14.01,2013-04-10 08:31:00,
2013-04-10 02:32:00,12.3,9.2,30.12,ENE,60,0.0,0.0,87,0.00,,---,0.00,VWS V14.01,2013-04-10 08:32:00,
2013-04-10 02:33:00,12.3,9.2,30.13,ENE,60,0.0,0.0,87,0.00,,---,0.00,VWS V14.01,2013-04-10 08:33:00,
2013-04-10 02:34:00,12.4,9.3,30.13,ENE,60,0.0,0.0,87,0.00,,---,0.00,VWS V14.01,2013-04-10 08:34:00,
2013-04-10 02:35:00,12.4,9.3,30.13,ENE,60,0.0,0.0,87,0.00,,---,0.00,VWS V14.01,2013-04-10 08:35:00,
2013-04-10 02:36:00,12.4,9.3,30.13,ENE,60,0.0,0.0,87,0.00,,---,0.00,VWS V14.01,2013-04-10 08:36:00,
2013-04-10 02:37:00,12.5,9.4,30.13,ENE,60,0.0,0.0,87,0.00,,---,0.00,VWS V14.01,2013-04-10 08:37:00,
2013-04-10 02:38:00,12.5,9.4,30.13,ENE,60,0.0,0.0,87,0.00,,---,0.00,VWS V14.01,2013-04-10 08:38:00,
2013-04-10 02:39:00,12.6,9.4,30.13,ENE,60,0.0,0.0,87,0.00,,---,0.00,VWS V14.01,2013-04-10 08:39:00,
2013-04-10 02:40:00,12.6,9.4,30.13,ENE,60,0.0,0.0,87,0.00,,---,0.00,VWS V14.01,2013-04-10 08:40:00,
2013-04-10 02:41:00,12.6,9.4,30.12,ENE,60,0.0,0.0,87,0.00,,---,0.00,VWS V14.01,2013-04-10 08:41:00,
2013-04-10 02:42:00,12.6,9.4,30.12,ENE,60,0.0,0.0,87,0.00,,---,0.00,VWS V14.01,2013-04-10 08:42:00,
2013-04-10 02:43:00,12.6,9.4,30.13,ENE,60,0.0,0.0,87,0.00,,---,0.00,VWS V14.01,2013-04-10 08:43:00,
2013-04-10 02:44:00,12.6,9.3,30.12,ENE,60,0.0,0.0,86,0.00,,---,0.00,VWS V14.01,2013-04-10 08:44:00,
2013-04-10 02:45:00,12.6,9.3,30.12,ENE,60,0.0,0.0,86,0.00,,---,0.00,VWS V14.01,2013-04-10 08:45:00,
2013-04-10 02:46:00,12.6,9.3,30.12,ENE,60,0.0,0.0,86,0.00,,---,0.00,VWS V14.01,2013-04-10 08:46:00,
2013-04-10 02:47:00,12.6,9.3,30.12,ENE,60,0.0,0.0,86,0.00,,---,0.00,VWS V14.01,2013-04-10 08:47:00,
2013-04-10 02:48:00,12.6,9.3,30.12,ENE,60,0.0,0.0,86,0.00,,---,0.00,VWS V14.01,2013-04-10 08:48:00,
2013-04-10 02:49:00,12.6,9.3,30.12,ENE,60,0.0,0.0,86,0.00,,---,0.00,VWS V14.01,2013-04-10 08:49:00,
2013-04-10 02:50:00,12.6,9.3,30.12,ENE,60,0.0,0.0,86,0.00,,---,0.00,VWS V14.01,2013-04-10 08:50:00,
2013-04-10 02:51:00,12.6,9.3,30.12,ENE,60,0.0,0.0,86,0.00,,---,0.00,VWS V14.01,2013-04-10 08:51:00,
2013-04-10 02:52:00,12.7,9.4,30.11,ENE,60,0.0,0.0,86,0.00,,---,0.00,VWS V14.01,2013-04-10 08:52:00,
2013-04-10 02:53:00,12.7,9.4,30.11,ENE,60,0.0,0.0,86,0.00,,---,0.00,VWS V14.01,2013-04-10 08:53:00,
2013-04-10 02:54:00,12.7,9.3,30.12,ENE,60,0.0,0.0,86,0.00,,---,0.00,VWS V14.01,2013-04-10 08:54:00,
2013-04-10 02:55:00,12.7,9.3,30.12,ENE,60,0.0,0.0,86,0.00,,---,0.00,VWS V14.01,2013-04-10 08:55:00,
2013-04-10 02:56:00,12.7,9.3,30.12,ENE,60,0.0,0.0,86,0.00,,---,0.00,VWS V14.01,2013-04-10 08:56:00,
2013-04-10 02:57:00,12.7,9.3,30.12,ENE,60,0.0,0.0,86,0.00,,---,0.00,VWS V14.01,2013-04-10 08:57:00,
2013-04-10 02:58:00,12.7,9.3,30.12,ENE,60,0.0,0.0,86,0.00,,---,0.00,VWS V14.01,2013-04-10 08:58:00,
2013-04-10 02:59:00,12.7,9.3,30.12,ENE,60,0.0,0.0,86,0.00,,---,0.00,VWS V14.01,2013-04-10 08:59:00,
2013-04-10 03:00:00,12.7,9.3,30.12,ENE,60,0.0,0.0,86,0.00,,---,0.00,VWS V14.01,2013-04-10 09:00:00,
2013-04-10 03:01:00,12.8,9.4,30.12,ENE,60,0.0,0.0,86,0.00,,---,0.00,VWS V14.01,2013-04-10 09:01:00,
2013-04-10 03:02:00,12.8,9.4,30.12,ENE,60,0.0,0.0,86,0.00,,---,0.00,VWS V14.01,2013-04-10 09:02:00,
2013-04-10 03:03:00,12.8,9.4,30.12,ENE,60,0.0,0.0,86,0.00,,---,0.00,VWS V14.01,2013-04-10 09:03:00,
2013-04-10 03:04:00,12.8,9.4,30.11,ENE,60,0.0,0.0,86,0.00,,---,0.00,VWS V14.01,2013-04-10 09:04:00,
2013-04-10 03:05:00,12.9,9.5,30.11,ENE,60,0.0,0.0,86,0.00,,---,0.00,VWS V14.01,2013-04-10 09:05:00,
2013-04-10 03:06:00,12.9,9.5,30.11,ENE,60,0.0,0.0,86,0.00,,---,0.00,VWS V14.01,2013-04-10 09:06:00,
2013-04-10 03:07:00,12.8,9.3,30.11,ENE,60,0.0,0.0,86,0.00,,---,0.00,VWS V14.01,2013-04-10 09:07:00,
2013-04-10 03:08:00,12.8,9.3,30.11,ENE,60,0.0,0.0,86,0.00,,---,0.00,VWS V14.01,2013-04-10 09:08:00,
2013-04-10 03:09:00,12.9,9.4,30.11,ENE,60,0.0,0.0,86,0.00,,---,0.00,VWS V14.01,2013-04-10 09:09:00,
2013-04-10 03:10:00,12.9,9.4,30.11,ENE,60,0.0,0.0,86,0.00,,---,0.00,VWS V14.01,2013-04-10 09:10:00,
2013-04-10 03:11:00,12.9,9.4,30.11,ENE,60,0.0,0.0,86,0.00,,---,0.00,VWS V14.01,2013-04-10 09:11:00,
2013-04-10 03:12:00,12.9,9.4,30.11,ENE,60,0.0,0.0,86,0.00,,---,0.00,VWS V14.01,2013-04-10 09:12:00,
2013-04-10 03:13:00,12.9,9.4,30.11,ENE,60,0.0,0.0,86,0.00,,---,0.00,VWS V14.01,2013-04-10 09:13:00,
2013-04-10 03:14:00,12.9,9.4,30.11,ENE,60,0.0,0.0,86,0.00,,---,0.00,VWS V14.01,2013-04-10 09:14:00,
2013-04-10 03:15:00,12.9,9.4,30.11,ENE,60,0.0,0.0,86,0.00,,---,0.00,VWS V14.01,2013-04-10 09:15:00,
2013-04-10 03:16:00,12.9,9.4,30.11,ENE,60,0.0,0.0,86,0.00,,---,0.00,VWS V14.01,2013-04-10 09:16:00,
2013-04-10 03:17:00,12.9,9.4,30.10,ENE,60,0.0,0.0,86,0.00,,---,0.00,VWS V14.01,2013-04-10 09:17:00,
2013-04-10 03:18:00,12.9,9.4,30.10,ENE,60,0.0,0.0,86,0.00,,---,0.00,VWS V14.01,2013-04-10 09:18:00,
2013-04-10 03:19:00,12.9,9.4,30.10,ENE,60,0.0,0.0,85,0.00,,---,0.00,VWS V14.01,2013-04-10 09:19:00,
2013-04-10 03:20:00,12.9,9.4,30.10,ENE,60,0.0,0.0,86,0.00,,---,0.00,VWS V14.01,2013-04-10 09:20:00,
2013-04-10 03:21:00,12.9,9.4,30.10,ENE,60,0.0,0.0,86,0.00,,---,0.00,VWS V14.01,2013-04-10 09:21:00,
2013-04-10 03:22:00,12.9,9.4,30.10,ENE,60,0.0,0.0,86,0.00,,---,0.00,VWS V14.01,2013-04-10 09:22:00,
2013-04-10 03:23:00,12.9,9.4,30.10,ENE,60,0.0,0.0,86,0.00,,---,0.00,VWS V14.01,2013-04-10 09:23:00,
2013-04-10 03:24:00,12.9,9.4,30.10,ENE,60,0.0,0.0,85,0.00,,---,0.00,VWS V14.01,2013-04-10 09:24:00,
2013-04-10 03:25:00,12.8,9.3,30.10,ENE,60,0.0,0.0,85,0.00,,---,0.00,VWS V14.01,2013-04-10 09:25:00,
2013-04-10 03:26:00,12.8,9.2,30.11,ENE,60,0.0,0.0,85,0.00,,---,0.00,VWS V14.01,2013-04-10 09:26:00,
2013-04-10 03:27:00,12.8,9.2,30.10,ENE,60,0.0,0.0,85,0.00,,---,0.00,VWS V14.01,2013-04-10 09:27:00,
2013-04-10 03:28:00,12.8,9.2,30.10,ENE,60,0.0,0.0,85,0.00,,---,0.00,VWS V14.01,2013-04-10 09:28:00,
2013-04-10 03:29:00,12.7,9.2,30.10,ENE,60,0.0,0.0,85,0.00,,---,0.00,VWS V14.01,2013-04-10 09:29:00,
2013-04-10 03:30:00,12.7,9.1,30.10,ENE,60,0.0,0.0,85,0.00,,---,0.00,VWS V14.01,2013-04-10 09:30:00,
2013-04-10 03:31:00,12.7,9.1,30.10,ENE,60,0.0,0.0,85,0.00,,---,0.00,VWS V14.01,2013-04-10 09:31:00,
2013-04-10 03:32:00,12.6,9.0,30.10,ENE,60,0.0,0.0,85,0.00,,---,0.00,VWS V14.01,2013-04-10 09:32:00,
2013-04-10 03:33:00,12.6,9.0,30.10,ENE,60,0.0,0.0,85,0.00,,---,0.00,VWS V14.01,2013-04-10 09:33:00,
2013-04-10 03:34:00,12.6,9.0,30.10,ENE,60,0.0,0.0,85,0.00,,---,0.00,VWS V14.01,2013-04-10 09:34:00,
2013-04-10 03:35:00,12.6,9.0,30.09,ENE,60,0.0,0.0,85,0.00,,---,0.00,VWS V14.01,2013-04-10 09:35:00,
2013-04-10 03:36:00,12.6,9.1,30.09,ENE,60,0.0,0.0,85,0.00,,---,0.00,VWS V14.01,2013-04-10 09:36:00,
2013-04-10 03:37:00,12.5,9.0,30.09,ENE,60,0.0,0.0,85,0.00,,---,0.00,VWS V14.01,2013-04-10 09:37:00,
2013-04-10 03:38:00,12.5,9.0,30.09,ENE,60,0.0,0.0,85,0.00,,---,0.00,VWS V14.01,2013-04-10 09:38:00,
2013-04-10 03:39:00,12.5,8.9,30.09,ENE,60,0.0,0.0,85,0.00,,---,0.00,VWS V14.01,2013-04-10 09:39:00,
2013-04-10 03:40:00,12.4,8.9,30.09,ENE,60,0.0,0.0,85,0.00,,---,0.00,VWS V14.01,2013-04-10 09:40:00,
2013-04-10 03:41:00,12.5,8.9,30.09,ENE,60,0.0,0.0,85,0.00,,---,0.00,VWS V14.01,2013-04-10 09:41:00,
2013-04-10 03:42:00,12.4,8.8,30.09,ENE,60,0.0,0.0,85,0.00,,---,0.00,VWS V14.01,2013-04-10 09:42:00,
2013-04-10 03:43:00,12.4,8.8,30.09,ENE,60,0.0,0.0,85,0.00,,---,0.00,VWS V14.01,2013-04-10 09:43:00,
2013-04-10 03:44:00,12.4,8.9,30.09,ENE,60,0.0,0.0,85,0.00,,---,0.00,VWS V14.01,2013-04-10 09:44:00,
2013-04-10 03:45:00,12.4,8.9,30.10,ENE,60,0.0,0.0,85,0.00,,---,0.00,VWS V14.01,2013-04-10 09:45:00,
2013-04-10 03:46:00,12.4,8.9,30.09,ENE,60,0.0,0.0,85,0.00,,---,0.00,VWS V14.01,2013-04-10 09:46:00,
2013-04-10 03:47:00,12.4,8.9,30.10,ENE,60,0.0,0.0,85,0.00,,---,0.00,VWS V14.01,2013-04-10 09:47:00,
2013-04-10 03:48:00,12.4,8.9,30.10,ENE,60,0.0,0.0,85,0.00,,---,0.00,VWS V14.01,2013-04-10 09:48:00,
2013-04-10 03:49:00,12.4,8.9,30.10,ENE,60,0.0,0.0,85,0.00,,---,0.00,VWS V14.01,2013-04-10 09:49:00,
2013-04-10 03:50:00,12.4,8.9,30.10,ENE,60,0.0,0.0,85,0.00,,---,0.00,VWS V14.01,2013-04-10 09:50:00,
2013-04-10 03:51:00,12.3,8.8,30.10,ENE,60,0.0,0.0,86,0.00,,---,0.00,VWS V14.01,2013-04-10 09:51:00,
2013-04-10 03:52:00,12.4,8.9,30.10,ENE,60,0.0,0.0,86,0.00,,---,0.00,VWS V14.01,2013-04-10 09:52:00,
2013-04-10 03:53:00,12.4,8.9,30.10,ENE,60,0.0,0.0,86,0.00,,---,0.00,VWS V14.01,2013-04-10 09:53:00,
2013-04-10 03:54:00,12.3,8.8,30.10,ENE,60,0.0,0.0,86,0.00,,---,0.00,VWS V14.01,2013-04-10 09:54:00,
2013-04-10 03:55:00,12.3,8.8,30.10,ENE,60,0.0,0.0,86,0.00,,---,0.00,VWS V14.01,2013-04-10 09:55:00,
2013-04-10 03:56:00,12.4,8.9,30.09,ENE,60,0.0,0.0,86,0.00,,---,0.00,VWS V14.01,2013-04-10 09:56:00,
2013-04-10 03:57:00,12.4,8.9,30.09,ENE,60,0.0,0.0,86,0.00,,---,0.00,VWS V14.01,2013-04-10 09:57:00,
2013-04-10 03:58:00,12.4,8.9,30.09,ENE,60,0.0,0.0,86,0.00,,---,0.00,VWS V14.01,2013-04-10 09:58:00,
2013-04-10 03:59:00,12.4,8.9,30.09,ENE,60,0.0,0.0,86,0.00,,---,0.00,VWS V14.01,2013-04-10 09:59:00,
2013-04-10 04:00:00,12.4,8.9,30.09,ENE,60,0.0,0.0,85,0.00,,---,0.00,VWS V14.01,2013-04-10 10:00:00,
2013-04-10 04:01:00,12.3,8.7,30.09,ENE,60,0.0,0.0,85,0.00,,---,0.00,VWS V14.01,2013-04-10 10:01:00,
2013-04-10 04:02:00,12.3,8.7,30.09,ENE,60,0.0,0.0,85,0.00,,---,0.00,VWS V14.01,2013-04-10 10:02:00,
2013-04-10 04:03:00,12.3,8.7,30.09,ENE,60,0.0,0.0,85,0.00,,---,0.00,VWS V14.01,2013-04-10 10:03:00,
2013-04-10 04:04:00,12.2,8.7,30.09,ENE,60,0.0,0.0,85,0.00,,---,0.00,VWS V14.01,2013-04-10 10:04:00,
2013-04-10 04:05:00,12.2,8.7,30.10,ENE,60,0.0,0.0,85,0.00,,---,0.00,VWS V14.01,2013-04-10 10:05:00,
2013-04-10 04:06:00,12.2,8.7,30.10,ENE,60,0.0,0.0,85,0.00,,---,0.00,VWS V14.01,2013-04-10 10:06:00,
2013-04-10 04:07:00,12.1,8.6,30.10,ENE,60,0.0,0.0,85,0.00,,---,0.00,VWS V14.01,2013-04-10 10:07:00,
2013-04-10 04:08:00,12.1,8.6,30.10,ENE,60,0.0,0.0,85,0.00,,---,0.00,VWS V14.01,2013-04-10 10:08:00,
2013-04-10 04:09:00,12.1,8.6,30.10,ENE,60,0.0,0.0,86,0.00,,---,0.00,VWS V14.01,2013-04-10 10:09:00,
2013-04-10 04:10:00,12.0,8.5,30.10,ENE,60,0.0,0.0,86,0.00,,---,0.00,VWS V14.01,2013-04-10 10:10:00,
2013-04-10 04:11:00,12.0,8.5,30.10,ENE,60,0.0,0.0,86,0.00,,---,0.00,VWS V14.01,2013-04-10 10:11:00,
2013-04-10 04:12:00,12.0,8.5,30.10,ENE,60,0.0,0.0,86,0.00,,---,0.00,VWS V14.01,2013-04-10 10:12:00,
2013-04-10 04:13:00,12.0,8.5,30.10,ENE,60,0.0,0.0,86,0.00,,---,0.00,VWS V14.01,2013-04-10 10:13:00,
2013-04-10 04:14:00,11.9,8.5,30.10,ENE,60,0.0,0.0,86,0.00,,---,0.00,VWS V14.01,2013-04-10 10:14:00,
2013-04-10 04:15:00,11.9,8.5,30.10,ENE,60,0.0,0.0,86,0.00,,---,0.00,VWS V14.01,2013-04-10 10:15:00,
2013-04-10 04:16:00,11.9,8.5,30.10,ENE,60,0.0,0.0,86,0.00,,---,0.00,VWS V14.01,2013-04-10 10:16:00,
2013-04-10 04:17:00,11.9,8.5,30.10,ENE,60,0.0,0.0,86,0.00,,---,0.00,VWS V14.01,2013-04-10 10:17:00,
2013-04-10 04:18:00,11.9,8.5,30.10,ENE,60,0.0,0.0,86,0.00,,---,0.00,VWS V14.01,2013-04-10 10:18:00,
2013-04-10 04:19:00,11.8,8.4,30.10,ENE,60,0.0,0.0,86,0.00,,---,0.00,VWS V14.01,2013-04-10 10:19:00,
2013-04-10 04:20:00,11.9,8.5,30.10,ENE,60,0.0,0.0,86,0.00,,---,0.00,VWS V14.01,2013-04-10 10:20:00,
2013-04-10 04:21:00,11.8,8.4,30.10,ENE,60,0.0,0.0,86,0.00,,---,0.00,VWS V14.01,2013-04-10 10:21:00,
2013-04-10 04:22:00,11.8,8.4,30.10,ENE,60,0.0,0.0,86,0.00,,---,0.00,VWS V14.01,2013-04-10 10:22:00,
2013-04-10 04:23:00,11.8,8.4,30.10,ENE,60,0.0,0.0,86,0.00,,---,0.00,VWS V14.01,2013-04-10 10:23:00,
2013-04-10 04:24:00,11.8,8.4,30.10,ENE,60,0.0,0.0,86,0.00,,---,0.00,VWS V14.01,2013-04-10 10:24:00,
2013-04-10 04:25:00,11.7,8.3,30.10,ENE,60,0.0,0.0,86,0.00,,---,0.00,VWS V14.01,2013-04-10 10:25:00,
2013-04-10 04:26:00,11.7,8.3,30.10,ENE,60,0.0,0.0,86,0.00,,---,0.00,VWS V14.01,2013-04-10 10:26:00,
2013-04-10 04:27:00,11.7,8.3,30.10,ENE,60,0.0,0.0,86,0.00,,---,0.00,VWS V14.01,2013-04-10 10:27:00,
2013-04-10 04:28:00,11.7,8.3,30.10,ENE,60,0.0,0.0,86,0.00,,---,0.00,VWS V14.01,2013-04-10 10:28:00,
2013-04-10 04:29:00,11.7,8.3,30.11,ENE,60,0.0,0.0,86,0.00,,---,0.00,VWS V14.01,2013-04-10 10:29:00,
2013-04-10 04:30:00,11.7,8.3,30.11,ENE,60,0.0,0.0,86,0.00,,---,0.00,VWS V14.01,2013-04-10 10:30:00,
2013-04-10 04:31:00,11.7,8.4,30.10,ENE,60,0.0,0.0,86,0.00,,---,0.00,VWS V14.01,2013-04-10 10:31:00,
2013-04-10 04:32:00,11.6,8.3,30.11,ENE,60,0.0,0.0,86,0.00,,---,0.00,VWS V14.01,2013-04-10 10:32:00,
2013-04-10 04:33:00,11.6,8.3,30.11,ENE,60,0.0,0.0,86,0.00,,---,0.00,VWS V14.01,2013-04-10 10:33:00,
2013-04-10 04:34:00,11.6,8.3,30.10,ENE,60,0.0,0.0,86,0.00,,---,0.00,VWS V14.01,2013-04-10 10:34:00,
2013-04-10 04:35:00,11.6,8.3,30.10,ENE,60,0.0,0.0,86,0.00,,---,0.00,VWS V14.01,2013-04-10 10:35:00,
2013-04-10 04:36:00,11.6,8.3,30.10,ENE,60,0.0,0.0,86,0.00,,---,0.00,VWS V14.01,2013-04-10 10:36:00,
2013-04-10 04:37:00,11.6,8.4,30.10,ENE,60,0.0,0.0,86,0.00,,---,0.00,VWS V14.01,2013-04-10 10:37:00,
2013-04-10 04:38:00,11.6,8.4,30.10,ENE,60,0.0,0.0,86,0.00,,---,0.00,VWS V14.01,2013-04-10 10:38:00,
2013-04-10 04:39:00,11.6,8.4,30.10,ENE,60,0.0,0.0,86,0.00,,---,0.00,VWS V14.01,2013-04-10 10:39:00,
2013-04-10 04:40:00,11.6,8.4,30.10,ENE,60,0.0,0.0,86,0.00,,---,0.00,VWS V14.01,2013-04-10 10:40:00,
2013-04-10 04:41:00,11.7,8.5,30.09,ENE,60,0.0,0.0,86,0.00,,---,0.00,VWS V14.01,2013-04-10 10:41:00,
2013-04-10 04:42:00,11.6,8.4,30.10,ENE,60,0.0,0.0,86,0.00,,---,0.00,VWS V14.01,2013-04-10 10:42:00,
2013-04-10 04:43:00,11.6,8.4,30.10,ENE,60,0.0,0.0,86,0.00,,---,0.00,VWS V14.01,2013-04-10 10:43:00,
2013-04-10 04:44:00,11.7,8.5,30.10,ENE,60,0.0,0.0,86,0.00,,---,0.00,VWS V14.01,2013-04-10 10:44:00,
2013-04-10 04:45:00,12.4,8.9,30.10,ENE,60,0.0,0.0,85,0.00,,---,0.00,VWS V14.01,2013-04-10 10:45:00,
2013-04-10 04:46:00,11.6,8.4,30.10,ENE,60,0.0,0.0,86,0.00,,---,0.00,VWS V14.01,2013-04-10 10:46:00,
2013-04-10 04:47:00,11.6,8.4,30.10,ENE,60,0.0,0.0,87,0.00,,---,0.00,VWS V14.01,2013-04-10 10:47:00,
2013-04-10 04:48:00,11.6,8.4,30.10,ENE,60,0.0,0.0,87,0.00,,---,0.00,VWS V14.01,2013-04-10 10:48:00,
2013-04-10 04:49:00,11.6,8.4,30.10,ENE,60,0.0,0.0,86,0.00,,---,0.00,VWS V14.01,2013-04-10 10:49:00,
2013-04-10 04:50:00,11.7,8.5,30.10,ENE,60,0.0,0.0,86,0.00,,---,0.00,VWS V14.01,2013-04-10 10:50:00,
2013-04-10 04:51:00,11.6,8.4,30.10,ENE,60,0.0,0.0,86,0.00,,---,0.00,VWS V14.01,2013-04-10 10:51:00,
2013-04-10 04:52:00,11.6,8.4,30.10,ENE,60,0.0,0.0,86,0.00,,---,0.00,VWS V14.01,2013-04-10 10:52:00,
2013-04-10 04:53:00,11.6,8.4,30.10,ENE,60,0.0,0.0,86,0.00,,---,0.00,VWS V14.01,2013-04-10 10:53:00,
2013-04-10 04:54:00,11.6,8.4,30.10,ENE,60,0.0,0.0,87,0.00,,---,0.00,VWS V14.01,2013-04-10 10:54:00,
2013-04-10 04:55:00,11.6,8.4,30.10,ENE,60,0.0,0.0,87,0.00,,---,0.00,VWS V14.01,2013-04-10 10:55:00,
2013-04-10 04:56:00,11.6,8.4,30.09,ENE,60,0.0,0.0,87,0.00,,---,0.00,VWS V14.01,2013-04-10 10:56:00,
2013-04-10 04:57:00,11.6,8.4,30.09,ENE,60,0.0,0.0,87,0.00,,---,0.00,VWS V14.01,2013-04-10 10:57:00,
2013-04-10 04:58:00,11.6,8.4,30.09,ENE,60,0.0,0.0,87,0.00,,---,0.00,VWS V14.01,2013-04-10 10:58:00,
2013-04-10 04:59:00,11.6,8.4,30.09,ENE,60,0.0,0.0,86,0.00,,---,0.00,VWS V14.01,2013-04-10 10:59:00,
2013-04-10 05:00:00,11.6,8.4,30.09,ENE,60,0.0,0.0,86,0.00,,---,0.00,VWS V14.01,2013-04-10 11:00:00,
2013-04-10 05:01:00,11.6,8.4,30.10,ENE,60,0.0,0.0,86,0.00,,---,0.00,VWS V14.01,2013-04-10 11:01:00,
2013-04-10 05:02:00,11.6,8.4,30.09,ENE,60,0.0,0.0,86,0.00,,---,0.00,VWS V14.01,2013-04-10 11:02:00,
2013-04-10 05:03:00,11.6,8.4,30.09,ENE,60,0.0,0.0,86,0.00,,---,0.00,VWS V14.01,2013-04-10 11:03:00,
2013-04-10 05:04:00,11.6,8.3,30.09,ENE,60,0.0,0.0,86,0.00,,---,0.00,VWS V14.01,2013-04-10 11:04:00,
2013-04-10 05:05:00,11.5,8.3,30.09,ENE,60,0.0,0.0,86,0.00,,---,0.00,VWS V14.01,2013-04-10 11:05:00,
2013-04-10 05:06:00,11.6,8.4,30.09,ENE,60,0.0,0.0,86,0.00,,---,0.00,VWS V14.01,2013-04-10 11:06:00,
2013-04-10 05:07:00,11.5,8.3,30.09,ENE,60,0.0,0.0,86,0.00,,---,0.00,VWS V14.01,2013-04-10 11:07:00,
2013-04-10 05:08:00,11.5,8.3,30.09,ENE,60,0.0,0.0,86,0.00,,---,0.00,VWS V14.01,2013-04-10 11:08:00,
2013-04-10 05:09:00,11.5,8.3,30.10,ENE,60,0.0,0.0,86,0.00,,---,0.00,VWS V14.01,2013-04-10 11:09:00,
2013-04-10 05:10:00,11.5,8.3,30.09,ENE,60,0.0,0.0,86,0.00,,---,0.00,VWS V14.01,2013-04-10 11:10:00,
2013-04-10 05:11:00,11.5,8.3,30.09,ENE,60,0.0,0.0,86,0.00,,---,0.00,VWS V14.01,2013-04-10 11:11:00,
2013-04-10 05:12:00,11.4,8.2,30.09,ENE,60,0.0,0.0,86,0.00,,---,0.00,VWS V14.01,2013-04-10 11:12:00,
2013-04-10 05:13:00,11.4,8.2,30.09,ENE,60,0.0,0.0,86,0.00,,---,0.00,VWS V14.01,2013-04-10 11:13:00,
2013-04-10 05:14:00,11.4,8.1,30.09,ENE,60,0.0,0.0,86,0.00,,---,0.00,VWS V14.01,2013-04-10 11:14:00,
2013-04-10 05:15:00,11.4,8.2,30.09,ENE,60,0.0,0.0,86,0.00,,---,0.00,VWS V14.01,2013-04-10 11:15:00,
2013-04-10 05:16:00,11.4,8.2,30.09,ENE,60,0.0,0.0,86,0.00,,---,0.00,VWS V14.01,2013-04-10 11:16:00,
2013-04-10 05:17:00,11.3,8.1,30.09,ENE,60,0.0,0.0,87,0.00,,---,0.00,VWS V14.01,2013-04-10 11:17:00,
2013-04-10 05:18:00,11.3,8.1,30.09,ENE,60,0.0,0.0,87,0.00,,---,0.00,VWS V14.01,2013-04-10 11:18:00,
2013-04-10 05:19:00,11.4,8.2,30.09,ENE,60,0.0,0.0,87,0.00,,---,0.00,VWS V14.01,2013-04-10 11:19:00,
2013-04-10 05:20:00,11.3,8.1,30.09,ENE,60,0.0,0.0,87,0.00,,---,0.00,VWS V14.01,2013-04-10 11:20:00,
2013-04-10 05:21:00,11.4,8.2,30.09,ENE,60,0.0,0.0,87,0.00,,---,0.00,VWS V14.01,2013-04-10 11:21:00,
2013-04-10 05:22:00,11.3,8.1,30.09,ENE,60,0.0,0.0,87,0.00,,---,0.00,VWS V14.01,2013-04-10 11:22:00,
2013-04-10 05:23:00,11.3,8.1,30.09,ENE,60,0.0,0.0,87,0.00,,---,0.00,VWS V14.01,2013-04-10 11:23:00,
2013-04-10 05:24:00,11.3,8.1,30.09,ENE,60,0.0,0.0,87,0.00,,---,0.00,VWS V14.01,2013-04-10 11:24:00,
2013-04-10 05:25:00,11.3,8.1,30.09,ENE,60,0.0,0.0,86,0.00,,---,0.00,VWS V14.01,2013-04-10 11:25:00,
2013-04-10 05:26:00,11.3,8.1,30.09,ENE,60,0.0,0.0,86,0.00,,---,0.00,VWS V14.01,2013-04-10 11:26:00,
2013-04-10 05:27:00,11.2,7.9,30.09,ENE,60,0.0,0.0,86,0.00,,---,0.00,VWS V14.01,2013-04-10 11:27:00,
2013-04-10 05:28:00,11.2,7.9,30.09,ENE,60,0.0,0.0,86,0.00,,---,0.00,VWS V14.01,2013-04-10 11:28:00,
2013-04-10 05:29:00,11.1,7.8,30.09,ENE,60,0.0,0.0,86,0.00,,---,0.00,VWS V14.01,2013-04-10 11:29:00,
2013-04-10 05:30:00,11.2,8.0,30.09,ENE,60,0.0,0.0,86,0.00,,---,0.00,VWS V14.01,2013-04-10 11:30:00,
2013-04-10 05:31:00,11.1,7.9,30.09,ENE,60,0.0,0.0,86,0.00,,---,0.00,VWS V14.01,2013-04-10 11:31:00,
2013-04-10 05:32:00,11.1,7.9,30.09,ENE,60,0.0,0.0,87,0.00,,---,0.00,VWS V14.01,2013-04-10 11:32:00,
2013-04-10 05:33:00,11.1,7.9,30.09,ENE,60,0.0,0.0,87,0.00,,---,0.00,VWS V14.01,2013-04-10 11:33:00,
2013-04-10 05:34:00,11.0,7.8,30.09,ENE,60,0.0,0.0,86,0.00,,---,0.00,VWS V14.01,2013-04-10 11:34:00,
2013-04-10 05:35:00,11.1,7.9,30.10,ENE,60,0.0,0.0,86,0.00,,---,0.00,VWS V14.01,2013-04-10 11:35:00,
2013-04-10 05:36:00,11.1,7.9,30.10,ENE,60,0.0,0.0,86,0.00,,---,0.00,VWS V14.01,2013-04-10 11:36:00,
2013-04-10 05:37:00,11.0,7.8,30.10,ENE,60,0.0,0.0,86,0.00,,---,0.00,VWS V14.01,2013-04-10 11:37:00,
2013-04-10 05:38:00,11.0,7.8,30.10,ENE,60,0.0,0.0,86,0.00,,---,0.00,VWS V14.01,2013-04-10 11:38:00,
2013-04-10 05:39:00,11.0,7.8,30.10,ENE,60,0.0,0.0,87,0.00,,---,0.00,VWS V14.01,2013-04-10 11:39:00,
2013-04-10 05:40:00,10.9,7.7,30.10,ENE,60,0.0,0.0,87,0.00,,---,0.00,VWS V14.01,2013-04-10 11:40:00,
2013-04-10 05:41:00,11.0,7.8,30.10,ENE,60,0.0,0.0,87,0.00,,---,0.00,VWS V14.01,2013-04-10 11:41:00,
2013-04-10 05:42:00,10.9,7.7,30.09,ENE,60,0.0,0.0,87,0.00,,---,0.00,VWS V14.01,2013-04-10 11:42:00,
2013-04-10 05:43:00,10.9,7.7,30.09,ENE,60,0.0,0.0,87,0.00,,---,0.00,VWS V14.01,2013-04-10 11:43:00,
2013-04-10 05:44:00,10.9,7.8,30.09,ENE,60,0.0,0.0,87,0.00,,---,0.00,VWS V14.01,2013-04-10 11:44:00,
2013-04-10 05:45:00,10.9,7.8,30.09,ENE,60,0.0,0.0,87,0.00,,---,0.00,VWS V14.01,2013-04-10 11:45:00,
2013-04-10 05:46:00,10.9,7.8,30.10,ENE,60,0.0,0.0,87,0.00,,---,0.00,VWS V14.01,2013-04-10 11:46:00,
2013-04-10 05:47:00,10.9,7.8,30.10,ENE,60,0.0,0.0,87,0.00,,---,0.00,VWS V14.01,2013-04-10 11:47:00,
2013-04-10 05:48:00,10.9,7.8,30.10,ENE,60,0.0,0.0,87,0.00,,---,0.00,VWS V14.01,2013-04-10 11:48:00,
2013-04-10 05:49:00,10.9,7.8,30.10,ENE,60,0.0,0.0,87,0.00,,---,0.00,VWS V14.01,2013-04-10 11:49:00,
2013-04-10 05:50:00,10.9,7.9,30.10,ENE,60,0.0,0.0,87,0.00,,---,0.00,VWS V14.01,2013-04-10 11:50:00,
2013-04-10 05:51:00,10.9,7.9,30.10,ENE,60,0.0,0.0,87,0.00,,---,0.00,VWS V14.01,2013-04-10 11:51:00,
2013-04-10 05:52:00,10.9,7.9,30.10,ENE,60,0.0,0.0,87,0.00,,---,0.00,VWS V14.01,2013-04-10 11:52:00,
2013-04-10 05:53:00,10.9,7.9,30.10,ENE,60,0.0,0.0,87,0.00,,---,0.00,VWS V14.01,2013-04-10 11:53:00,
2013-04-10 05:54:00,11.0,8.0,30.10,ENE,60,0.0,0.0,87,0.00,,---,0.00,VWS V14.01,2013-04-10 11:54:00,
2013-04-10 05:55:00,10.9,7.9,30.10,ENE,60,0.0,0.0,87,0.00,,---,0.00,VWS V14.01,2013-04-10 11:55:00,
2013-04-10 05:56:00,10.9,7.9,30.10,ENE,60,0.0,0.0,88,0.00,,---,0.00,VWS V14.01,2013-04-10 11:56:00,
2013-04-10 05:57:00,10.9,7.9,30.10,ENE,60,0.0,0.0,88,0.00,,---,0.00,VWS V14.01,2013-04-10 11:57:00,
2013-04-10 05:58:00,10.9,7.9,30.10,ENE,60,0.0,0.0,88,0.00,,---,0.00,VWS V14.01,2013-04-10 11:58:00,
2013-04-10 05:59:00,10.9,7.9,30.10,ENE,60,0.0,0.0,88,0.00,,---,0.00,VWS V14.01,2013-04-10 11:59:00,
2013-04-10 06:00:00,10.9,7.9,30.10,ENE,60,0.0,0.0,88,0.00,,---,0.00,VWS V14.01,2013-04-10 12:00:00,
2013-04-10 06:01:00,10.9,7.9,30.10,ENE,60,0.0,0.0,88,0.00,,---,0.00,VWS V14.01,2013-04-10 12:01:00,
2013-04-10 06:02:00,10.9,7.9,30.10,ENE,60,0.0,0.0,88,0.00,,---,0.00,VWS V14.01,2013-04-10 12:02:00,
2013-04-10 06:03:00,10.9,7.9,30.10,ENE,60,0.0,0.0,88,0.00,,---,0.00,VWS V14.01,2013-04-10 12:03:00,
2013-04-10 06:04:00,10.9,7.9,30.09,ENE,60,0.0,0.0,88,0.00,,---,0.00,VWS V14.01,2013-04-10 12:04:00,
2013-04-10 06:05:00,10.9,7.9,30.10,ENE,60,0.0,0.0,88,0.00,,---,0.00,VWS V14.01,2013-04-10 12:05:00,
2013-04-10 06:06:00,10.9,8.0,30.10,ENE,60,0.0,0.0,88,0.00,,---,0.00,VWS V14.01,2013-04-10 12:06:00,
2013-04-10 06:07:00,10.9,8.0,30.10,ENE,60,0.0,0.0,88,0.00,,---,0.00,VWS V14.01,2013-04-10 12:07:00,
2013-04-10 06:08:00,10.8,7.9,30.10,ENE,60,0.0,0.0,88,0.00,,---,0.00,VWS V14.01,2013-04-10 12:08:00,
2013-04-10 06:09:00,10.8,7.9,30.10,ENE,60,0.0,0.0,88,0.00,,---,0.00,VWS V14.01,2013-04-10 12:09:00,
2013-04-10 06:10:00,10.8,7.9,30.10,ENE,60,0.0,0.0,88,0.00,,---,0.00,VWS V14.01,2013-04-10 12:10:00,
2013-04-10 06:11:00,10.7,7.8,30.10,ENE,60,0.0,0.0,88,0.00,,---,0.00,VWS V14.01,2013-04-10 12:11:00,
2013-04-10 06:12:00,10.7,7.8,30.10,ENE,60,0.0,0.0,88,0.00,,---,0.00,VWS V14.01,2013-04-10 12:12:00,
2013-04-10 06:13:00,10.8,7.8,30.10,ENE,60,0.0,0.0,88,0.00,,---,0.00,VWS V14.01,2013-04-10 12:13:00,
2013-04-10 06:14:00,10.7,7.8,30.10,ENE,60,0.0,0.0,88,0.00,,---,0.00,VWS V14.01,2013-04-10 12:14:00,
2013-04-10 06:15:00,10.7,7.8,30.10,ENE,60,0.0,0.0,88,0.00,,---,0.00,VWS V14.01,2013-04-10 12:15:00,
2013-04-10 06:16:00,10.7,7.8,30.10,ENE,60,0.0,0.0,88,0.00,,---,0.00,VWS V14.01,2013-04-10 12:16:00,
2013-04-10 06:17:00,10.6,7.7,30.09,ENE,60,0.0,0.0,88,0.00,,---,0.00,VWS V14.01,2013-04-10 12:17:00,
2013-04-10 06:18:00,10.6,7.7,30.09,ENE,60,0.0,0.0,88,0.00,,---,0.00,VWS V14.01,2013-04-10 12:18:00,
2013-04-10 06:19:00,10.6,7.7,30.09,ENE,60,0.0,0.0,88,0.00,,---,0.00,VWS V14.01,2013-04-10 12:19:00,
2013-04-10 06:20:00,10.6,7.7,30.09,ENE,60,0.0,0.0,88,0.00,,---,0.00,VWS V14.01,2013-04-10 12:20:00,
2013-04-10 06:21:00,10.6,7.7,30.09,ENE,60,0.0,0.0,88,0.00,,---,0.00,VWS V14.01,2013-04-10 12:21:00,
2013-04-10 06:22:00,10.6,7.7,30.09,ENE,60,0.0,0.0,88,0.00,,---,0.00,VWS V14.01,2013-04-10 12:22:00,
2013-04-10 06:23:00,10.6,7.7,30.09,ENE,60,0.0,0.0,88,0.00,,---,0.00,VWS V14.01,2013-04-10 12:23:00,
2013-04-10 06:24:00,10.6,7.7,30.09,ENE,60,0.0,0.0,88,0.00,,---,0.00,VWS V14.01,2013-04-10 12:24:00,
2013-04-10 06:25:00,10.6,7.7,30.09,ENE,60,0.0,0.0,88,0.00,,---,0.00,VWS V14.01,2013-04-10 12:25:00,
2013-04-10 06:26:00,10.6,7.7,30.09,ENE,60,0.0,0.0,88,0.00,,---,0.00,VWS V14.01,2013-04-10 12:26:00,
2013-04-10 06:27:00,10.6,7.7,30.09,ENE,60,0.0,0.0,88,0.00,,---,0.00,VWS V14.01,2013-04-10 12:27:00,
2013-04-10 06:28:00,10.6,7.7,30.09,ENE,60,0.0,0.0,88,0.00,,---,0.00,VWS V14.01,2013-04-10 12:28:00,
2013-04-10 06:29:00,10.6,7.7,30.09,ENE,60,0.0,0.0,88,0.00,,---,0.00,VWS V14.01,2013-04-10 12:29:00,
2013-04-10 06:30:00,10.5,7.6,30.09,ENE,60,0.0,0.0,88,0.00,,---,0.00,VWS V14.01,2013-04-10 12:30:00,
2013-04-10 06:31:00,10.5,7.6,30.09,ENE,60,0.0,0.0,88,0.00,,---,0.00,VWS V14.01,2013-04-10 12:31:00,
2013-04-10 06:32:00,10.5,7.6,30.09,ENE,60,0.0,0.0,88,0.00,,---,0.00,VWS V14.01,2013-04-10 12:32:00,
2013-04-10 06:33:00,10.6,7.7,30.09,ENE,60,0.0,0.0,88,0.00,,---,0.00,VWS V14.01,2013-04-10 12:33:00,
2013-04-10 06:34:00,10.5,7.6,30.09,ENE,60,0.0,0.0,88,0.00,,---,0.00,VWS V14.01,2013-04-10 12:34:00,
2013-04-10 06:35:00,10.5,7.6,30.09,ENE,60,0.0,0.0,88,0.00,,---,0.00,VWS V14.01,2013-04-10 12:35:00,
2013-04-10 06:36:00,10.6,7.7,30.09,ENE,60,0.0,0.0,88,0.00,,---,0.00,VWS V14.01,2013-04-10 12:36:00,
2013-04-10 06:37:00,10.5,7.6,30.09,ENE,60,0.0,0.0,88,0.00,,---,0.00,VWS V14.01,2013-04-10 12:37:00,
2013-04-10 06:38:00,10.6,7.7,30.09,ENE,60,0.0,0.0,88,0.00,,---,0.00,VWS V14.01,2013-04-10 12:38:00,
2013-04-10 06:39:00,10.6,7.7,30.09,ENE,60,0.0,0.0,88,0.00,,---,0.00,VWS V14.01,2013-04-10 12:39:00,
2013-04-10 06:40:00,10.6,7.7,30.09,ENE,60,0.0,0.0,88,0.00,,---,0.00,VWS V14.01,2013-04-10 12:40:00,
2013-04-10 06:41:00,10.5,7.6,30.09,ENE,60,0.0,0.0,88,0.00,,---,0.00,VWS V14.01,2013-04-10 12:41:00,
2013-04-10 06:42:00,10.6,7.7,30.09,ENE,60,0.0,0.0,88,0.00,,---,0.00,VWS V14.01,2013-04-10 12:42:00,
2013-04-10 06:43:00,10.6,7.7,30.09,ENE,60,0.0,0.0,88,0.00,,---,0.00,VWS V14.01,2013-04-10 12:43:00,
2013-04-10 06:44:00,10.6,7.7,30.09,ENE,60,0.0,0.0,88,0.00,,---,0.00,VWS V14.01,2013-04-10 12:44:00,
2013-04-10 06:45:00,10.6,7.7,30.09,ENE,60,0.0,0.0,88,0.00,,---,0.00,VWS V14.01,2013-04-10 12:45:00,
2013-04-10 06:46:00,10.6,7.7,30.09,ENE,60,0.0,0.0,88,0.00,,---,0.00,VWS V14.01,2013-04-10 12:46:00,
2013-04-10 06:47:00,10.6,7.7,30.09,ENE,60,0.0,0.0,88,0.00,,---,0.00,VWS V14.01,2013-04-10 12:47:00,
2013-04-10 06:48:00,10.6,7.7,30.09,ENE,60,0.0,0.0,88,0.00,,---,0.00,VWS V14.01,2013-04-10 12:48:00,
2013-04-10 06:49:00,10.6,7.7,30.09,ENE,60,0.0,0.0,88,0.00,,---,0.00,VWS V14.01,2013-04-10 12:49:00,
2013-04-10 06:50:00,10.7,7.8,30.09,ENE,60,0.0,0.0,88,0.00,,---,0.00,VWS V14.01,2013-04-10 12:50:00,
2013-04-10 06:51:00,10.7,7.8,30.09,ENE,60,0.0,0.0,88,0.00,,---,0.00,VWS V14.01,2013-04-10 12:51:00,
2013-04-10 06:52:00,10.8,7.9,30.09,ENE,60,0.0,0.0,88,0.00,,---,0.00,VWS V14.01,2013-04-10 12:52:00,
2013-04-10 06:53:00,10.7,7.8,30.09,ENE,60,0.0,0.0,88,0.00,,---,0.00,VWS V14.01,2013-04-10 12:53:00,
2013-04-10 06:54:00,10.8,7.9,30.09,ENE,60,0.0,0.0,88,0.00,,---,0.00,VWS V14.01,2013-04-10 12:54:00,
2013-04-10 06:55:00,10.9,8.1,30.09,ENE,60,0.0,0.0,88,0.00,,---,0.00,VWS V14.01,2013-04-10 12:55:00,
2013-04-10 06:56:00,11.0,8.1,30.09,ENE,60,0.0,0.0,88,0.00,,---,0.00,VWS V14.01,2013-04-10 12:56:00,
2013-04-10 06:57:00,11.0,8.1,30.09,ENE,60,0.0,0.0,88,0.00,,---,0.00,VWS V14.01,2013-04-10 12:57:00,
2013-04-10 06:58:00,11.1,8.2,30.09,ENE,60,0.0,0.0,88,0.00,,---,0.00,VWS V14.01,2013-04-10 12:58:00,
2013-04-10 06:59:00,11.2,8.3,30.09,ENE,60,0.0,0.0,88,0.00,,---,0.00,VWS V14.01,2013-04-10 12:59:00,
2013-04-10 07:00:00,11.2,8.2,30.09,ENE,60,0.0,0.0,88,0.00,,---,0.00,VWS V14.01,2013-04-10 13:00:00,
2013-04-10 07:01:00,11.3,8.3,30.09,ENE,60,0.0,0.0,88,0.00,,---,0.00,VWS V14.01,2013-04-10 13:01:00,
2013-04-10 07:02:00,11.3,8.3,30.09,ENE,60,0.0,0.0,88,0.00,,---,0.00,VWS V14.01,2013-04-10 13:02:00,
2013-04-10 07:03:00,11.3,8.3,30.09,ENE,60,0.0,0.0,88,0.00,,---,0.00,VWS V14.01,2013-04-10 13:03:00,
2013-04-10 07:04:00,11.3,8.3,30.09,ENE,60,0.0,0.0,87,0.00,,---,0.00,VWS V14.01,2013-04-10 13:04:00,
2013-04-10 07:05:00,11.4,8.4,30.09,ENE,60,0.0,0.0,87,0.00,,---,0.00,VWS V14.01,2013-04-10 13:05:00,
2013-04-10 07:06:00,11.5,8.5,30.09,ENE,60,0.0,0.0,88,0.00,,---,0.00,VWS V14.01,2013-04-10 13:06:00,
2013-04-10 07:07:00,11.5,8.5,30.09,ENE,60,0.0,0.0,88,0.00,,---,0.00,VWS V14.01,2013-04-10 13:07:00,
2013-04-10 07:08:00,11.5,8.5,30.09,ENE,60,0.0,0.0,88,0.00,,---,0.00,VWS V14.01,2013-04-10 13:08:00,
2013-04-10 07:09:00,11.6,8.6,30.10,ENE,60,0.0,0.0,88,0.00,,---,0.00,VWS V14.01,2013-04-10 13:09:00,
2013-04-10 07:10:00,11.7,8.7,30.09,ENE,60,0.0,0.0,88,0.00,,---,0.00,VWS V14.01,2013-04-10 13:10:00,
2013-04-10 07:11:00,11.7,8.7,30.09,ENE,60,0.0,0.0,87,0.00,,---,0.00,VWS V14.01,2013-04-10 13:11:00,
2013-04-10 07:12:00,11.7,8.7,30.10,ENE,60,0.0,0.0,87,0.00,,---,0.00,VWS V14.01,2013-04-10 13:12:00,
2013-04-10 07:13:00,11.7,8.7,30.10,ENE,60,0.0,0.0,87,0.00,,---,0.00,VWS V14.01,2013-04-10 13:13:00,
2013-04-10 07:14:00,11.8,8.7,30.10,ENE,60,0.0,0.0,87,0.00,,---,0.00,VWS V14.01,2013-04-10 13:14:00,
2013-04-10 07:15:00,11.9,8.8,30.10,ENE,60,0.0,0.0,87,0.00,,---,0.00,VWS V14.01,2013-04-10 13:15:00,
2013-04-10 07:16:00,11.9,8.8,30.10,ENE,60,0.0,0.0,87,0.00,,---,0.00,VWS V14.01,2013-04-10 13:16:00,
2013-04-10 07:17:00,12.0,8.9,30.10,ENE,60,0.0,0.0,87,0.00,,---,0.00,VWS V14.01,2013-04-10 13:17:00,
2013-04-10 07:18:00,12.0,8.9,30.10,ENE,60,0.0,0.0,87,0.00,,---,0.00,VWS V14.01,2013-04-10 13:18:00,
2013-04-10 07:19:00,12.0,8.9,30.10,ENE,60,0.0,0.0,87,0.00,,---,0.00,VWS V14.01,2013-04-10 13:19:00,
2013-04-10 07:20:00,12.1,8.9,30.10,ENE,60,0.0,0.0,87,0.00,,---,0.00,VWS V14.01,2013-04-10 13:20:00,
2013-04-10 07:21:00,12.1,8.9,30.10,ENE,60,0.0,0.0,87,0.00,,---,0.00,VWS V14.01,2013-04-10 13:21:00,
2013-04-10 07:22:00,12.2,9.1,30.10,ENE,60,0.0,0.0,87,0.00,,---,0.00,VWS V14.01,2013-04-10 13:22:00,
2013-04-10 07:23:00,12.2,9.1,30.10,ENE,60,0.0,0.0,87,0.00,,---,0.00,VWS V14.01,2013-04-10 13:23:00,
2013-04-10 07:24:00,12.2,9.0,30.10,ESE,117,4.2,4.3,87,0.00,,---,0.00,VWS V14.01,2013-04-10 13:24:00,
2013-04-10 07:25:00,12.2,9.0,30.10,East,91,0.0,0.0,87,0.00,,---,0.00,VWS V14.01,2013-04-10 13:25:00,
2013-04-10 07:26:00,12.3,9.1,30.10,East,91,0.0,0.0,87,0.00,,---,0.00,VWS V14.01,2013-04-10 13:26:00,
2013-04-10 07:27:00,12.4,9.2,30.11,East,91,0.0,0.0,87,0.00,,---,0.00,VWS V14.01,2013-04-10 13:27:00,
2013-04-10 07:28:00,12.4,9.2,30.11,East,91,0.0,0.0,87,0.00,,---,0.00,VWS V14.01,2013-04-10 13:28:00,
2013-04-10 07:29:00,12.5,9.3,30.10,East,91,0.0,0.0,87,0.00,,---,0.00,VWS V14.01,2013-04-10 13:29:00,
2013-04-10 07:30:00,12.5,9.2,30.10,East,91,0.0,0.0,86,0.00,,---,0.00,VWS V14.01,2013-04-10 13:30:00,
2013-04-10 07:31:00,12.5,9.2,30.10,East,91,0.0,0.0,86,0.00,,---,0.00,VWS V14.01,2013-04-10 13:31:00,
2013-04-10 07:32:00,12.6,9.2,30.10,East,91,0.0,0.0,86,0.00,,---,0.00,VWS V14.01,2013-04-10 13:32:00,
2013-04-10 07:33:00,12.6,9.2,30.10,East,91,0.0,0.0,86,0.00,,---,0.00,VWS V14.01,2013-04-10 13:33:00,
2013-04-10 07:34:00,12.6,9.2,30.10,East,91,0.0,0.0,86,0.00,,---,0.00,VWS V14.01,2013-04-10 13:34:00,
2013-04-10 07:35:00,12.6,9.2,30.11,East,91,0.0,0.0,86,0.00,,---,0.00,VWS V14.01,2013-04-10 13:35:00,
2013-04-10 07:36:00,12.7,9.3,30.11,East,91,0.0,0.0,86,0.00,,---,0.00,VWS V14.01,2013-04-10 13:36:00,
2013-04-10 07:37:00,12.7,9.3,30.11,East,91,0.0,0.0,86,0.00,,---,0.00,VWS V14.01,2013-04-10 13:37:00,
2013-04-10 07:38:00,12.8,9.3,30.11,East,91,0.0,0.0,86,0.00,,---,0.00,VWS V14.01,2013-04-10 13:38:00,
2013-04-10 07:39:00,12.8,9.3,30.11,East,91,0.0,0.0,86,0.00,,---,0.00,VWS V14.01,2013-04-10 13:39:00,
2013-04-10 07:40:00,12.8,9.3,30.11,East,91,0.0,0.0,86,0.00,,---,0.00,VWS V14.01,2013-04-10 13:40:00,
2013-04-10 07:41:00,12.9,9.4,30.11,East,91,0.0,0.0,86,0.00,,---,0.00,VWS V14.01,2013-04-10 13:41:00,
2013-04-10 07:42:00,12.9,9.4,30.11,East,100,4.4,4.4,85,0.00,,---,0.00,VWS V14.01,2013-04-10 13:42:00,
2013-04-10 07:43:00,12.9,9.3,30.11,ENE,77,3.2,4.7,85,0.00,,---,0.00,VWS V14.01,2013-04-10 13:43:00,
2013-04-10 07:44:00,13.0,9.4,30.11,ESE,110,0.0,0.0,85,0.00,,---,0.00,VWS V14.01,2013-04-10 13:44:00,
2013-04-10 07:45:00,13.0,9.4,30.11,ESE,110,0.0,0.0,85,0.00,,---,0.00,VWS V14.01,2013-04-10 13:45:00,
2013-04-10 07:46:00,13.0,9.4,30.11,ESE,110,0.0,0.0,85,0.00,,---,0.00,VWS V14.01,2013-04-10 13:46:00,
2013-04-10 07:47:00,13.1,9.5,30.11,ESE,110,0.0,0.0,85,0.00,,---,0.00,VWS V14.01,2013-04-10 13:47:00,
2013-04-10 07:48:00,13.1,9.5,30.12,ESE,110,0.0,0.0,85,0.00,,---,0.00,VWS V14.01,2013-04-10 13:48:00,
2013-04-10 07:49:00,13.2,9.6,30.12,ESE,110,0.0,0.0,85,0.00,,---,0.00,VWS V14.01,2013-04-10 13:49:00,
2013-04-10 07:50:00,13.3,9.6,30.12,ESE,110,0.0,0.0,85,0.00,,---,0.00,VWS V14.01,2013-04-10 13:50:00,
2013-04-10 07:51:00,13.4,9.7,30.12,ESE,110,0.0,0.0,85,0.00,,---,0.00,VWS V14.01,2013-04-10 13:51:00,
2013-04-10 07:52:00,13.5,9.8,30.12,ESE,110,0.0,0.0,85,0.00,,---,0.00,VWS V14.01,2013-04-10 13:52:00,
2013-04-10 07:53:00,13.5,9.8,30.12,ESE,110,0.0,0.0,85,0.00,,---,0.00,VWS V14.01,2013-04-10 13:53:00,
2013-04-10 07:54:00,13.7,9.9,30.12,ESE,110,0.0,0.0,85,0.00,,---,0.00,VWS V14.01,2013-04-10 13:54:00,
2013-04-10 07:55:00,13.7,9.9,30.12,SSW,198,0.0,0.0,85,0.00,,---,0.00,VWS V14.01,2013-04-10 13:55:00,
2013-04-10 07:56:00,13.8,10.0,30.12,SSW,198,0.0,0.0,84,0.00,,---,0.00,VWS V14.01,2013-04-10 13:56:00,
2013-04-10 07:57:00,13.9,10.1,30.12,SSW,198,0.0,0.0,84,0.00,,---,0.00,VWS V14.01,2013-04-10 13:57:00,
2013-04-10 07:58:00,13.9,10.1,30.12,SSW,198,0.0,0.0,84,0.00,,---,0.00,VWS V14.01,2013-04-10 13:58:00,
2013-04-10 07:59:00,14.0,10.1,30.12,SSW,198,0.0,0.0,84,0.00,,---,0.00,VWS V14.01,2013-04-10 13:59:00,
2013-04-10 08:00:00,14.1,10.2,30.12,SSW,198,0.0,0.0,84,0.00,,---,0.00,VWS V14.01,2013-04-10 14:00:00,
2013-04-10 08:01:00,14.3,10.4,30.12,SSW,198,0.0,0.0,84,0.00,,---,0.00,VWS V14.01,2013-04-10 14:01:00,
2013-04-10 08:02:00,14.3,10.4,30.12,SSW,198,0.0,0.0,84,0.00,,---,0.00,VWS V14.01,2013-04-10 14:02:00,
2013-04-10 08:03:00,14.3,10.3,30.12,SSW,198,0.0,0.0,84,0.00,,---,0.00,VWS V14.01,2013-04-10 14:03:00,
2013-04-10 08:04:00,14.4,10.4,30.12,SSW,198,0.0,0.0,84,0.00,,---,0.00,VWS V14.01,2013-04-10 14:04:00,
2013-04-10 08:05:00,14.5,10.4,30.12,SSW,198,0.0,0.0,84,0.00,,---,0.00,VWS V14.01,2013-04-10 14:05:00,
2013-04-10 08:06:00,14.6,10.5,30.12,SSW,198,0.0,0.0,83,0.00,,---,0.00,VWS V14.01,2013-04-10 14:06:00,
2013-04-10 08:07:00,14.6,10.4,30.12,SSW,198,0.0,0.0,83,0.00,,---,0.00,VWS V14.01,2013-04-10 14:07:00,
2013-04-10 08:08:00,14.6,10.4,30.12,SSW,198,0.0,0.0,83,0.00,,---,0.00,VWS V14.01,2013-04-10 14:08:00,
2013-04-10 08:09:00,14.7,10.6,30.12,SSW,198,0.0,0.0,83,0.00,,---,0.00,VWS V14.01,2013-04-10 14:09:00,
2013-04-10 08:10:00,14.8,10.7,30.12,SSW,198,0.0,0.0,83,0.00,,---,0.00,VWS V14.01,2013-04-10 14:10:00,
2013-04-10 08:11:00,14.8,10.7,30.12,South,173,0.0,4.3,83,0.00,,---,0.00,VWS V14.01,2013-04-10 14:11:00,
2013-04-10 08:12:00,14.9,10.7,30.12,South,183,0.0,3.4,83,0.00,,---,0.00,VWS V14.01,2013-04-10 14:12:00,
2013-04-10 08:13:00,14.9,10.7,30.12,South,183,0.0,0.0,83,0.00,,---,0.00,VWS V14.01,2013-04-10 14:13:00,
2013-04-10 08:14:00,15.0,10.8,30.12,SSE,163,0.0,0.0,83,0.00,,---,0.00,VWS V14.01,2013-04-10 14:14:00,
2013-04-10 08:15:00,15.2,10.9,30.12,SSE,163,0.0,0.0,83,0.00,,---,0.00,VWS V14.01,2013-04-10 14:15:00,
2013-04-10 08:16:00,15.2,10.9,30.12,SSE,163,0.0,0.0,83,0.00,,---,0.00,VWS V14.01,2013-04-10 14:16:00,
2013-04-10 08:17:00,15.3,11.0,30.11,SSW,193,3.5,5.4,83,0.00,,---,0.00,VWS V14.01,2013-04-10 14:17:00,
2013-04-10 08:18:00,15.4,11.1,30.11,SSE,159,5.7,5.7,83,0.00,,---,0.00,VWS V14.01,2013-04-10 14:18:00,
2013-04-10 08:19:00,15.4,11.0,30.11,SSE,163,0.0,0.0,82,0.00,,---,0.00,VWS V14.01,2013-04-10 14:19:00,
2013-04-10 08:20:00,15.5,11.1,30.12,SSE,163,0.0,0.0,82,0.00,,---,0.00,VWS V14.01,2013-04-10 14:20:00,
2013-04-10 08:21:00,15.6,11.1,30.11,SSE,163,0.0,0.0,82,0.00,,---,0.00,VWS V14.01,2013-04-10 14:21:00,
2013-04-10 08:22:00,15.6,11.1,30.11,SSE,163,0.0,0.0,82,0.00,,---,0.00,VWS V14.01,2013-04-10 14:22:00,
2013-04-10 08:23:00,15.7,11.2,30.11,SSE,163,0.0,0.0,82,0.00,,---,0.00,VWS V14.01,2013-04-10 14:23:00,
2013-04-10 08:24:00,15.8,11.3,30.11,SSE,163,0.0,0.0,82,0.00,,---,0.00,VWS V14.01,2013-04-10 14:24:00,
2013-04-10 08:25:00,15.8,11.2,30.11,SSE,163,0.0,0.0,82,0.00,,---,0.00,VWS V14.01,2013-04-10 14:25:00,
2013-04-10 08:26:00,15.9,11.3,30.11,SSE,163,0.0,0.0,82,0.00,,---,0.00,VWS V14.01,2013-04-10 14:26:00,
2013-04-10 08:27:00,16.0,11.4,30.11,SSE,163,0.0,0.0,82,0.00,,---,0.00,VWS V14.01,2013-04-10 14:27:00,
2013-04-10 08:28:00,16.0,11.3,30.12,SSE,163,0.0,0.0,81,0.00,,---,0.00,VWS V14.01,2013-04-10 14:28:00,
2013-04-10 08:29:00,16.1,11.4,30.12,SSE,163,0.0,0.0,81,0.00,,---,0.00,VWS V14.01,2013-04-10 14:29:00,
2013-04-10 08:30:00,16.2,11.4,30.12,SSE,163,0.0,0.0,81,0.00,,---,0.00,VWS V14.01,2013-04-10 14:30:00,
2013-04-10 08:31:00,16.2,11.3,30.12,SSE,163,0.0,0.0,81,0.00,,---,0.00,VWS V14.01,2013-04-10 14:31:00,
2013-04-10 08:32:00,16.3,11.5,30.12,SSE,163,0.0,0.0,81,0.00,,---,0.00,VWS V14.01,2013-04-10 14:32:00,
2013-04-10 08:33:00,16.4,11.6,30.12,SSE,163,0.0,0.0,81,0.00,,---,0.00,VWS V14.01,2013-04-10 14:33:00,
2013-04-10 08:34:00,16.6,11.7,30.12,SSE,163,0.0,0.0,81,0.00,,---,0.00,VWS V14.01,2013-04-10 14:34:00,
2013-04-10 08:35:00,16.6,11.6,30.12,SSE,163,0.0,0.0,80,0.00,,---,0.00,VWS V14.01,2013-04-10 14:35:00,
2013-04-10 08:36:00,16.8,11.7,30.12,SE,125,4.8,6.2,80,0.00,,---,0.00,VWS V14.01,2013-04-10 14:36:00,
2013-04-10 08:37:00,16.7,11.4,30.12,ESE,117,4.7,4.7,79,0.00,,---,0.00,VWS V14.01,2013-04-10 14:37:00,
2013-04-10 08:38:00,16.7,11.4,30.12,ESE,117,0.0,0.0,79,0.00,,---,0.00,VWS V14.01,2013-04-10 14:38:00,
2013-04-10 08:39:00,16.6,11.3,30.12,ESE,117,0.0,0.0,79,0.00,,---,0.00,VWS V14.01,2013-04-10 14:39:00,
2013-04-10 08:40:00,16.7,11.4,30.12,ESE,117,0.0,0.0,79,0.00,,---,0.00,VWS V14.01,2013-04-10 14:40:00,
2013-04-10 08:41:00,12.9,9.4,30.11,East,91,0.0,0.0,86,0.00,,---,0.00,VWS V14.01,2013-04-10 14:41:00,
2013-04-10 08:42:00,16.7,11.4,30.12,ESE,117,0.0,0.0,79,0.00,,---,0.00,VWS V14.01,2013-04-10 14:42:00,
2013-04-10 08:43:00,16.7,11.3,30.12,ESE,117,0.0,0.0,79,0.00,,---,0.00,VWS V14.01,2013-04-10 14:43:00,
2013-04-10 08:44:00,16.8,11.5,30.12,ESE,117,0.0,0.0,79,0.00,,---,0.00,VWS V14.01,2013-04-10 14:44:00,
2013-04-10 08:45:00,16.9,11.5,30.12,ESE,117,0.0,0.0,79,0.00,,---,0.00,VWS V14.01,2013-04-10 14:45:00,
2013-04-10 08:46:00,17.1,11.7,30.12,ESE,117,0.0,0.0,79,0.00,,---,0.00,VWS V14.01,2013-04-10 14:46:00,
2013-04-10 08:47:00,17.1,11.7,30.12,ESE,117,0.0,0.0,79,0.00,,---,0.00,VWS V14.01,2013-04-10 14:47:00,
2013-04-10 08:48:00,17.2,11.8,30.12,ESE,117,0.0,0.0,79,0.00,,---,0.00,VWS V14.01,2013-04-10 14:48:00,
2013-04-10 08:49:00,17.4,12.0,30.11,ESE,117,0.0,0.0,79,0.00,,---,0.00,VWS V14.01,2013-04-10 14:49:00,
2013-04-10 08:50:00,17.5,12.0,30.11,ESE,117,0.0,0.0,79,0.00,,---,0.00,VWS V14.01,2013-04-10 14:50:00,
2013-04-10 08:51:00,17.7,12.2,30.12,ESE,117,0.0,0.0,78,0.00,,---,0.00,VWS V14.01,2013-04-10 14:51:00,
2013-04-10 08:52:00,17.9,12.3,30.12,ESE,117,0.0,0.0,78,0.00,,---,0.00,VWS V14.01,2013-04-10 14:52:00,
2013-04-10 08:53:00,18.0,12.3,30.12,ESE,117,0.0,0.0,78,0.00,,---,0.00,VWS V14.01,2013-04-10 14:53:00,
2013-04-10 08:54:00,18.2,12.4,30.12,ESE,117,0.0,0.0,78,0.00,,---,0.00,VWS V14.01,2013-04-10 14:54:00,
2013-04-10 08:55:00,18.3,12.4,30.12,ESE,117,0.0,0.0,77,0.00,,---,0.00,VWS V14.01,2013-04-10 14:55:00,
2013-04-10 08:56:00,18.4,12.3,30.12,ESE,117,0.0,0.0,77,0.00,,---,0.00,VWS V14.01,2013-04-10 14:56:00,
2013-04-10 08:57:00,18.4,12.2,30.11,ESE,117,0.0,0.0,76,0.00,,---,0.00,VWS V14.01,2013-04-10 14:57:00,
2013-04-10 08:58:00,18.5,12.3,30.11,ESE,117,0.0,0.0,76,0.00,,---,0.00,VWS V14.01,2013-04-10 14:58:00,
2013-04-10 08:59:00,18.6,12.4,30.11,ESE,117,0.0,0.0,76,0.00,,---,0.00,VWS V14.01,2013-04-10 14:59:00,
2013-04-10 09:00:00,18.7,12.4,30.11,ESE,117,0.0,0.0,76,0.00,,---,0.00,VWS V14.01,2013-04-10 15:00:00,
2013-04-10 09:01:00,18.8,12.3,30.11,ESE,117,0.0,0.0,75,0.00,,---,0.00,VWS V14.01,2013-04-10 15:01:00,
2013-04-10 09:02:00,18.9,12.4,30.11,ESE,117,0.0,0.0,75,0.00,,---,0.00,VWS V14.01,2013-04-10 15:02:00,
2013-04-10 09:03:00,19.0,12.6,30.11,ESE,117,0.0,0.0,76,0.00,,---,0.00,VWS V14.01,2013-04-10 15:03:00,
2013-04-10 09:04:00,19.1,12.6,30.11,ESE,117,0.0,0.0,75,0.00,,---,0.00,VWS V14.01,2013-04-10 15:04:00,
2013-04-10 09:05:00,19.2,12.7,30.11,ESE,117,0.0,0.0,75,0.00,,---,0.00,VWS V14.01,2013-04-10 15:05:00,
2013-04-10 09:06:00,19.4,13.0,30.11,ESE,117,0.0,0.0,76,0.00,,---,0.00,VWS V14.01,2013-04-10 15:06:00,
2013-04-10 09:07:00,19.6,13.1,30.11,ESE,117,0.0,0.0,76,0.00,,---,0.00,VWS V14.01,2013-04-10 15:07:00,
2013-04-10 09:08:00,19.7,13.1,30.11,ESE,117,0.0,0.0,75,0.00,,---,0.00,VWS V14.01,2013-04-10 15:08:00,
2013-04-10 09:09:00,19.8,12.9,30.11,East,97,0.0,3.0,74,0.00,,---,0.00,VWS V14.01,2013-04-10 15:09:00,
2013-04-10 09:10:00,19.8,12.7,30.11,East,97,0.0,0.0,74,0.00,,---,0.00,VWS V14.01,2013-04-10 15:10:00,
2013-04-10 09:11:00,19.8,12.7,30.11,East,97,0.0,0.0,74,0.00,,---,0.00,VWS V14.01,2013-04-10 15:11:00,
2013-04-10 09:12:00,14.9,10.7,30.12,South,183,0.0,3.4,83,0.00,,---,0.00,VWS V14.01,2013-04-10 15:12:00,
2013-04-10 09:13:00,20.0,12.9,30.11,East,97,0.0,0.0,74,0.00,,---,0.00,VWS V14.01,2013-04-10 15:13:00,
2013-04-10 09:14:00,20.0,13.0,30.11,East,97,0.0,0.0,74,0.00,,---,0.00,VWS V14.01,2013-04-10 15:14:00,
2013-04-10 09:15:00,20.1,12.9,30.10,North,359,0.0,0.0,73,0.00,,---,0.00,VWS V14.01,2013-04-10 15:15:00,
2013-04-10 09:16:00,20.2,13.0,30.10,North,359,0.0,0.0,73,0.00,,---,0.00,VWS V14.01,2013-04-10 15:16:00,
2013-04-10 09:17:00,20.3,13.2,30.11,North,359,0.0,0.0,73,0.00,,---,0.00,VWS V14.01,2013-04-10 15:17:00,
2013-04-10 09:18:00,20.4,13.3,30.11,North,359,0.0,0.0,73,0.00,,---,0.00,VWS V14.01,2013-04-10 15:18:00,
2013-04-10 09:19:00,20.4,13.3,30.11,North,359,0.0,0.0,73,0.00,,---,0.00,VWS V14.01,2013-04-10 15:19:00,
2013-04-10 09:20:00,20.7,13.4,30.11,North,359,0.0,0.0,73,0.00,,---,0.00,VWS V14.01,2013-04-10 15:20:00,
2013-04-10 09:21:00,20.8,13.4,30.11,North,359,0.0,0.0,73,0.00,,---,0.00,VWS V14.01,2013-04-10 15:21:00,
2013-04-10 09:22:00,20.9,13.5,30.11,North,359,0.0,0.0,73,0.00,,---,0.00,VWS V14.01,2013-04-10 15:22:00,
2013-04-10 09:23:00,21.0,13.4,30.10,North,359,0.0,0.0,72,0.00,,---,0.00,VWS V14.01,2013-04-10 15:23:00,
2013-04-10 09:24:00,21.0,13.5,30.10,North,359,0.0,0.0,72,0.00,,---,0.00,VWS V14.01,2013-04-10 15:24:00,
2013-04-10 09:25:00,21.2,13.5,30.11,SSW,194,2.4,3.5,72,0.00,,---,0.00,VWS V14.01,2013-04-10 15:25:00,
2013-04-10 09:26:00,21.3,13.6,30.11,SSW,194,0.0,0.0,72,0.00,,---,0.00,VWS V14.01,2013-04-10 15:26:00,
2013-04-10 09:27:00,21.4,13.7,30.11,SSW,194,0.0,0.0,72,0.00,,---,0.00,VWS V14.01,2013-04-10 15:27:00,
2013-04-10 09:28:00,21.5,13.7,30.11,SSW,194,0.0,0.0,71,0.00,,---,0.00,VWS V14.01,2013-04-10 15:28:00,
2013-04-10 09:29:00,21.5,13.7,30.11,SSW,194,0.0,0.0,72,0.00,,---,0.00,VWS V14.01,2013-04-10 15:29:00,
2013-04-10 09:30:00,21.6,13.5,30.10,South,187,7.0,7.1,71,0.00,,---,0.00,VWS V14.01,2013-04-10 15:30:00,
2013-04-10 09:31:00,21.7,13.5,30.11,South,176,0.0,3.4,70,0.00,,---,0.00,VWS V14.01,2013-04-10 15:31:00,
2013-04-10 09:32:00,21.7,13.4,30.10,South,176,0.0,0.0,70,0.00,,---,0.00,VWS V14.01,2013-04-10 15:32:00,
2013-04-10 09:33:00,21.7,13.3,30.10,WSW,246,2.7,5.0,70,0.00,,---,0.00,VWS V14.01,2013-04-10 15:33:00,
2013-04-10 09:34:00,21.7,13.3,30.10,WSW,246,4.6,5.0,70,0.00,,---,0.00,VWS V14.01,2013-04-10 15:34:00,
2013-04-10 09:35:00,21.7,13.3,30.10,SE,131,2.4,4.5,70,0.00,,---,0.00,VWS V14.01,2013-04-10 15:35:00,
2013-04-10 09:36:00,21.7,13.2,30.10,SE,131,0.0,0.0,69,0.00,,---,0.00,VWS V14.01,2013-04-10 15:36:00,
2013-04-10 09:37:00,21.7,13.3,30.10,SE,131,0.0,0.0,70,0.00,,---,0.00,VWS V14.01,2013-04-10 15:37:00,
2013-04-10 09:38:00,21.7,13.4,30.10,SE,131,0.0,0.0,70,0.00,,---,0.00,VWS V14.01,2013-04-10 15:38:00,
2013-04-10 09:39:00,21.8,13.5,30.10,SE,131,0.0,0.0,70,0.00,,---,0.00,VWS V14.01,2013-04-10 15:39:00,
2013-04-10 09:40:00,21.8,13.5,30.10,SSE,165,1.2,4.7,70,0.00,,---,0.00,VWS V14.01,2013-04-10 15:40:00,
2013-04-10 09:41:00,21.9,13.6,30.10,SW,229,6.3,6.8,70,0.00,,---,0.00,VWS V14.01,2013-04-10 15:41:00,
2013-04-10 09:42:00,21.9,13.4,30.10,SW,235,6.4,6.8,69,0.00,,---,0.00,VWS V14.01,2013-04-10 15:42:00,
2013-04-10 09:43:00,22.0,13.5,30.10,SSW,201,0.0,0.0,69,0.00,,---,0.00,VWS V14.01,2013-04-10 15:43:00,
2013-04-10 09:44:00,22.0,13.5,30.10,SSW,201,0.0,0.0,69,0.00,,---,0.00,VWS V14.01,2013-04-10 15:44:00,
2013-04-10 09:45:00,22.1,13.5,30.10,SSW,201,0.0,0.0,69,0.00,,---,0.00,VWS V14.01,2013-04-10 15:45:00,
2013-04-10 09:46:00,17.1,11.7,30.12,ESE,117,0.0,0.0,79,0.00,,---,0.00,VWS V14.01,2013-04-10 15:46:00,
2013-04-10 09:47:00,22.3,13.8,30.10,SSW,207,4.2,5.8,69,0.00,,---,0.00,VWS V14.01,2013-04-10 15:47:00,
2013-04-10 09:48:00,22.4,13.9,30.10,South,181,0.0,0.0,69,0.00,,---,0.00,VWS V14.01,2013-04-10 15:48:00,
2013-04-10 09:49:00,22.4,13.9,30.10,South,181,0.0,0.0,69,0.00,,---,0.00,VWS V14.01,2013-04-10 15:49:00,
2013-04-10 09:50:00,22.6,13.8,30.10,South,181,0.0,0.0,68,0.00,,---,0.00,VWS V14.01,2013-04-10 15:50:00,
2013-04-10 09:51:00,22.7,13.9,30.10,South,181,0.0,0.0,68,0.00,,---,0.00,VWS V14.01,2013-04-10 15:51:00,
2013-04-10 09:52:00,22.7,13.7,30.10,South,181,0.0,0.0,68,0.00,,---,0.00,VWS V14.01,2013-04-10 15:52:00,
2013-04-10 09:53:00,22.8,13.8,30.10,South,181,0.0,0.0,68,0.00,,---,0.00,VWS V14.01,2013-04-10 15:53:00,
2013-04-10 09:54:00,22.8,13.8,30.10,South,181,0.0,0.0,68,0.00,,---,0.00,VWS V14.01,2013-04-10 15:54:00,
2013-04-10 09:55:00,23.0,14.0,30.10,South,181,0.0,0.0,68,0.00,,---,0.00,VWS V14.01,2013-04-10 15:55:00,
2013-04-10 09:56:00,23.1,14.1,30.10,South,181,0.0,0.0,68,0.00,,---,0.00,VWS V14.01,2013-04-10 15:56:00,
2013-04-10 09:57:00,23.2,14.2,30.10,South,181,0.0,0.0,68,0.00,,---,0.00,VWS V14.01,2013-04-10 15:57:00,
2013-04-10 09:58:00,23.3,14.3,30.10,South,181,0.0,0.0,68,0.00,,---,0.00,VWS V14.01,2013-04-10 15:58:00,
2013-04-10 09:59:00,23.3,14.3,30.10,South,181,0.0,0.0,68,0.00,,---,0.00,VWS V14.01,2013-04-10 15:59:00,
2013-04-10 10:00:00,23.6,14.7,30.10,SSW,207,5.3,6.3,68,0.00,,---,0.00,VWS V14.01,2013-04-10 16:00:00,
2013-04-10 10:01:00,23.8,15.0,30.10,SW,235,0.0,0.0,69,0.00,,---,0.00,VWS V14.01,2013-04-10 16:01:00,
2013-04-10 10:02:00,24.0,14.9,30.10,SW,235,0.0,0.0,68,0.00,,---,0.00,VWS V14.01,2013-04-10 16:02:00,
2013-04-10 10:03:00,24.1,14.7,30.10,SE,134,4.7,5.5,67,0.00,,---,0.00,VWS V14.01,2013-04-10 16:03:00,
2013-04-10 10:04:00,24.1,14.7,30.10,SE,134,4.7,5.5,67,0.00,,---,0.00,VWS V14.01,2013-04-10 16:04:00,
2013-04-10 10:05:00,24.2,14.8,30.10,SW,221,5.5,5.5,67,0.00,,---,0.00,VWS V14.01,2013-04-10 16:05:00,
2013-04-10 10:06:00,24.3,15.1,30.10,SW,214,6.2,7.6,67,0.00,,---,0.00,VWS V14.01,2013-04-10 16:06:00,
2013-04-10 10:07:00,24.4,15.2,30.10,SW,221,3.4,3.4,68,0.00,,---,0.00,VWS V14.01,2013-04-10 16:07:00,
2013-04-10 10:08:00,24.5,15.0,30.10,SSE,162,0.0,0.0,67,0.00,,---,0.00,VWS V14.01,2013-04-10 16:08:00,
2013-04-10 10:09:00,24.5,15.0,30.10,SSE,162,2.5,2.5,67,0.00,,---,0.00,VWS V14.01,2013-04-10 16:09:00,
2013-04-10 10:10:00,24.5,14.8,30.10,SSE,153,0.0,0.0,66,0.00,,---,0.00,VWS V14.01,2013-04-10 16:10:00,
2013-04-10 10:11:00,24.5,14.6,30.10,SSE,153,0.0,0.0,66,0.00,,---,0.00,VWS V14.01,2013-04-10 16:11:00,
2013-04-10 10:12:00,24.5,14.4,30.10,SSE,153,0.0,0.0,65,0.00,,---,0.00,VWS V14.01,2013-04-10 16:12:00,
2013-04-10 10:13:00,24.5,14.5,30.10,SSE,153,0.0,0.0,65,0.00,,---,0.00,VWS V14.01,2013-04-10 16:13:00,
2013-04-10 10:14:00,24.5,14.5,30.10,SSE,153,0.0,0.0,65,0.00,,---,0.00,VWS V14.01,2013-04-10 16:14:00,
2013-04-10 10:15:00,24.6,14.5,30.09,SSE,153,0.0,0.0,65,0.00,,---,0.00,VWS V14.01,2013-04-10 16:15:00,
2013-04-10 10:16:00,24.7,14.9,30.09,SSE,153,0.0,0.0,66,0.00,,---,0.00,VWS V14.01,2013-04-10 16:16:00,
2013-04-10 10:17:00,24.9,15.3,30.09,SSE,153,0.0,0.0,66,0.00,,---,0.00,VWS V14.01,2013-04-10 16:17:00,
2013-04-10 10:18:00,25.1,15.6,30.09,SSW,212,6.0,7.5,67,0.00,,---,0.00,VWS V14.01,2013-04-10 16:18:00,
2013-04-10 10:19:00,25.1,15.6,30.09,SSW,212,6.0,7.5,67,0.00,,---,0.00,VWS V14.01,2013-04-10 16:19:00,
2013-04-10 10:20:00,25.2,15.0,30.09,SW,235,3.2,5.0,65,0.00,,---,0.00,VWS V14.01,2013-04-10 16:20:00,
2013-04-10 10:21:00,25.2,15.0,30.09,SW,235,0.0,0.0,65,0.00,,---,0.00,VWS V14.01,2013-04-10 16:21:00,
2013-04-10 10:22:00,25.2,14.9,30.09,SW,235,0.0,0.0,64,0.00,,---,0.00,VWS V14.01,2013-04-10 16:22:00,
2013-04-10 10:23:00,25.3,15.0,30.09,SSW,193,3.5,4.4,64,0.00,,---,0.00,VWS V14.01,2013-04-10 16:23:00,
2013-04-10 10:24:00,25.3,15.0,30.09,SSW,193,3.5,4.4,64,0.00,,---,0.00,VWS V14.01,2013-04-10 16:24:00,
2013-04-10 10:25:00,25.4,14.9,30.09,WSW,238,7.0,7.8,64,0.00,,---,0.00,VWS V14.01,2013-04-10 16:25:00,
2013-04-10 10:26:00,25.5,15.3,30.09,SW,231,3.5,5.5,65,0.00,,---,0.00,VWS V14.01,2013-04-10 16:26:00,
2013-04-10 10:27:00,25.6,15.5,30.10,SSW,212,0.0,0.0,65,0.00,,---,0.00,VWS V14.01,2013-04-10 16:27:00,
2013-04-10 10:28:00,25.7,15.3,30.09,SSW,212,0.0,0.0,64,0.00,,---,0.00,VWS V14.01,2013-04-10 16:28:00,
2013-04-10 10:29:00,25.7,15.3,30.09,SSW,212,0.0,0.0,64,0.00,,---,0.00,VWS V14.01,2013-04-10 16:29:00,
2013-04-10 10:30:00,25.8,15.2,30.09,SSE,149,0.0,0.0,64,0.00,,---,0.00,VWS V14.01,2013-04-10 16:30:00,
2013-04-10 10:31:00,25.8,15.2,30.09,SSE,149,0.0,0.0,64,0.00,,---,0.00,VWS V14.01,2013-04-10 16:31:00,
2013-04-10 10:32:00,25.8,15.1,30.09,SSE,149,0.0,0.0,63,0.00,,---,0.00,VWS V14.01,2013-04-10 16:32:00,
2013-04-10 10:33:00,25.9,15.2,30.09,SW,231,5.9,7.5,63,0.00,,---,0.00,VWS V14.01,2013-04-10 16:33:00,
2013-04-10 10:34:00,25.9,15.2,30.09,SW,231,5.9,7.5,63,0.00,,---,0.00,VWS V14.01,2013-04-10 16:34:00,
2013-04-10 10:35:00,26.2,15.8,30.09,SW,215,5.7,5.9,64,0.00,,---,0.00,VWS V14.01,2013-04-10 16:35:00,
2013-04-10 10:36:00,26.3,15.8,30.09,SW,221,0.0,3.1,64,0.00,,---,0.00,VWS V14.01,2013-04-10 16:36:00,
2013-04-10 10:37:00,26.4,15.8,30.09,West,266,3.4,5.0,64,0.00,,---,0.00,VWS V14.01,2013-04-10 16:37:00,
2013-04-10 10:38:00,26.5,15.8,30.09,SW,226,0.0,0.0,64,0.00,,---,0.00,VWS V14.01,2013-04-10 16:38:00,
2013-04-10 10:39:00,26.5,15.8,30.09,SW,226,0.0,0.0,64,0.00,,---,0.00,VWS V14.01,2013-04-10 16:39:00,
2013-04-10 10:40:00,26.6,15.4,30.09,SW,228,3.4,4.8,62,0.00,,---,0.00,VWS V14.01,2013-04-10 16:40:00,
2013-04-10 10:41:00,26.7,15.5,30.09,SSW,201,0.0,0.0,62,0.00,,---,0.00,VWS V14.01,2013-04-10 16:41:00,
2013-04-10 10:42:00,26.7,15.4,30.09,SSW,201,0.0,0.0,62,0.00,,---,0.00,VWS V14.01,2013-04-10 16:42:00,
2013-04-10 10:43:00,26.8,15.3,30.09,SSW,201,0.0,0.0,61,0.00,,---,0.00,VWS V14.01,2013-04-10 16:43:00,
2013-04-10 10:44:00,26.8,15.3,30.09,SSW,201,0.0,0.0,61,0.00,,---,0.00,VWS V14.01,2013-04-10 16:44:00,
2013-04-10 10:45:00,26.9,15.1,30.09,SSW,201,0.0,0.0,61,0.00,,---,0.00,VWS V14.01,2013-04-10 16:45:00,
2013-04-10 10:46:00,27.0,15.3,30.09,SSW,201,0.0,0.0,61,0.00,,---,0.00,VWS V14.01,2013-04-10 16:46:00,
2013-04-10 10:47:00,27.2,15.6,30.08,SSW,201,0.0,0.0,61,0.00,,---,0.00,VWS V14.01,2013-04-10 16:47:00,
2013-04-10 10:48:00,27.4,15.8,30.09,SSW,201,0.0,0.0,61,0.00,,---,0.00,VWS V14.01,2013-04-10 16:48:00,
2013-04-10 10:49:00,27.3,15.7,30.09,SSW,201,0.0,0.0,61,0.00,,---,0.00,VWS V14.01,2013-04-10 16:49:00,
2013-04-10 10:50:00,27.6,15.8,30.08,SSW,201,0.0,0.0,61,0.00,,---,0.00,VWS V14.01,2013-04-10 16:50:00,
2013-04-10 10:51:00,27.8,15.6,30.08,SSW,201,0.0,0.0,60,0.00,,---,0.00,VWS V14.01,2013-04-10 16:51:00,
2013-04-10 10:52:00,27.8,15.4,30.08,SSW,201,0.0,0.0,59,0.00,,---,0.00,VWS V14.01,2013-04-10 16:52:00,
2013-04-10 10:53:00,27.7,14.7,30.08,SSW,201,0.0,0.0,58,0.00,,---,0.00,VWS V14.01,2013-04-10 16:53:00,
2013-04-10 10:54:00,27.7,14.7,30.08,SSW,201,0.0,0.0,58,0.00,,---,0.00,VWS V14.01,2013-04-10 16:54:00,
2013-04-10 10:55:00,27.5,14.4,30.08,SSW,201,0.0,0.0,57,0.00,,---,0.00,VWS V14.01,2013-04-10 16:55:00,
2013-04-10 10:56:00,27.4,14.4,30.08,SSW,201,0.0,0.0,58,0.00,,---,0.00,VWS V14.01,2013-04-10 16:56:00,
2013-04-10 10:57:00,27.4,14.8,30.08,SSW,201,0.0,0.0,59,0.00,,---,0.00,VWS V14.01,2013-04-10 16:57:00,
2013-04-10 10:58:00,27.4,15.0,30.08,WSW,245,3.1,3.3,59,0.00,,---,0.00,VWS V14.01,2013-04-10 16:58:00,
2013-04-10 10:59:00,27.4,15.0,30.08,WSW,245,0.0,3.3,59,0.00,,---,0.00,VWS V14.01,2013-04-10 16:59:00,
2013-04-10 11:00:00,27.5,15.4,30.08,WSW,245,0.0,0.0,60,0.00,,---,0.00,VWS V14.01,2013-04-10 17:00:00,
2013-04-10 11:01:00,27.7,15.5,30.08,WSW,245,0.0,0.0,60,0.00,,---,0.00,VWS V14.01,2013-04-10 17:01:00,
2013-04-10 11:02:00,27.8,15.2,30.08,WSW,245,0.0,0.0,59,0.00,,---,0.00,VWS V14.01,2013-04-10 17:02:00,
2013-04-10 11:03:00,27.8,15.0,30.07,WSW,245,0.0,0.0,58,0.00,,---,0.00,VWS V14.01,2013-04-10 17:03:00,
2013-04-10 11:04:00,27.8,15.0,30.07,WSW,245,0.0,0.0,58,0.00,,---,0.00,VWS V14.01,2013-04-10 17:04:00,
2013-04-10 11:05:00,28.1,15.4,30.07,WSW,245,0.0,0.0,58,0.00,,---,0.00,VWS V14.01,2013-04-10 17:05:00,
2013-04-10 11:06:00,28.2,15.3,30.07,WSW,245,0.0,0.0,58,0.00,,---,0.00,VWS V14.01,2013-04-10 17:06:00,
2013-04-10 11:07:00,28.3,15.4,30.07,WSW,245,0.0,0.0,58,0.00,,---,0.00,VWS V14.01,2013-04-10 17:07:00,
2013-04-10 11:08:00,28.5,15.5,30.07,WSW,245,0.0,0.0,58,0.00,,---,0.00,VWS V14.01,2013-04-10 17:08:00,
2013-04-10 11:09:00,28.4,15.4,30.07,WSW,245,0.0,0.0,58,0.00,,---,0.00,VWS V14.01,2013-04-10 17:09:00,
2013-04-10 11:10:00,28.8,15.9,30.07,WSW,245,0.0,0.0,58,0.00,,---,0.00,VWS V14.01,2013-04-10 17:10:00,
2013-04-10 11:11:00,28.8,16.0,30.07,WSW,245,0.0,0.0,58,0.00,,---,0.00,VWS V14.01,2013-04-10 17:11:00,
2013-04-10 11:12:00,29.0,15.9,30.07,WSW,245,0.0,0.0,58,0.00,,---,0.00,VWS V14.01,2013-04-10 17:12:00,
2013-04-10 11:13:00,29.0,15.3,30.07,ESE,112,4.2,5.0,56,0.00,,---,0.00,VWS V14.01,2013-04-10 17:13:00,
2013-04-10 11:14:00,28.9,15.1,30.07,ESE,120,0.0,4.2,56,0.00,,---,0.00,VWS V14.01,2013-04-10 17:14:00,
2013-04-10 11:15:00,28.7,14.6,30.07,East,98,0.0,0.0,55,0.00,,---,0.00,VWS V14.01,2013-04-10 17:15:00,
2013-04-10 11:16:00,28.5,14.4,30.07,East,98,0.0,0.0,55,0.00,,---,0.00,VWS V14.01,2013-04-10 17:16:00,
2013-04-10 11:17:00,28.4,14.4,30.07,East,98,0.0,0.0,55,0.00,,---,0.00,VWS V14.01,2013-04-10 17:17:00,
2013-04-10 11:18:00,28.3,14.3,30.07,East,98,0.0,0.0,55,0.00,,---,0.00,VWS V14.01,2013-04-10 17:18:00,
2013-04-10 11:19:00,28.3,14.4,30.07,East,98,0.0,0.0,55,0.00,,---,0.00,VWS V14.01,2013-04-10 17:19:00,
2013-04-10 11:20:00,28.3,14.7,30.06,East,98,0.0,0.0,56,0.00,,---,0.00,VWS V14.01,2013-04-10 17:20:00,
2013-04-10 11:21:00,28.3,14.5,30.06,East,98,0.0,0.0,56,0.00,,---,0.00,VWS V14.01,2013-04-10 17:21:00,
2013-04-10 11:22:00,28.4,14.5,30.06,East,98,0.0,0.0,55,0.00,,---,0.00,VWS V14.01,2013-04-10 17:22:00,
2013-04-10 11:23:00,28.3,14.3,30.06,ENE,68,0.0,2.7,55,0.00,,---,0.00,VWS V14.01,2013-04-10 17:23:00,
2013-04-10 11:24:00,28.3,14.3,30.06,ENE,68,0.0,0.0,55,0.00,,---,0.00,VWS V14.01,2013-04-10 17:24:00,
2013-04-10 11:25:00,28.3,14.3,30.06,ENE,68,0.0,0.0,55,0.00,,---,0.00,VWS V14.01,2013-04-10 17:25:00,
2013-04-10 11:26:00,28.2,14.2,30.05,ENE,68,0.0,0.0,55,0.00,,---,0.00,VWS V14.01,2013-04-10 17:26:00,
2013-04-10 11:27:00,28.3,14.3,30.06,ENE,68,0.0,0.0,55,0.00,,---,0.00,VWS V14.01,2013-04-10 17:27:00,
2013-04-10 11:28:00,28.3,14.3,30.05,ENE,68,0.0,0.0,55,0.00,,---,0.00,VWS V14.01,2013-04-10 17:28:00,
2013-04-10 11:29:00,28.4,14.4,30.05,ENE,68,0.0,0.0,55,0.00,,---,0.00,VWS V14.01,2013-04-10 17:29:00,
2013-04-10 11:30:00,28.5,14.2,30.05,ENE,68,0.0,0.0,55,0.00,,---,0.00,VWS V14.01,2013-04-10 17:30:00,
2013-04-10 11:31:00,28.5,13.9,30.05,NE,55,5.3,5.3,54,0.00,,---,0.00,VWS V14.01,2013-04-10 17:31:00,
2013-04-10 11:32:00,28.4,13.5,30.05,NNW,332,3.4,5.3,53,0.00,,---,0.00,VWS V14.01,2013-04-10 17:32:00,
2013-04-10 11:33:00,28.3,13.6,30.05,North,354,0.0,0.0,54,0.00,,---,0.00,VWS V14.01,2013-04-10 17:33:00,
2013-04-10 11:34:00,28.3,13.5,30.05,North,354,0.0,0.0,53,0.00,,---,0.00,VWS V14.01,2013-04-10 17:34:00,
2013-04-10 11:35:00,28.1,13.3,30.05,NNE,13,0.0,0.0,53,0.00,,---,0.00,VWS V14.01,2013-04-10 17:35:00,
2013-04-10 11:36:00,28.0,13.1,30.05,ENE,60,3.5,4.2,53,0.00,,---,0.00,VWS V14.01,2013-04-10 17:36:00,
2013-04-10 11:37:00,27.8,12.9,30.05,ENE,60,0.0,0.0,53,0.00,,---,0.00,VWS V14.01,2013-04-10 17:37:00,
2013-04-10 11:38:00,27.8,12.9,30.05,NE,38,4.8,4.8,53,0.00,,---,0.00,VWS V14.01,2013-04-10 17:38:00,
2013-04-10 11:39:00,27.8,12.9,30.05,ESE,117,6.2,6.3,53,0.00,,---,0.00,VWS V14.01,2013-04-10 17:39:00,
2013-04-10 11:40:00,27.7,12.7,30.05,NNE,22,5.9,7.8,53,0.00,,---,0.00,VWS V14.01,2013-04-10 17:40:00,
2013-04-10 11:41:00,27.5,12.4,30.05,NNW,333,0.0,0.0,52,0.00,,---,0.00,VWS V14.01,2013-04-10 17:41:00,
2013-04-10 11:42:00,27.4,12.4,30.05,NE,38,4.9,5.8,53,0.00,,---,0.00,VWS V14.01,2013-04-10 17:42:00,
2013-04-10 11:43:00,27.2,12.3,30.05,NNW,340,0.0,3.3,53,0.00,,---,0.00,VWS V14.01,2013-04-10 17:43:00,
2013-04-10 11:44:00,27.2,12.4,30.05,NNW,340,4.7,6.4,53,0.00,,---,0.00,VWS V14.01,2013-04-10 17:44:00,
2013-04-10 11:45:00,27.1,12.8,30.05,NNW,338,0.0,3.3,54,0.00,,---,0.00,VWS V14.01,2013-04-10 17:45:00,
2013-04-10 11:46:00,27.1,13.1,30.04,ESE,111,4.7,6.6,55,0.00,,---,0.00,VWS V14.01,2013-04-10 17:46:00,
2013-04-10 11:47:00,27.3,13.3,30.04,ENE,66,0.0,0.0,55,0.00,,---,0.00,VWS V14.01,2013-04-10 17:47:00,
2013-04-10 11:48:00,27.4,13.3,30.04,ENE,66,0.0,0.0,55,0.00,,---,0.00,VWS V14.01,2013-04-10 17:48:00,
2013-04-10 11:49:00,27.5,13.3,30.04,ENE,66,0.0,0.0,55,0.00,,---,0.00,VWS V14.01,2013-04-10 17:49:00,
2013-04-10 11:50:00,27.7,13.4,30.04,ESE,112,4.2,6.1,54,0.00,,---,0.00,VWS V14.01,2013-04-10 17:50:00,
2013-04-10 11:51:00,27.7,13.2,30.04,ESE,118,2.9,3.4,54,0.00,,---,0.00,VWS V14.01,2013-04-10 17:51:00,
2013-04-10 11:52:00,27.7,13.1,30.04,NE,35,0.0,4.3,54,0.00,,---,0.00,VWS V14.01,2013-04-10 17:52:00,
2013-04-10 11:53:00,27.8,13.2,30.04,SE,125,3.1,3.5,54,0.00,,---,0.00,VWS V14.01,2013-04-10 17:53:00,
2013-04-10 11:54:00,27.8,13.3,30.04,SE,125,0.0,0.0,54,0.00,,---,0.00,VWS V14.01,2013-04-10 17:54:00,
2013-04-10 11:55:00,28.0,13.9,30.04,SSW,208,0.0,0.0,55,0.00,,---,0.00,VWS V14.01,2013-04-10 17:55:00,
2013-04-10 11:56:00,28.1,14.1,30.04,ENE,69,4.7,4.7,55,0.00,,---,0.00,VWS V14.01,2013-04-10 17:56:00,
2013-04-10 11:57:00,28.4,14.3,30.04,East,91,3.2,6.6,55,0.00,,---,0.00,VWS V14.01,2013-04-10 17:57:00,
2013-04-10 11:58:00,28.4,13.9,30.04,SSE,149,5.7,6.3,54,0.00,,---,0.00,VWS V14.01,2013-04-10 17:58:00,
2013-04-10 11:59:00,28.5,14.1,30.04,SSE,166,5.7,8.5,54,0.00,,---,0.00,VWS V14.01,2013-04-10 17:59:00,
2013-04-10 12:00:00,28.6,14.2,30.04,NE,41,0.0,0.0,54,0.00,,---,0.00,VWS V14.01,2013-04-10 18:00:00,
2013-04-10 12:01:00,28.7,14.6,30.04,SE,124,6.2,6.2,55,0.00,,---,0.00,VWS V14.01,2013-04-10 18:01:00,
2013-04-10 12:02:00,28.8,14.1,30.04,ENE,63,0.0,3.4,54,0.00,,---,0.00,VWS V14.01,2013-04-10 18:02:00,
2013-04-10 12:03:00,28.7,13.9,30.04,NE,34,5.7,8.7,53,0.00,,---,0.00,VWS V14.01,2013-04-10 18:03:00,
2013-04-10 12:04:00,28.6,13.6,30.04,NE,35,0.0,3.4,53,0.00,,---,0.00,VWS V14.01,2013-04-10 18:04:00,
2013-04-10 12:05:00,28.7,14.3,30.04,ESE,118,3.1,5.1,54,0.00,,---,0.00,VWS V14.01,2013-04-10 18:05:00,
2013-04-10 12:06:00,28.7,14.6,30.04,East,94,6.8,7.3,55,0.00,,---,0.00,VWS V14.01,2013-04-10 18:06:00,
2013-04-10 12:07:00,28.9,14.7,30.04,NNE,24,5.6,7.8,55,0.00,,---,0.00,VWS V14.01,2013-04-10 18:07:00,
2013-04-10 12:08:00,28.8,14.2,30.04,East,80,9.8,10.3,54,0.00,,---,0.00,VWS V14.01,2013-04-10 18:08:00,
2013-04-10 12:09:00,28.8,13.9,30.04,NE,41,4.5,9.1,53,0.00,,---,0.00,VWS V14.01,2013-04-10 18:09:00,
2013-04-10 12:10:00,28.6,13.5,30.04,East,82,2.7,6.4,53,0.00,,---,0.00,VWS V14.01,2013-04-10 18:10:00,
2013-04-10 12:11:00,28.5,13.6,30.04,SE,124,5.5,6.3,53,0.00,,---,0.00,VWS V14.01,2013-04-10 18:11:00,
2013-04-10 12:12:00,28.6,13.8,30.04,ESE,111,5.2,5.2,53,0.00,,---,0.00,VWS V14.01,2013-04-10 18:12:00,
2013-04-10 12:13:00,28.5,13.9,30.04,SE,136,7.1,11.5,54,0.00,,---,0.00,VWS V14.01,2013-04-10 18:13:00,
2013-04-10 12:14:00,28.4,13.8,30.04,NE,45,0.0,4.3,54,0.00,,---,0.00,VWS V14.01,2013-04-10 18:14:00,
2013-04-10 12:15:00,28.3,13.8,30.04,ESE,120,7.1,13.0,54,0.00,,---,0.00,VWS V14.01,2013-04-10 18:15:00,
2013-04-10 12:16:00,28.2,13.6,30.04,ESE,108,3.0,4.7,54,0.00,,---,0.00,VWS V14.01,2013-04-10 18:16:00,
2013-04-10 12:17:00,28.2,13.7,30.04,ESE,103,6.8,6.8,54,0.00,,---,0.00,VWS V14.01,2013-04-10 18:17:00,
2013-04-10 12:18:00,28.0,13.5,30.04,SE,136,5.7,9.9,54,0.00,,---,0.00,VWS V14.01,2013-04-10 18:18:00,
2013-04-10 12:19:00,27.9,13.3,30.04,East,100,5.9,7.9,54,0.00,,---,0.00,VWS V14.01,2013-04-10 18:19:00,
2013-04-10 12:20:00,27.8,13.4,30.04,NE,37,4.9,5.6,54,0.00,,---,0.00,VWS V14.01,2013-04-10 18:20:00,
2013-04-10 12:21:00,27.7,13.4,30.05,ENE,58,5.9,8.5,54,0.00,,---,0.00,VWS V14.01,2013-04-10 18:21:00,
2013-04-10 12:22:00,27.6,13.4,30.05,SE,136,6.2,9.9,55,0.00,,---,0.00,VWS V14.01,2013-04-10 18:22:00,
2013-04-10 12:23:00,27.5,13.5,30.05,ESE,110,6.4,6.8,55,0.00,,---,0.00,VWS V14.01,2013-04-10 18:23:00,
2013-04-10 12:24:00,27.5,13.5,30.05,NNE,30,5.2,11.1,55,0.00,,---,0.00,VWS V14.01,2013-04-10 18:24:00,
2013-04-10 12:25:00,27.4,13.4,30.05,East,101,6.8,8.6,55,0.00,,---,0.00,VWS V14.01,2013-04-10 18:25:00,
2013-04-10 12:26:00,27.3,13.1,30.04,NNE,14,6.0,9.0,55,0.00,,---,0.00,VWS V14.01,2013-04-10 18:26:00,
2013-04-10 12:27:00,27.2,13.2,30.04,NE,38,0.0,5.5,55,0.00,,---,0.00,VWS V14.01,2013-04-10 18:27:00,
2013-04-10 12:28:00,27.2,13.7,30.04,SE,134,5.0,7.6,56,0.00,,---,0.00,VWS V14.01,2013-04-10 18:28:00,
2013-04-10 12:29:00,27.2,13.8,30.04,East,96,5.1,6.5,57,0.00,,---,0.00,VWS V14.01,2013-04-10 18:29:00,
2013-04-10 12:30:00,27.3,14.1,30.04,SSE,160,5.3,5.3,57,0.00,,---,0.00,VWS V14.01,2013-04-10 18:30:00,
2013-04-10 12:31:00,27.4,14.2,30.04,SE,129,0.0,0.0,57,0.00,,---,0.00,VWS V14.01,2013-04-10 18:31:00,
2013-04-10 12:32:00,27.4,14.1,30.05,East,90,6.9,8.8,57,0.00,,---,0.00,VWS V14.01,2013-04-10 18:32:00,
2013-04-10 12:33:00,27.4,13.9,30.04,ESE,107,0.0,0.0,56,0.00,,---,0.00,VWS V14.01,2013-04-10 18:33:00,
2013-04-10 12:34:00,27.4,14.0,30.04,SSE,167,3.5,7.8,57,0.00,,---,0.00,VWS V14.01,2013-04-10 18:34:00,
2013-04-10 12:35:00,27.7,14.6,30.04,SE,132,2.4,3.3,57,0.00,,---,0.00,VWS V14.01,2013-04-10 18:35:00,
2013-04-10 12:36:00,27.8,14.9,30.04,NE,37,6.8,9.8,58,0.00,,---,0.00,VWS V14.01,2013-04-10 18:36:00,
2013-04-10 12:37:00,27.9,14.6,30.04,ENE,60,11.1,13.4,57,0.00,,---,0.00,VWS V14.01,2013-04-10 18:37:00,
2013-04-10 12:38:00,28.0,14.5,30.04,ENE,59,5.0,5.0,56,0.00,,---,0.00,VWS V14.01,2013-04-10 18:38:00,
2013-04-10 12:39:00,28.0,14.4,30.04,South,172,4.8,5.2,56,0.00,,---,0.00,VWS V14.01,2013-04-10 18:39:00,
2013-04-10 12:40:00,28.2,14.8,30.04,SE,127,8.2,8.2,57,0.00,,---,0.00,VWS V14.01,2013-04-10 18:40:00,
2013-04-10 12:41:00,28.2,14.9,30.04,ESE,107,8.9,10.0,57,0.00,,---,0.00,VWS V14.01,2013-04-10 18:41:00,
2013-04-10 12:42:00,28.2,14.7,30.04,SE,134,6.3,7.4,56,0.00,,---,0.00,VWS V14.01,2013-04-10 18:42:00,
2013-04-10 12:43:00,28.3,14.9,30.04,SE,145,5.2,7.5,57,0.00,,---,0.00,VWS V14.01,2013-04-10 18:43:00,
2013-04-10 12:44:00,28.3,14.9,30.04,SE,135,0.0,0.0,57,0.00,,---,0.00,VWS V14.01,2013-04-10 18:44:00,
2013-04-10 12:45:00,28.4,15.2,30.04,East,94,5.2,6.7,57,0.00,,---,0.00,VWS V14.01,2013-04-10 18:45:00,
2013-04-10 12:46:00,28.5,15.1,30.04,East,86,0.0,0.0,57,0.00,,---,0.00,VWS V14.01,2013-04-10 18:46:00,
2013-04-10 12:47:00,28.6,15.1,30.04,East,86,0.0,0.0,57,0.00,,---,0.00,VWS V14.01,2013-04-10 18:47:00,
2013-04-10 12:48:00,28.7,15.2,30.04,NE,48,4.7,5.2,56,0.00,,---,0.00,VWS V14.01,2013-04-10 18:48:00,
2013-04-10 12:49:00,28.7,15.1,30.04,NNE,13,4.9,5.3,56,0.00,,---,0.00,VWS V14.01,2013-04-10 18:49:00,
2013-04-10 12:50:00,28.8,15.2,30.04,ESE,107,7.0,7.0,56,0.00,,---,0.00,VWS V14.01,2013-04-10 18:50:00,
2013-04-10 12:51:00,28.8,14.9,30.04,East,86,5.3,9.6,56,0.00,,---,0.00,VWS V14.01,2013-04-10 18:51:00,
2013-04-10 12:52:00,28.6,14.5,30.04,East,98,3.4,3.4,55,0.00,,---,0.00,VWS V14.01,2013-04-10 18:52:00,
2013-04-10 12:53:00,28.6,14.7,30.04,East,98,0.0,0.0,55,0.00,,---,0.00,VWS V14.01,2013-04-10 18:53:00,
2013-04-10 12:54:00,28.6,14.7,30.04,East,98,0.0,0.0,56,0.00,,---,0.00,VWS V14.01,2013-04-10 18:54:00,
2013-04-10 12:55:00,28.6,14.9,30.04,East,98,0.0,0.0,56,0.00,,---,0.00,VWS V14.01,2013-04-10 18:55:00,
2013-04-10 12:56:00,28.5,15.0,30.04,East,101,4.5,5.3,56,0.00,,---,0.00,VWS V14.01,2013-04-10 18:56:00,
2013-04-10 12:57:00,28.6,15.3,30.04,South,177,6.2,7.8,57,0.00,,---,0.00,VWS V14.01,2013-04-10 18:57:00,
2013-04-10 12:58:00,28.7,15.3,30.04,NE,56,0.0,5.0,57,0.00,,---,0.00,VWS V14.01,2013-04-10 18:58:00,
2013-04-10 12:59:00,28.6,15.1,30.04,NE,56,0.0,4.2,57,0.00,,---,0.00,VWS V14.01,2013-04-10 18:59:00,
2013-04-10 13:00:00,28.6,15.0,30.04,East,94,0.0,0.0,56,0.00,,---,0.00,VWS V14.01,2013-04-10 19:00:00,
2013-04-10 13:01:00,28.5,14.9,30.04,East,94,0.0,0.0,56,0.00,,---,0.00,VWS V14.01,2013-04-10 19:01:00,
2013-04-10 13:02:00,28.5,15.1,30.04,East,94,0.0,0.0,57,0.00,,---,0.00,VWS V14.01,2013-04-10 19:02:00,
2013-04-10 13:03:00,28.4,15.0,30.04,East,97,6.6,7.8,57,0.00,,---,0.00,VWS V14.01,2013-04-10 19:03:00,
2013-04-10 13:04:00,28.4,15.1,30.04,East,79,3.2,7.1,57,0.00,,---,0.00,VWS V14.01,2013-04-10 19:04:00,
2013-04-10 13:05:00,28.4,15.0,30.04,East,79,0.0,0.0,57,0.00,,---,0.00,VWS V14.01,2013-04-10 19:05:00,
2013-04-10 13:06:00,28.3,14.6,30.04,East,79,0.0,0.0,56,0.00,,---,0.00,VWS V14.01,2013-04-10 19:06:00,
2013-04-10 13:07:00,28.2,14.5,30.04,East,79,0.0,0.0,56,0.00,,---,0.00,VWS V14.01,2013-04-10 19:07:00,
2013-04-10 13:08:00,28.1,14.6,30.04,ESE,110,12.9,14.9,56,0.00,,---,0.00,VWS V14.01,2013-04-10 19:08:00,
2013-04-10 13:09:00,28.0,14.4,30.04,ESE,105,3.5,6.2,56,0.00,,---,0.00,VWS V14.01,2013-04-10 19:09:00,
2013-04-10 13:10:00,27.8,14.5,30.04,East,94,0.0,4.7,57,0.00,,---,0.00,VWS V14.01,2013-04-10 19:10:00,
2013-04-10 13:11:00,27.7,14.6,30.04,SE,141,0.0,0.0,57,0.00,,---,0.00,VWS V14.01,2013-04-10 19:11:00,
2013-04-10 13:12:00,27.6,14.4,30.04,ESE,117,4.2,7.6,57,0.00,,---,0.00,VWS V14.01,2013-04-10 19:12:00,
2013-04-10 13:13:00,27.5,14.2,30.04,East,90,0.0,5.6,57,0.00,,---,0.00,VWS V14.01,2013-04-10 19:13:00,
2013-04-10 13:14:00,27.4,14.2,30.04,East,90,0.0,0.0,57,0.00,,---,0.00,VWS V14.01,2013-04-10 19:14:00,
2013-04-10 13:15:00,27.4,14.5,30.04,NE,49,4.8,5.2,58,0.00,,---,0.00,VWS V14.01,2013-04-10 19:15:00,
2013-04-10 13:16:00,27.4,14.6,30.04,East,93,5.4,8.6,58,0.00,,---,0.00,VWS V14.01,2013-04-10 19:16:00,
2013-04-10 13:17:00,27.3,14.4,30.04,ESE,107,0.0,0.0,58,0.00,,---,0.00,VWS V14.01,2013-04-10 19:17:00,
2013-04-10 13:18:00,27.4,14.7,30.04,SE,139,5.5,5.9,58,0.00,,---,0.00,VWS V14.01,2013-04-10 19:18:00,
2013-04-10 13:19:00,27.3,14.6,30.04,SE,146,5.5,7.8,58,0.00,,---,0.00,VWS V14.01,2013-04-10 19:19:00,
2013-04-10 13:20:00,27.4,14.9,30.04,ENE,70,0.0,5.8,59,0.00,,---,0.00,VWS V14.01,2013-04-10 19:20:00,
2013-04-10 13:21:00,27.5,15.2,30.04,East,84,5.8,8.8,59,0.00,,---,0.00,VWS V14.01,2013-04-10 19:21:00,
2013-04-10 13:22:00,27.7,15.4,30.04,East,79,0.0,4.7,59,0.00,,---,0.00,VWS V14.01,2013-04-10 19:22:00,
2013-04-10 13:23:00,27.7,15.2,30.04,East,79,0.0,0.0,59,0.00,,---,0.00,VWS V14.01,2013-04-10 19:23:00,
2013-04-10 13:24:00,27.8,15.2,30.04,SSE,150,4.3,13.4,59,0.00,,---,0.00,VWS V14.01,2013-04-10 19:24:00,
2013-04-10 13:25:00,27.9,15.3,30.04,SE,127,0.0,4.2,59,0.00,,---,0.00,VWS V14.01,2013-04-10 19:25:00,
2013-04-10 13:26:00,27.8,15.1,30.04,SE,142,5.2,8.1,58,0.00,,---,0.00,VWS V14.01,2013-04-10 19:26:00,
2013-04-10 13:27:00,28.0,15.5,30.03,ESE,120,1.4,5.0,59,0.00,,---,0.00,VWS V14.01,2013-04-10 19:27:00,
2013-04-10 13:28:00,28.0,15.9,30.03,East,86,0.0,0.0,60,0.00,,---,0.00,VWS V14.01,2013-04-10 19:28:00,
2013-04-10 13:29:00,28.1,16.1,30.03,SSE,158,4.4,5.7,60,0.00,,---,0.00,VWS V14.01,2013-04-10 19:29:00,
2013-04-10 13:30:00,28.4,16.4,30.03,SSE,149,9.0,11.9,60,0.00,,---,0.00,VWS V14.01,2013-04-10 19:30:00,
2013-04-10 13:31:00,28.7,16.4,30.04,SSE,166,3.1,3.1,60,0.00,,---,0.00,VWS V14.01,2013-04-10 19:31:00,
2013-04-10 13:32:00,28.8,16.2,30.03,SSE,166,0.0,0.0,59,0.00,,---,0.00,VWS V14.01,2013-04-10 19:32:00,
2013-04-10 13:33:00,28.8,16.0,30.03,SSE,166,6.5,6.5,58,0.00,,---,0.00,VWS V14.01,2013-04-10 19:33:00,
2013-04-10 13:34:00,28.9,16.1,30.03,SE,132,5.6,8.5,58,0.00,,---,0.00,VWS V14.01,2013-04-10 19:34:00,
2013-04-10 13:35:00,29.2,16.3,30.03,East,91,7.0,8.5,58,0.00,,---,0.00,VWS V14.01,2013-04-10 19:35:00,
2013-04-10 13:36:00,29.1,15.9,30.03,SE,143,5.6,8.8,57,0.00,,---,0.00,VWS V14.01,2013-04-10 19:36:00,
2013-04-10 13:37:00,29.1,15.9,30.03,SE,142,2.4,5.7,57,0.00,,---,0.00,VWS V14.01,2013-04-10 19:37:00,
2013-04-10 13:38:00,29.0,15.8,30.03,SE,138,3.4,5.0,57,0.00,,---,0.00,VWS V14.01,2013-04-10 19:38:00,
2013-04-10 13:39:00,28.9,15.6,30.03,East,84,0.0,8.6,57,0.00,,---,0.00,VWS V14.01,2013-04-10 19:39:00,
2013-04-10 13:40:00,28.7,15.6,30.03,NE,42,0.0,0.0,58,0.00,,---,0.00,VWS V14.01,2013-04-10 19:40:00,
2013-04-10 13:41:00,28.8,15.9,30.03,NE,42,0.0,0.0,58,0.00,,---,0.00,VWS V14.01,2013-04-10 19:41:00,
2013-04-10 13:42:00,28.8,16.0,30.03,NE,49,0.0,4.2,58,0.00,,---,0.00,VWS V14.01,2013-04-10 19:42:00,
2013-04-10 13:43:00,28.7,15.6,30.03,NE,49,0.0,0.0,57,0.00,,---,0.00,VWS V14.01,2013-04-10 19:43:00,
2013-04-10 13:44:00,28.8,15.7,30.03,NE,49,0.0,0.0,57,0.00,,---,0.00,VWS V14.01,2013-04-10 19:44:00,
2013-04-10 13:45:00,28.7,15.6,30.03,NE,49,0.0,0.0,57,0.00,,---,0.00,VWS V14.01,2013-04-10 19:45:00,
2013-04-10 13:46:00,28.6,15.4,30.03,NE,49,0.0,0.0,57,0.00,,---,0.00,VWS V14.01,2013-04-10 19:46:00,
2013-04-10 13:47:00,28.7,15.6,30.03,ENE,70,0.0,2.7,57,0.00,,---,0.00,VWS V14.01,2013-04-10 19:47:00,
2013-04-10 13:48:00,28.8,15.7,30.03,ENE,70,0.0,0.0,58,0.00,,---,0.00,VWS V14.01,2013-04-10 19:48:00,
2013-04-10 13:49:00,28.8,15.9,30.03,ENE,70,0.0,0.0,58,0.00,,---,0.00,VWS V14.01,2013-04-10 19:49:00,
2013-04-10 13:50:00,29.0,16.6,30.03,ENE,70,0.0,0.0,59,0.00,,---,0.00,VWS V14.01,2013-04-10 19:50:00,
2013-04-10 13:51:00,29.3,17.1,30.03,SSE,163,4.3,6.5,60,0.00,,---,0.00,VWS V14.01,2013-04-10 19:51:00,
2013-04-10 13:52:00,29.5,17.4,30.03,ESE,121,4.7,7.2,60,0.00,,---,0.00,VWS V14.01,2013-04-10 19:52:00,
2013-04-10 13:53:00,29.5,16.5,30.02,ESE,121,0.0,0.0,58,0.00,,---,0.00,VWS V14.01,2013-04-10 19:53:00,
2013-04-10 13:54:00,29.5,16.3,30.02,East,96,6.0,8.1,57,0.00,,---,0.00,VWS V14.01,2013-04-10 19:54:00,
2013-04-10 13:55:00,29.6,16.4,30.03,ENE,73,0.0,3.3,57,0.00,,---,0.00,VWS V14.01,2013-04-10 19:55:00,
2013-04-10 13:56:00,29.6,16.3,30.02,ENE,73,0.0,0.0,57,0.00,,---,0.00,VWS V14.01,2013-04-10 19:56:00,
2013-04-10 13:57:00,29.5,16.1,30.02,ENE,73,5.3,6.1,57,0.00,,---,0.00,VWS V14.01,2013-04-10 19:57:00,
2013-04-10 13:58:00,29.5,15.9,30.02,NE,53,0.0,4.7,56,0.00,,---,0.00,VWS V14.01,2013-04-10 19:58:00,
2013-04-10 13:59:00,29.5,16.2,30.02,NE,52,0.0,0.0,57,0.00,,---,0.00,VWS V14.01,2013-04-10 19:59:00,
2013-04-10 14:00:00,29.5,16.5,30.02,East,80,5.6,9.4,58,0.00,,---,0.00,VWS V14.01,2013-04-10 20:00:00,
2013-04-10 14:01:00,29.6,16.5,30.03,ESE,112,6.8,9.3,58,0.00,,---,0.00,VWS V14.01,2013-04-10 20:01:00,
2013-04-10 14:02:00,29.4,16.0,30.03,ESE,115,0.0,0.0,57,0.00,,---,0.00,VWS V14.01,2013-04-10 20:02:00,
2013-04-10 14:03:00,29.3,15.7,30.03,ENE,77,4.4,7.2,56,0.00,,---,0.00,VWS V14.01,2013-04-10 20:03:00,
2013-04-10 14:04:00,29.2,15.6,30.03,North,359,1.9,9.5,56,0.00,,---,0.00,VWS V14.01,2013-04-10 20:04:00,
2013-04-10 14:05:00,29.0,15.5,30.03,SE,125,5.5,5.5,57,0.00,,---,0.00,VWS V14.01,2013-04-10 20:05:00,
2013-04-10 14:06:00,28.9,15.6,30.03,SE,129,0.0,0.0,57,0.00,,---,0.00,VWS V14.01,2013-04-10 20:06:00,
2013-04-10 14:07:00,28.8,15.5,30.03,ESE,115,0.0,0.0,57,0.00,,---,0.00,VWS V14.01,2013-04-10 20:07:00,
2013-04-10 14:08:00,29.0,15.9,30.02,ESE,115,0.0,0.0,57,0.00,,---,0.00,VWS V14.01,2013-04-10 20:08:00,
2013-04-10 14:09:00,29.1,16.2,30.02,SE,125,4.9,4.9,58,0.00,,---,0.00,VWS V14.01,2013-04-10 20:09:00,
2013-04-10 14:10:00,29.1,16.2,30.02,ENE,69,0.0,0.0,58,0.00,,---,0.00,VWS V14.01,2013-04-10 20:10:00,
2013-04-10 14:11:00,29.3,16.3,30.02,East,101,0.0,0.0,58,0.00,,---,0.00,VWS V14.01,2013-04-10 20:11:00,
2013-04-10 14:12:00,29.4,16.7,30.02,East,101,0.0,0.0,58,0.00,,---,0.00,VWS V14.01,2013-04-10 20:12:00,
2013-04-10 14:13:00,29.6,16.9,30.02,NE,49,0.0,2.9,59,0.00,,---,0.00,VWS V14.01,2013-04-10 20:13:00,
2013-04-10 14:14:00,29.9,17.2,30.02,NE,49,0.0,0.0,59,0.00,,---,0.00,VWS V14.01,2013-04-10 20:14:00,
2013-04-10 14:15:00,30.1,17.4,30.02,SE,141,6.7,7.3,59,0.00,,---,0.00,VWS V14.01,2013-04-10 20:15:00,
2013-04-10 14:16:00,30.3,17.2,30.02,ESE,105,0.0,0.0,58,0.00,,---,0.00,VWS V14.01,2013-04-10 20:16:00,
2013-04-10 14:17:00,30.5,17.3,30.02,ESE,105,0.0,0.0,57,0.00,,---,0.00,VWS V14.01,2013-04-10 20:17:00,
2013-04-10 14:18:00,30.7,17.6,30.02,ESE,105,0.0,0.0,58,0.00,,---,0.00,VWS V14.01,2013-04-10 20:18:00,
2013-04-10 14:19:00,30.8,17.3,30.02,ENE,75,4.9,7.8,57,0.00,,---,0.00,VWS V14.01,2013-04-10 20:19:00,
2013-04-10 14:20:00,30.8,17.3,30.02,East,79,6.3,7.8,57,0.00,,---,0.00,VWS V14.01,2013-04-10 20:20:00,
2013-04-10 14:21:00,30.8,17.1,30.02,SSE,148,5.4,6.7,56,0.00,,---,0.00,VWS V14.01,2013-04-10 20:21:00,
2013-04-10 14:22:00,30.7,17.0,30.02,ESE,112,0.0,6.8,56,0.00,,---,0.00,VWS V14.01,2013-04-10 20:22:00,
2013-04-10 14:23:00,30.7,16.8,30.02,East,89,0.0,0.0,56,0.00,,---,0.00,VWS V14.01,2013-04-10 20:23:00,
2013-04-10 14:24:00,30.6,16.9,30.02,ESE,115,0.0,0.0,56,0.00,,---,0.00,VWS V14.01,2013-04-10 20:24:00,
2013-04-10 14:25:00,30.6,16.9,30.02,ESE,115,0.0,0.0,56,0.00,,---,0.00,VWS V14.01,2013-04-10 20:25:00,
2013-04-10 14:26:00,30.7,17.5,30.02,ESE,115,0.0,0.0,57,0.00,,---,0.00,VWS V14.01,2013-04-10 20:26:00,
2013-04-10 14:27:00,30.8,18.1,30.02,ESE,107,5.8,6.0,59,0.00,,---,0.00,VWS V14.01,2013-04-10 20:27:00,
2013-04-10 14:28:00,30.9,17.8,30.02,SE,142,0.0,4.4,58,0.00,,---,0.00,VWS V14.01,2013-04-10 20:28:00,
2013-04-10 14:29:00,31.0,18.2,30.02,SE,142,0.0,0.0,59,0.00,,---,0.00,VWS V14.01,2013-04-10 20:29:00,
2013-04-10 14:30:00,31.0,18.2,30.02,SE,142,0.0,0.0,59,0.00,,---,0.00,VWS V14.01,2013-04-10 20:30:00,
2013-04-10 14:31:00,31.3,18.2,30.01,SE,142,0.0,0.0,58,0.00,,---,0.00,VWS V14.01,2013-04-10 20:31:00,
2013-04-10 14:32:00,31.2,17.6,30.01,SE,142,0.0,0.0,57,0.00,,---,0.00,VWS V14.01,2013-04-10 20:32:00,
2013-04-10 14:33:00,31.3,18.0,30.01,SE,142,0.0,0.0,57,0.00,,---,0.00,VWS V14.01,2013-04-10 20:33:00,
2013-04-10 14:34:00,31.4,18.5,30.01,SSW,198,0.0,0.0,58,0.00,,---,0.00,VWS V14.01,2013-04-10 20:34:00,
2013-04-10 14:35:00,31.4,18.5,30.01,SSW,198,0.0,0.0,58,0.00,,---,0.00,VWS V14.01,2013-04-10 20:35:00,
2013-04-10 14:36:00,31.4,18.1,30.01,SE,131,8.0,9.8,57,0.00,,---,0.00,VWS V14.01,2013-04-10 20:36:00,
2013-04-10 14:37:00,31.4,17.7,30.01,East,84,3.4,4.5,56,0.00,,---,0.00,VWS V14.01,2013-04-10 20:37:00,
2013-04-10 14:38:00,31.4,17.2,30.01,ESE,103,3.4,5.7,55,0.00,,---,0.00,VWS V14.01,2013-04-10 20:38:00,
2013-04-10 14:39:00,31.0,16.8,30.01,ESE,103,2.6,2.6,55,0.00,,---,0.00,VWS V14.01,2013-04-10 20:39:00,
2013-04-10 14:40:00,31.0,16.8,30.01,ESE,103,0.0,2.6,55,0.00,,---,0.00,VWS V14.01,2013-04-10 20:40:00,
2013-04-10 14:41:00,30.8,17.2,30.01,ESE,103,0.0,0.0,56,0.00,,---,0.00,VWS V14.01,2013-04-10 20:41:00,
2013-04-10 14:42:00,30.7,16.9,30.01,ENE,76,5.0,5.5,56,0.00,,---,0.00,VWS V14.01,2013-04-10 20:42:00,
2013-04-10 14:43:00,30.6,17.0,30.01,NE,38,0.0,0.0,56,0.00,,---,0.00,VWS V14.01,2013-04-10 20:43:00,
2013-04-10 14:44:00,30.6,17.3,30.01,NE,38,0.0,0.0,57,0.00,,---,0.00,VWS V14.01,2013-04-10 20:44:00,
2013-04-10 14:45:00,30.6,17.3,30.01,NE,38,0.0,0.0,57,0.00,,---,0.00,VWS V14.01,2013-04-10 20:45:00,
2013-04-10 14:46:00,30.5,17.3,30.01,SE,136,7.3,9.8,57,0.00,,---,0.00,VWS V14.01,2013-04-10 20:46:00,
2013-04-10 14:47:00,30.5,17.2,30.01,SE,142,0.0,4.3,57,0.00,,---,0.00,VWS V14.01,2013-04-10 20:47:00,
2013-04-10 14:48:00,30.6,17.6,30.01,SE,142,0.0,0.0,58,0.00,,---,0.00,VWS V14.01,2013-04-10 20:48:00,
2013-04-10 14:49:00,30.7,17.6,30.00,South,176,6.2,7.8,58,0.00,,---,0.00,VWS V14.01,2013-04-10 20:49:00,
2013-04-10 14:50:00,30.8,17.7,30.00,South,184,3.5,6.9,58,0.00,,---,0.00,VWS V14.01,2013-04-10 20:50:00,
2013-04-10 14:51:00,31.1,19.0,30.00,SW,226,0.0,0.0,60,0.00,,---,0.00,VWS V14.01,2013-04-10 20:51:00,
2013-04-10 14:52:00,31.3,18.8,30.00,SW,226,1.3,1.3,59,0.00,,---,0.00,VWS V14.01,2013-04-10 20:52:00,
2013-04-10 14:53:00,31.4,18.3,30.00,SE,141,0.0,8.0,58,0.00,,---,0.00,VWS V14.01,2013-04-10 20:53:00,
2013-04-10 14:54:00,31.4,18.0,30.00,SE,141,0.0,0.0,57,0.00,,---,0.00,VWS V14.01,2013-04-10 20:54:00,
2013-04-10 14:55:00,31.4,18.1,30.00,SE,141,0.0,0.0,57,0.00,,---,0.00,VWS V14.01,2013-04-10 20:55:00,
2013-04-10 14:56:00,31.3,18.0,30.00,East,89,0.0,0.0,57,0.00,,---,0.00,VWS V14.01,2013-04-10 20:56:00,
2013-04-10 14:57:00,31.3,18.0,30.00,SSE,152,3.4,3.4,57,0.00,,---,0.00,VWS V14.01,2013-04-10 20:57:00,
2013-04-10 14:58:00,31.4,18.1,30.00,SSE,152,0.0,0.0,57,0.00,,---,0.00,VWS V14.01,2013-04-10 20:58:00,
2013-04-10 14:59:00,31.4,18.4,30.00,SSE,152,0.0,0.0,58,0.00,,---,0.00,VWS V14.01,2013-04-10 20:59:00,
2013-04-10 15:00:00,31.5,18.5,30.00,SSE,152,0.0,0.0,58,0.00,,---,0.00,VWS V14.01,2013-04-10 21:00:00,
2013-04-10 15:01:00,31.5,18.0,30.00,SSE,152,0.0,0.0,57,0.00,,---,0.00,VWS V14.01,2013-04-10 21:01:00,
2013-04-10 15:02:00,31.6,18.3,30.00,SSE,152,0.0,0.0,57,0.00,,---,0.00,VWS V14.01,2013-04-10 21:02:00,
2013-04-10 15:03:00,31.7,18.1,30.00,East,87,8.7,9.6,57,0.00,,---,0.00,VWS V14.01,2013-04-10 21:03:00,
2013-04-10 15:04:00,31.6,17.4,30.00,East,100,0.0,0.0,55,0.00,,---,0.00,VWS V14.01,2013-04-10 21:04:00,
2013-04-10 15:05:00,31.6,17.5,30.00,East,100,0.0,0.0,55,0.00,,---,0.00,VWS V14.01,2013-04-10 21:05:00,
2013-04-10 15:06:00,31.6,17.7,30.00,ESE,104,0.0,0.0,56,0.00,,---,0.00,VWS V14.01,2013-04-10 21:06:00,
2013-04-10 15:07:00,31.7,18.4,30.00,ESE,104,0.0,0.0,57,0.00,,---,0.00,VWS V14.01,2013-04-10 21:07:00,
2013-04-10 15:08:00,31.9,19.1,30.00,ESE,104,0.0,0.0,59,0.00,,---,0.00,VWS V14.01,2013-04-10 21:08:00,
2013-04-10 15:09:00,31.9,18.7,30.00,ESE,111,0.0,4.6,58,0.00,,---,0.00,VWS V14.01,2013-04-10 21:09:00,
2013-04-10 15:10:00,32.0,18.6,30.00,ESE,111,0.0,0.0,57,0.00,,---,0.00,VWS V14.01,2013-04-10 21:10:00,
2013-04-10 15:11:00,31.9,17.8,30.00,ENE,59,4.7,8.1,56,0.00,,---,0.00,VWS V14.01,2013-04-10 21:11:00,
2013-04-10 15:12:00,31.9,17.8,30.00,ESE,118,0.0,0.0,56,0.00,,---,0.00,VWS V14.01,2013-04-10 21:12:00,
2013-04-10 15:13:00,31.9,18.0,30.00,ESE,118,0.0,0.0,56,0.00,,---,0.00,VWS V14.01,2013-04-10 21:13:00,
2013-04-10 15:14:00,31.8,17.7,30.00,ESE,118,0.0,0.0,55,0.00,,---,0.00,VWS V14.01,2013-04-10 21:14:00,
2013-04-10 15:15:00,31.8,17.8,30.00,ESE,118,0.0,0.0,56,0.00,,---,0.00,VWS V14.01,2013-04-10 21:15:00,
2013-04-10 15:16:00,31.9,18.3,30.00,SE,136,5.4,5.4,57,0.00,,---,0.00,VWS V14.01,2013-04-10 21:16:00,
2013-04-10 15:17:00,32.0,18.6,30.00,East,86,6.7,9.8,57,0.00,,---,0.00,VWS V14.01,2013-04-10 21:17:00,
2013-04-10 15:18:00,32.0,18.3,30.00,South,181,6.0,8.5,56,0.00,,---,0.00,VWS V14.01,2013-04-10 21:18:00,
2013-04-10 15:19:00,31.9,18.1,30.00,SE,143,0.0,3.1,56,0.00,,---,0.00,VWS V14.01,2013-04-10 21:19:00,
2013-04-10 15:20:00,31.9,18.0,30.00,SE,143,0.0,0.0,56,0.00,,---,0.00,VWS V14.01,2013-04-10 21:20:00,
2013-04-10 15:21:00,31.8,17.6,30.00,SE,134,3.4,8.6,55,0.00,,---,0.00,VWS V14.01,2013-04-10 21:21:00,
2013-04-10 15:22:00,31.6,17.5,30.00,ESE,120,0.0,0.0,55,0.00,,---,0.00,VWS V14.01,2013-04-10 21:22:00,
2013-04-10 15:23:00,31.5,17.6,30.00,ESE,120,0.0,0.0,56,0.00,,---,0.00,VWS V14.01,2013-04-10 21:23:00,
2013-04-10 15:24:00,31.4,17.7,30.00,SE,131,3.4,3.4,56,0.00,,---,0.00,VWS V14.01,2013-04-10 21:24:00,
2013-04-10 15:25:00,31.5,17.7,30.00,ESE,118,0.0,5.7,56,0.00,,---,0.00,VWS V14.01,2013-04-10 21:25:00,
2013-04-10 15:26:00,31.2,17.0,30.00,East,83,0.0,6.8,55,0.00,,---,0.00,VWS V14.01,2013-04-10 21:26:00,
2013-04-10 15:27:00,31.0,16.8,30.00,East,89,0.0,0.0,55,0.00,,---,0.00,VWS V14.01,2013-04-10 21:27:00,
2013-04-10 15:28:00,30.9,17.2,30.00,ESE,110,3.2,5.4,56,0.00,,---,0.00,VWS V14.01,2013-04-10 21:28:00,
2013-04-10 15:29:00,30.7,17.2,30.00,ESE,110,0.0,0.0,57,0.00,,---,0.00,VWS V14.01,2013-04-10 21:29:00,
2013-04-10 15:30:00,30.7,17.2,30.00,ESE,110,0.0,0.0,57,0.00,,---,0.00,VWS V14.01,2013-04-10 21:30:00,
2013-04-10 15:31:00,30.5,17.3,29.99,ESE,110,0.0,0.0,57,0.00,,---,0.00,VWS V14.01,2013-04-10 21:31:00,
2013-04-10 15:32:00,30.6,17.8,29.99,East,101,6.4,9.9,58,0.00,,---,0.00,VWS V14.01,2013-04-10 21:32:00,
2013-04-10 15:33:00,30.4,17.2,29.99,NE,38,3.4,6.3,57,0.00,,---,0.00,VWS V14.01,2013-04-10 21:33:00,
2013-04-10 15:34:00,30.3,17.0,29.99,SE,132,5.7,7.7,57,0.00,,---,0.00,VWS V14.01,2013-04-10 21:34:00,
2013-04-10 15:35:00,30.3,16.9,29.99,SE,125,3.3,5.6,57,0.00,,---,0.00,VWS V14.01,2013-04-10 21:35:00,
2013-04-10 15:36:00,30.0,16.3,29.99,SE,128,0.0,2.2,56,0.00,,---,0.00,VWS V14.01,2013-04-10 21:36:00,
2013-04-10 15:37:00,30.0,16.7,29.99,SSE,163,4.6,9.4,57,0.00,,---,0.00,VWS V14.01,2013-04-10 21:37:00,
2013-04-10 15:38:00,29.9,16.8,29.99,SE,136,0.0,3.2,58,0.00,,---,0.00,VWS V14.01,2013-04-10 21:38:00,
2013-04-10 15:39:00,30.0,17.3,29.99,SE,146,0.0,0.0,59,0.00,,---,0.00,VWS V14.01,2013-04-10 21:39:00,
2013-04-10 15:40:00,29.9,17.3,29.99,SE,146,0.0,0.0,59,0.00,,---,0.00,VWS V14.01,2013-04-10 21:40:00,
2013-04-10 15:41:00,30.1,18.0,29.99,SE,146,0.0,0.0,60,0.00,,---,0.00,VWS V14.01,2013-04-10 21:41:00,
2013-04-10 15:42:00,30.2,17.9,29.99,ESE,107,0.0,5.7,60,0.00,,---,0.00,VWS V14.01,2013-04-10 21:42:00,
2013-04-10 15:43:00,30.3,17.8,29.99,NE,35,0.0,0.0,59,0.00,,---,0.00,VWS V14.01,2013-04-10 21:43:00,
2013-04-10 15:44:00,30.3,17.3,29.99,ESE,107,6.1,6.8,58,0.00,,---,0.00,VWS V14.01,2013-04-10 21:44:00,
2013-04-10 15:45:00,30.2,17.1,29.99,SE,124,0.0,4.7,58,0.00,,---,0.00,VWS V14.01,2013-04-10 21:45:00,
2013-04-10 15:46:00,30.1,16.9,29.99,ENE,70,0.0,0.0,57,0.00,,---,0.00,VWS V14.01,2013-04-10 21:46:00,
2013-04-10 15:47:00,30.2,17.3,29.99,ENE,70,0.0,0.0,58,0.00,,---,0.00,VWS V14.01,2013-04-10 21:47:00,
2013-04-10 15:48:00,30.1,17.3,29.99,NE,37,6.2,6.6,58,0.00,,---,0.00,VWS V14.01,2013-04-10 21:48:00,
2013-04-10 15:49:00,30.1,17.0,29.99,ENE,66,0.0,0.0,58,0.00,,---,0.00,VWS V14.01,2013-04-10 21:49:00,
2013-04-10 15:50:00,30.0,16.8,29.99,ENE,66,0.0,0.0,57,0.00,,---,0.00,VWS V14.01,2013-04-10 21:50:00,
2013-04-10 15:51:00,30.0,17.2,29.99,ENE,66,0.0,0.0,58,0.00,,---,0.00,VWS V14.01,2013-04-10 21:51:00,
2013-04-10 15:52:00,30.0,17.2,29.99,SE,128,4.9,6.7,58,0.00,,---,0.00,VWS V14.01,2013-04-10 21:52:00,
2013-04-10 15:53:00,30.0,17.3,29.99,SE,127,4.4,4.4,59,0.00,,---,0.00,VWS V14.01,2013-04-10 21:53:00,
2013-04-10 15:54:00,30.0,17.1,29.99,SSE,167,0.0,5.2,58,0.00,,---,0.00,VWS V14.01,2013-04-10 21:54:00,
2013-04-10 15:55:00,30.0,17.1,29.99,SE,143,4.1,6.5,58,0.00,,---,0.00,VWS V14.01,2013-04-10 21:55:00,
2013-04-10 15:56:00,30.1,17.4,29.98,SSE,162,0.0,0.0,59,0.00,,---,0.00,VWS V14.01,2013-04-10 21:56:00,
2013-04-10 15:57:00,30.3,18.2,29.99,SSE,162,0.0,0.0,60,0.00,,---,0.00,VWS V14.01,2013-04-10 21:57:00,
2013-04-10 15:58:00,30.5,18.5,29.98,SSE,162,0.0,0.0,61,0.00,,---,0.00,VWS V14.01,2013-04-10 21:58:00,
2013-04-10 15:59:00,30.7,18.3,29.98,East,90,0.0,0.0,60,0.00,,---,0.00,VWS V14.01,2013-04-10 21:59:00,
2013-04-10 16:00:00,30.8,18.4,29.98,East,90,0.0,0.0,60,0.00,,---,0.00,VWS V14.01,2013-04-10 22:00:00,
2013-04-10 16:01:00,31.2,18.8,29.98,East,90,0.0,0.0,60,0.00,,---,0.00,VWS V14.01,2013-04-10 22:01:00,
2013-04-10 16:02:00,31.4,18.5,29.98,SE,141,4.8,4.8,58,0.00,,---,0.00,VWS V14.01,2013-04-10 22:02:00,
2013-04-10 16:03:00,31.5,18.2,29.98,SSE,152,0.0,0.0,57,0.00,,---,0.00,VWS V14.01,2013-04-10 22:03:00,
2013-04-10 16:04:00,31.5,17.7,29.98,SSE,152,0.0,0.0,56,0.00,,---,0.00,VWS V14.01,2013-04-10 22:04:00,
2013-04-10 16:05:00,31.5,17.8,29.98,SSE,152,0.0,0.0,56,0.00,,---,0.00,VWS V14.01,2013-04-10 22:05:00,
2013-04-10 16:06:00,31.8,18.7,29.98,ESE,110,5.5,6.7,58,0.00,,---,0.00,VWS V14.01,2013-04-10 22:06:00,
2013-04-10 16:07:00,31.8,18.1,29.98,SE,138,0.0,4.5,57,0.00,,---,0.00,VWS V14.01,2013-04-10 22:07:00,
2013-04-10 16:08:00,31.8,18.0,29.98,SSE,149,0.0,3.4,56,0.00,,---,0.00,VWS V14.01,2013-04-10 22:08:00,
2013-04-10 16:09:00,31.9,18.4,29.98,ENE,60,8.0,8.4,57,0.00,,---,0.00,VWS V14.01,2013-04-10 22:09:00,
2013-04-10 16:10:00,31.9,18.3,29.98,ESE,122,7.0,8.5,57,0.00,,---,0.00,VWS V14.01,2013-04-10 22:10:00,
2013-04-10 16:11:00,31.8,18.0,29.98,East,82,4.1,4.1,56,0.00,,---,0.00,VWS V14.01,2013-04-10 22:11:00,
2013-04-10 16:12:00,31.7,17.8,29.98,East,82,0.0,0.0,56,0.00,,---,0.00,VWS V14.01,2013-04-10 22:12:00,
2013-04-10 16:13:00,31.5,17.5,29.98,SE,135,5.5,8.7,56,0.00,,---,0.00,VWS V14.01,2013-04-10 22:13:00,
2013-04-10 16:14:00,31.3,17.1,29.98,SE,138,0.0,0.0,55,0.00,,---,0.00,VWS V14.01,2013-04-10 22:14:00,
2013-04-10 16:15:00,31.2,17.0,29.98,SE,138,0.0,0.0,55,0.00,,---,0.00,VWS V14.01,2013-04-10 22:15:00,
2013-04-10 16:16:00,30.8,16.8,29.98,SE,138,0.0,0.0,56,0.00,,---,0.00,VWS V14.01,2013-04-10 22:16:00,
2013-04-10 16:17:00,30.6,16.8,29.98,SE,138,0.0,0.0,56,0.00,,---,0.00,VWS V14.01,2013-04-10 22:17:00,
2013-04-10 16:18:00,30.4,17.1,29.98,SE,138,0.0,0.0,57,0.00,,---,0.00,VWS V14.01,2013-04-10 22:18:00,
2013-04-10 16:19:00,30.3,17.1,29.98,SE,138,0.0,0.0,57,0.00,,---,0.00,VWS V14.01,2013-04-10 22:19:00,
2013-04-10 16:20:00,30.3,17.0,29.98,SE,138,0.0,0.0,57,0.00,,---,0.00,VWS V14.01,2013-04-10 22:20:00,
2013-04-10 16:21:00,30.1,17.0,29.98,SE,138,0.0,0.0,58,0.00,,---,0.00,VWS V14.01,2013-04-10 22:21:00,
2013-04-10 16:22:00,30.1,17.7,29.98,SE,138,0.0,0.0,59,0.00,,---,0.00,VWS V14.01,2013-04-10 22:22:00,
2013-04-10 16:23:00,30.3,18.2,29.98,SE,138,0.0,0.0,60,0.00,,---,0.00,VWS V14.01,2013-04-10 22:23:00,
2013-04-10 16:24:00,30.4,18.3,29.98,SE,138,0.0,0.0,60,0.00,,---,0.00,VWS V14.01,2013-04-10 22:24:00,
2013-04-10 16:25:00,30.4,18.4,29.97,SE,138,0.0,0.0,60,0.00,,---,0.00,VWS V14.01,2013-04-10 22:25:00,
2013-04-10 16:26:00,30.7,18.2,29.98,SE,138,0.0,0.0,59,0.00,,---,0.00,VWS V14.01,2013-04-10 22:26:00,
2013-04-10 16:27:00,30.8,18.3,29.98,SE,138,0.0,0.0,59,0.00,,---,0.00,VWS V14.01,2013-04-10 22:27:00,
2013-04-10 16:28:00,30.9,18.3,29.98,ENE,60,7.4,7.4,59,0.00,,---,0.00,VWS V14.01,2013-04-10 22:28:00,
2013-04-10 16:29:00,31.0,17.9,29.98,NE,38,0.0,3.3,58,0.00,,---,0.00,VWS V14.01,2013-04-10 22:29:00,
2013-04-10 16:30:00,30.9,17.6,29.97,NE,38,0.0,0.0,57,0.00,,---,0.00,VWS V14.01,2013-04-10 22:30:00,
2013-04-10 16:31:00,30.7,17.0,29.98,SE,128,6.2,6.2,56,0.00,,---,0.00,VWS V14.01,2013-04-10 22:31:00,
2013-04-10 16:32:00,30.5,16.6,29.98,SE,128,4.2,6.1,56,0.00,,---,0.00,VWS V14.01,2013-04-10 22:32:00,
2013-04-10 16:33:00,30.4,17.1,29.98,SE,128,0.0,0.0,57,0.00,,---,0.00,VWS V14.01,2013-04-10 22:33:00,
2013-04-10 16:34:00,30.3,17.8,29.98,SE,128,0.0,0.0,59,0.00,,---,0.00,VWS V14.01,2013-04-10 22:34:00,
2013-04-10 16:35:00,30.2,17.8,29.97,SE,128,0.0,0.0,59,0.00,,---,0.00,VWS V14.01,2013-04-10 22:35:00,
2013-04-10 16:36:00,30.5,18.4,29.97,SW,231,4.7,4.7,60,0.00,,---,0.00,VWS V14.01,2013-04-10 22:36:00,
2013-04-10 16:37:00,30.6,18.5,29.97,SSW,207,0.0,3.1,60,0.00,,---,0.00,VWS V14.01,2013-04-10 22:37:00,
2013-04-10 16:38:00,30.7,18.7,29.97,SSW,207,0.0,0.0,61,0.00,,---,0.00,VWS V14.01,2013-04-10 22:38:00,
2013-04-10 16:39:00,31.0,18.9,29.97,SSW,207,0.0,0.0,60,0.00,,---,0.00,VWS V14.01,2013-04-10 22:39:00,
2013-04-10 16:40:00,31.0,18.8,29.97,SSW,207,0.0,0.0,60,0.00,,---,0.00,VWS V14.01,2013-04-10 22:40:00,
2013-04-10 16:41:00,31.0,18.0,29.97,SSW,207,0.0,0.0,58,0.00,,---,0.00,VWS V14.01,2013-04-10 22:41:00,
2013-04-10 16:42:00,31.0,18.0,29.97,SSW,207,0.0,0.0,58,0.00,,---,0.00,VWS V14.01,2013-04-10 22:42:00,
2013-04-10 16:43:00,31.0,17.7,29.97,SSW,207,0.0,0.0,57,0.00,,---,0.00,VWS V14.01,2013-04-10 22:43:00,
2013-04-10 16:44:00,30.9,17.6,29.97,SSW,207,0.0,0.0,57,0.00,,---,0.00,VWS V14.01,2013-04-10 22:44:00,
2013-04-10 16:45:00,30.9,17.7,29.97,SSW,207,0.0,0.0,58,0.00,,---,0.00,VWS V14.01,2013-04-10 22:45:00,
2013-04-10 16:46:00,30.7,17.4,29.98,SSW,207,0.0,0.0,57,0.00,,---,0.00,VWS V14.01,2013-04-10 22:46:00,
2013-04-10 16:47:00,30.7,17.6,29.98,SSW,207,0.0,0.0,58,0.00,,---,0.00,VWS V14.01,2013-04-10 22:47:00,
2013-04-10 16:48:00,30.7,17.8,29.98,SSW,207,0.0,0.0,58,0.00,,---,0.00,VWS V14.01,2013-04-10 22:48:00,
2013-04-10 16:49:00,30.7,17.5,29.98,SSW,207,0.0,0.0,58,0.00,,---,0.00,VWS V14.01,2013-04-10 22:49:00,
2013-04-10 16:50:00,30.6,17.4,29.97,SSW,207,0.0,0.0,57,0.00,,---,0.00,VWS V14.01,2013-04-10 22:50:00,
2013-04-10 16:51:00,30.3,16.9,29.98,SSW,207,0.0,0.0,57,0.00,,---,0.00,VWS V14.01,2013-04-10 22:51:00,
2013-04-10 16:52:00,30.2,16.8,29.98,SSW,207,0.0,0.0,57,0.00,,---,0.00,VWS V14.01,2013-04-10 22:52:00,
2013-04-10 16:53:00,30.1,17.0,29.98,SSW,207,0.0,0.0,58,0.00,,---,0.00,VWS V14.01,2013-04-10 22:53:00,
2013-04-10 16:54:00,30.1,17.2,29.98,SSW,207,0.0,0.0,58,0.00,,---,0.00,VWS V14.01,2013-04-10 22:54:00,
2013-04-10 16:55:00,30.1,17.3,29.97,SSW,207,0.0,0.0,58,0.00,,---,0.00,VWS V14.01,2013-04-10 22:55:00,
2013-04-10 16:56:00,30.0,17.0,29.98,SSW,207,0.0,0.0,58,0.00,,---,0.00,VWS V14.01,2013-04-10 22:56:00,
2013-04-10 16:57:00,30.0,17.1,29.97,SSW,207,0.0,0.0,58,0.00,,---,0.00,VWS V14.01,2013-04-10 22:57:00,
2013-04-10 16:58:00,29.9,17.0,29.98,SSW,207,0.0,0.0,58,0.00,,---,0.00,VWS V14.01,2013-04-10 22:58:00,
2013-04-10 16:59:00,30.0,17.1,29.98,SSW,207,0.0,0.0,58,0.00,,---,0.00,VWS V14.01,2013-04-10 22:59:00,
2013-04-10 17:00:00,30.0,17.3,29.97,SSW,207,0.0,0.0,59,0.00,,---,0.00,VWS V14.01,2013-04-10 23:00:00,
2013-04-10 17:01:00,30.0,17.5,29.98,SSW,207,0.0,0.0,59,0.00,,---,0.00,VWS V14.01,2013-04-10 23:01:00,
2013-04-10 17:02:00,30.1,17.4,29.98,SSW,207,0.0,0.0,59,0.00,,---,0.00,VWS V14.01,2013-04-10 23:02:00,
2013-04-10 17:03:00,30.0,17.1,29.98,SSW,207,0.0,0.0,58,0.00,,---,0.00,VWS V14.01,2013-04-10 23:03:00,
2013-04-10 17:04:00,30.0,17.2,29.98,SSW,207,0.0,0.0,58,0.00,,---,0.00,VWS V14.01,2013-04-10 23:04:00,
2013-04-10 17:05:00,30.0,17.4,29.98,SSW,207,0.0,0.0,59,0.00,,---,0.00,VWS V14.01,2013-04-10 23:05:00,
2013-04-10 17:06:00,30.0,17.4,29.98,SSW,207,0.0,0.0,59,0.00,,---,0.00,VWS V14.01,2013-04-10 23:06:00,
2013-04-10 17:07:00,30.0,17.5,29.98,SSW,207,0.0,0.0,59,0.00,,---,0.00,VWS V14.01,2013-04-10 23:07:00,
2013-04-10 17:08:00,30.0,17.5,29.98,SSW,207,0.0,0.0,59,0.00,,---,0.00,VWS V14.01,2013-04-10 23:08:00,
2013-04-10 17:09:00,30.0,17.5,29.98,SSW,207,0.0,0.0,59,0.00,,---,0.00,VWS V14.01,2013-04-10 23:09:00,
2013-04-10 17:10:00,29.9,17.3,29.98,SSW,207,0.0,0.0,59,0.00,,---,0.00,VWS V14.01,2013-04-10 23:10:00,
2013-04-10 17:11:00,29.9,17.6,29.98,SSW,207,0.0,0.0,60,0.00,,---,0.00,VWS V14.01,2013-04-10 23:11:00,
2013-04-10 17:12:00,29.9,17.6,29.98,SSW,207,0.0,0.0,60,0.00,,---,0.00,VWS V14.01,2013-04-10 23:12:00,
2013-04-10 17:13:00,29.9,17.6,29.98,SSW,207,0.0,0.0,60,0.00,,---,0.00,VWS V14.01,2013-04-10 23:13:00,
2013-04-10 17:14:00,30.0,17.7,29.98,SSW,207,0.0,0.0,60,0.00,,---,0.00,VWS V14.01,2013-04-10 23:14:00,
2013-04-10 17:15:00,29.9,17.6,29.97,SSW,207,0.0,0.0,60,0.00,,---,0.00,VWS V14.01,2013-04-10 23:15:00,
2013-04-10 17:16:00,30.0,17.9,29.98,SSW,207,0.0,0.0,60,0.00,,---,0.00,VWS V14.01,2013-04-10 23:16:00,
2013-04-10 17:17:00,30.1,18.2,29.98,SSW,207,0.0,0.0,61,0.00,,---,0.00,VWS V14.01,2013-04-10 23:17:00,
2013-04-10 17:18:00,30.3,18.5,29.98,SSW,207,0.0,0.0,61,0.00,,---,0.00,VWS V14.01,2013-04-10 23:18:00,
2013-04-10 17:19:00,30.5,18.9,29.98,SSW,207,0.0,0.0,62,0.00,,---,0.00,VWS V14.01,2013-04-10 23:19:00,
2013-04-10 17:20:00,30.7,19.2,29.97,SSW,207,0.0,0.0,62,0.00,,---,0.00,VWS V14.01,2013-04-10 23:20:00,
2013-04-10 17:21:00,31.0,19.2,29.98,SSW,207,0.0,0.0,61,0.00,,---,0.00,VWS V14.01,2013-04-10 23:21:00,
2013-04-10 17:22:00,31.2,19.3,29.98,South,173,0.0,0.0,61,0.00,,---,0.00,VWS V14.01,2013-04-10 23:22:00,
2013-04-10 17:23:00,31.4,19.4,29.98,SE,135,3.4,4.4,61,0.00,,---,0.00,VWS V14.01,2013-04-10 23:23:00,
2013-04-10 17:24:00,31.5,19.4,29.98,SE,135,0.0,0.0,60,0.00,,---,0.00,VWS V14.01,2013-04-10 23:24:00,
2013-04-10 17:25:00,31.5,19.2,29.97,SE,135,0.0,0.0,60,0.00,,---,0.00,VWS V14.01,2013-04-10 23:25:00,
2013-04-10 17:26:00,31.6,19.3,29.98,South,191,4.4,6.1,60,0.00,,---,0.00,VWS V14.01,2013-04-10 23:26:00,
2013-04-10 17:27:00,31.6,19.4,29.98,SE,134,0.0,0.0,60,0.00,,---,0.00,VWS V14.01,2013-04-10 23:27:00,
2013-04-10 17:28:00,31.7,19.4,29.98,SE,134,0.0,0.0,60,0.00,,---,0.00,VWS V14.01,2013-04-10 23:28:00,
2013-04-10 17:29:00,31.7,19.3,29.98,SSE,152,2.7,5.2,60,0.00,,---,0.00,VWS V14.01,2013-04-10 23:29:00,
2013-04-10 17:30:00,31.6,19.3,29.97,SE,134,3.5,3.5,60,0.00,,---,0.00,VWS V14.01,2013-04-10 23:30:00,
2013-04-10 17:31:00,31.6,19.0,29.98,SSW,211,0.0,0.0,59,0.00,,---,0.00,VWS V14.01,2013-04-10 23:31:00,
2013-04-10 17:32:00,31.3,18.5,29.98,East,90,0.0,0.0,59,0.00,,---,0.00,VWS V14.01,2013-04-10 23:32:00,
2013-04-10 17:33:00,31.2,18.3,29.98,SE,128,7.6,8.5,58,0.00,,---,0.00,VWS V14.01,2013-04-10 23:33:00,
2013-04-10 17:34:00,30.8,17.5,29.98,ESE,118,5.2,6.3,57,0.00,,---,0.00,VWS V14.01,2013-04-10 23:34:00,
2013-04-10 17:35:00,30.6,17.4,29.97,ESE,107,0.0,4.7,57,0.00,,---,0.00,VWS V14.01,2013-04-10 23:35:00,
2013-04-10 17:36:00,30.1,17.4,29.97,SSE,160,4.8,7.3,59,0.00,,---,0.00,VWS V14.01,2013-04-10 23:36:00,
2013-04-10 17:37:00,30.0,17.7,29.97,SE,139,0.0,0.0,60,0.00,,---,0.00,VWS V14.01,2013-04-10 23:37:00,
2013-04-10 17:38:00,29.8,17.9,29.97,ESE,108,2.7,3.4,61,0.00,,---,0.00,VWS V14.01,2013-04-10 23:38:00,
2013-04-10 17:39:00,29.8,17.9,29.97,ESE,108,0.0,0.0,61,0.00,,---,0.00,VWS V14.01,2013-04-10 23:39:00,
2013-04-10 17:40:00,29.7,17.8,29.97,ESE,108,0.0,0.0,61,0.00,,---,0.00,VWS V14.01,2013-04-10 23:40:00,
2013-04-10 17:41:00,29.6,17.5,29.97,SSE,150,6.6,6.8,60,0.00,,---,0.00,VWS V14.01,2013-04-10 23:41:00,
2013-04-10 17:42:00,29.4,17.2,29.97,SE,138,0.0,3.5,60,0.00,,---,0.00,VWS V14.01,2013-04-10 23:42:00,
2013-04-10 17:43:00,29.3,17.5,29.97,SE,138,0.0,0.0,61,0.00,,---,0.00,VWS V14.01,2013-04-10 23:43:00,
2013-04-10 17:44:00,29.2,17.3,29.97,East,83,3.2,4.7,61,0.00,,---,0.00,VWS V14.01,2013-04-10 23:44:00,
2013-04-10 17:45:00,29.1,17.1,29.97,East,97,5.6,6.4,60,0.00,,---,0.00,VWS V14.01,2013-04-10 23:45:00,
2013-04-10 17:46:00,28.9,17.0,29.97,SE,125,0.0,3.2,60,0.00,,---,0.00,VWS V14.01,2013-04-10 23:46:00,
2013-04-10 17:47:00,28.9,17.2,29.97,ESE,110,7.4,8.1,61,0.00,,---,0.00,VWS V14.01,2013-04-10 23:47:00,
2013-04-10 17:48:00,28.9,17.3,29.97,SSE,149,0.0,3.4,62,0.00,,---,0.00,VWS V14.01,2013-04-10 23:48:00,
2013-04-10 17:49:00,28.9,17.6,29.97,SSE,149,0.0,0.0,62,0.00,,---,0.00,VWS V14.01,2013-04-10 23:49:00,
2013-04-10 17:50:00,28.8,17.6,29.97,SE,127,5.3,5.3,62,0.00,,---,0.00,VWS V14.01,2013-04-10 23:50:00,
2013-04-10 17:51:00,28.8,17.5,29.97,SE,131,0.0,0.0,62,0.00,,---,0.00,VWS V14.01,2013-04-10 23:51:00,
2013-04-10 17:52:00,28.7,17.5,29.97,SE,131,0.0,0.0,62,0.00,,---,0.00,VWS V14.01,2013-04-10 23:52:00,
2013-04-10 17:53:00,28.8,17.6,29.97,SSW,201,0.0,2.7,62,0.00,,---,0.00,VWS V14.01,2013-04-10 23:53:00,
2013-04-10 17:54:00,28.9,17.8,29.97,SSW,201,0.0,0.0,63,0.00,,---,0.00,VWS V14.01,2013-04-10 23:54:00,
2013-04-10 17:55:00,28.8,17.7,29.97,SSW,201,0.0,0.0,63,0.00,,---,0.00,VWS V14.01,2013-04-10 23:55:00,
2013-04-10 17:56:00,28.9,17.9,29.97,SSW,201,0.0,0.0,63,0.00,,---,0.00,VWS V14.01,2013-04-10 23:56:00,
2013-04-10 17:57:00,28.9,17.8,29.97,SSW,201,0.0,0.0,63,0.00,,---,0.00,VWS V14.01,2013-04-10 23:57:00,
2013-04-10 17:58:00,29.0,17.7,29.97,SSW,201,0.0,0.0,62,0.00,,---,0.00,VWS V14.01,2013-04-10 23:58:00,
2013-04-10 17:59:00,29.0,17.8,29.97,SSW,201,0.0,0.0,62,0.00,,---,0.00,VWS V14.01,2013-04-10 23:59:00,
2013-04-10 18:00:00,29.1,18.1,29.97,WSW,238,5.8,7.1,63,0.00,,---,0.00,VWS V14.01,2013-04-11 00:00:00,
2013-04-10 18:01:00,29.2,18.3,29.97,SSE,150,0.0,2.8,63,0.00,,---,0.00,VWS V14.01,2013-04-11 00:01:00,
2013-04-10 18:02:00,29.2,18.2,29.97,SSE,150,0.0,0.0,63,0.00,,---,0.00,VWS V14.01,2013-04-11 00:02:00,
2013-04-10 18:03:00,29.2,18.0,29.97,SSE,150,0.0,0.0,62,0.00,,---,0.00,VWS V14.01,2013-04-11 00:03:00,
2013-04-10 18:04:00,29.4,18.2,29.97,SSE,150,0.0,0.0,62,0.00,,---,0.00,VWS V14.01,2013-04-11 00:04:00,
2013-04-10 18:05:00,29.3,17.9,29.97,ESE,115,2.3,5.2,62,0.00,,---,0.00,VWS V14.01,2013-04-11 00:05:00,
2013-04-10 18:06:00,29.3,18.0,29.97,ESE,110,4.7,5.2,62,0.00,,---,0.00,VWS V14.01,2013-04-11 00:06:00,
2013-04-10 18:07:00,29.2,17.8,29.97,SSE,152,4.5,4.5,62,0.00,,---,0.00,VWS V14.01,2013-04-11 00:07:00,
2013-04-10 18:08:00,29.3,17.9,29.97,ESE,117,0.0,0.0,62,0.00,,---,0.00,VWS V14.01,2013-04-11 00:08:00,
2013-04-10 18:09:00,29.0,17.5,29.97,ESE,117,0.0,0.0,62,0.00,,---,0.00,VWS V14.01,2013-04-11 00:09:00,
2013-04-10 18:10:00,28.9,17.5,29.97,ESE,117,0.0,0.0,62,0.00,,---,0.00,VWS V14.01,2013-04-11 00:10:00,
2013-04-10 18:11:00,29.1,17.6,29.97,ESE,117,0.0,0.0,62,0.00,,---,0.00,VWS V14.01,2013-04-11 00:11:00,
2013-04-10 18:12:00,28.8,17.2,29.97,SE,145,0.0,5.3,61,0.00,,---,0.00,VWS V14.01,2013-04-11 00:12:00,
2013-04-10 18:13:00,28.6,17.1,29.97,SE,145,0.0,0.0,62,0.00,,---,0.00,VWS V14.01,2013-04-11 00:13:00,
2013-04-10 18:14:00,28.5,17.2,29.97,SE,145,0.0,0.0,62,0.00,,---,0.00,VWS V14.01,2013-04-11 00:14:00,
2013-04-10 18:15:00,28.6,17.5,29.97,SE,145,0.0,0.0,63,0.00,,---,0.00,VWS V14.01,2013-04-11 00:15:00,
2013-04-10 18:16:00,28.5,17.6,29.97,SE,145,0.0,0.0,63,0.00,,---,0.00,VWS V14.01,2013-04-11 00:16:00,
2013-04-10 18:17:00,28.5,17.5,29.97,SE,145,0.0,0.0,63,0.00,,---,0.00,VWS V14.01,2013-04-11 00:17:00,
2013-04-10 18:18:00,28.5,17.6,29.97,SE,145,0.0,0.0,63,0.00,,---,0.00,VWS V14.01,2013-04-11 00:18:00,
2013-04-10 18:19:00,28.5,17.5,29.97,SE,145,0.0,0.0,63,0.00,,---,0.00,VWS V14.01,2013-04-11 00:19:00,
2013-04-10 18:20:00,28.4,17.4,29.97,SE,145,0.0,0.0,63,0.00,,---,0.00,VWS V14.01,2013-04-11 00:20:00,
2013-04-10 18:21:00,28.4,17.4,29.97,SE,145,0.0,0.0,63,0.00,,---,0.00,VWS V14.01,2013-04-11 00:21:00,
2013-04-10 18:22:00,28.5,17.7,29.97,SE,145,0.0,0.0,64,0.00,,---,0.00,VWS V14.01,2013-04-11 00:22:00,
2013-04-10 18:23:00,28.5,17.9,29.97,SE,145,0.0,0.0,64,0.00,,---,0.00,VWS V14.01,2013-04-11 00:23:00,
2013-04-10 18:24:00,28.6,17.9,29.97,SE,145,0.0,0.0,64,0.00,,---,0.00,VWS V14.01,2013-04-11 00:24:00,
2013-04-10 18:25:00,28.5,17.9,29.97,SE,145,0.0,0.0,64,0.00,,---,0.00,VWS V14.01,2013-04-11 00:25:00,
2013-04-10 18:26:00,28.5,17.9,29.97,SE,145,0.0,0.0,64,0.00,,---,0.00,VWS V14.01,2013-04-11 00:26:00,
2013-04-10 18:27:00,28.6,17.9,29.97,ESE,110,4.5,4.5,64,0.00,,---,0.00,VWS V14.01,2013-04-11 00:27:00,
2013-04-10 18:28:00,28.7,17.7,29.97,ESE,112,0.0,0.0,63,0.00,,---,0.00,VWS V14.01,2013-04-11 00:28:00,
2013-04-10 18:29:00,28.6,17.6,29.97,ESE,112,0.0,0.0,63,0.00,,---,0.00,VWS V14.01,2013-04-11 00:29:00,
2013-04-10 18:30:00,28.6,17.6,29.97,ESE,110,0.0,0.0,63,0.00,,---,0.00,VWS V14.01,2013-04-11 00:30:00,
2013-04-10 18:31:00,28.6,17.6,29.97,ESE,110,0.0,0.0,63,0.00,,---,0.00,VWS V14.01,2013-04-11 00:31:00,
2013-04-10 18:32:00,28.4,17.2,29.97,ESE,110,0.0,0.0,62,0.00,,---,0.00,VWS V14.01,2013-04-11 00:32:00,
2013-04-10 18:33:00,28.3,17.2,29.97,ESE,110,0.0,0.0,63,0.00,,---,0.00,VWS V14.01,2013-04-11 00:33:00,
2013-04-10 18:34:00,28.3,17.2,29.97,ESE,110,0.0,0.0,63,0.00,,---,0.00,VWS V14.01,2013-04-11 00:34:00,
2013-04-10 18:35:00,28.2,17.2,29.97,ESE,110,0.0,0.0,63,0.00,,---,0.00,VWS V14.01,2013-04-11 00:35:00,
2013-04-10 18:36:00,28.2,17.2,29.97,ESE,110,0.0,0.0,63,0.00,,---,0.00,VWS V14.01,2013-04-11 00:36:00,
2013-04-10 18:37:00,28.1,17.4,29.97,ESE,110,0.0,0.0,64,0.00,,---,0.00,VWS V14.01,2013-04-11 00:37:00,
2013-04-10 18:38:00,28.2,17.6,29.97,SSE,163,4.2,4.7,64,0.00,,---,0.00,VWS V14.01,2013-04-11 00:38:00,
2013-04-10 18:39:00,28.0,17.5,29.97,ESE,108,0.0,0.0,64,0.00,,---,0.00,VWS V14.01,2013-04-11 00:39:00,
2013-04-10 18:40:00,28.0,17.5,29.96,ESE,108,0.0,0.0,64,0.00,,---,0.00,VWS V14.01,2013-04-11 00:40:00,
2013-04-10 18:41:00,28.0,17.5,29.96,ESE,108,0.0,0.0,64,0.00,,---,0.00,VWS V14.01,2013-04-11 00:41:00,
2013-04-10 18:42:00,28.0,17.6,29.96,ESE,108,0.0,0.0,64,0.00,,---,0.00,VWS V14.01,2013-04-11 00:42:00,
2013-04-10 18:43:00,28.0,17.6,29.96,ESE,108,0.0,0.0,64,0.00,,---,0.00,VWS V14.01,2013-04-11 00:43:00,
2013-04-10 18:44:00,28.0,17.5,29.96,ESE,108,0.0,0.0,64,0.00,,---,0.00,VWS V14.01,2013-04-11 00:44:00,
2013-04-10 18:45:00,27.9,17.5,29.97,ESE,108,0.0,0.0,64,0.00,,---,0.00,VWS V14.01,2013-04-11 00:45:00,
2013-04-10 18:46:00,27.9,17.5,29.97,ESE,108,0.0,0.0,64,0.00,,---,0.00,VWS V14.01,2013-04-11 00:46:00,
2013-04-10 18:47:00,27.9,17.7,29.97,ESE,108,0.0,0.0,65,0.00,,---,0.00,VWS V14.01,2013-04-11 00:47:00,
2013-04-10 18:48:00,27.9,17.8,29.97,ESE,108,0.0,0.0,65,0.00,,---,0.00,VWS V14.01,2013-04-11 00:48:00,
2013-04-10 18:49:00,27.9,18.0,29.97,ESE,108,0.0,0.0,66,0.00,,---,0.00,VWS V14.01,2013-04-11 00:49:00,
2013-04-10 18:50:00,28.0,18.1,29.97,ESE,108,0.0,0.0,66,0.00,,---,0.00,VWS V14.01,2013-04-11 00:50:00,
2013-04-10 18:51:00,28.0,18.1,29.97,ESE,108,0.0,0.0,66,0.00,,---,0.00,VWS V14.01,2013-04-11 00:51:00,
2013-04-10 18:52:00,28.0,18.1,29.96,ESE,108,0.0,0.0,66,0.00,,---,0.00,VWS V14.01,2013-04-11 00:52:00,
2013-04-10 18:53:00,28.1,18.1,29.97,ESE,108,0.0,0.0,66,0.00,,---,0.00,VWS V14.01,2013-04-11 00:53:00,
2013-04-10 18:54:00,28.1,18.0,29.97,ESE,108,0.0,0.0,65,0.00,,---,0.00,VWS V14.01,2013-04-11 00:54:00,
2013-04-10 18:55:00,28.1,18.1,29.97,ESE,108,0.0,0.0,66,0.00,,---,0.00,VWS V14.01,2013-04-11 00:55:00,
2013-04-10 18:56:00,28.1,18.1,29.97,ESE,108,0.0,0.0,66,0.00,,---,0.00,VWS V14.01,2013-04-11 00:56:00,
2013-04-10 18:57:00,28.1,18.3,29.96,ESE,108,0.0,0.0,66,0.00,,---,0.00,VWS V14.01,2013-04-11 00:57:00,
2013-04-10 18:58:00,28.1,18.2,29.96,ESE,108,0.0,0.0,66,0.00,,---,0.00,VWS V14.01,2013-04-11 00:58:00,
2013-04-10 18:59:00,28.1,18.2,29.96,ESE,108,0.0,0.0,66,0.00,,---,0.00,VWS V14.01,2013-04-11 00:59:00,
2013-04-10 19:00:00,28.1,18.2,29.96,ESE,108,0.0,0.0,66,0.00,,---,0.00,VWS V14.01,2013-04-11 01:00:00,
2013-04-10 19:01:00,28.1,18.2,29.96,ESE,108,0.0,0.0,66,0.00,,---,0.00,VWS V14.01,2013-04-11 01:01:00,
2013-04-10 19:02:00,28.0,18.1,29.96,ESE,108,0.0,0.0,66,0.00,,---,0.00,VWS V14.01,2013-04-11 01:02:00,
2013-04-10 19:03:00,28.1,18.3,29.96,ESE,108,0.0,0.0,66,0.00,,---,0.00,VWS V14.01,2013-04-11 01:03:00,
2013-04-10 19:04:00,28.1,18.5,29.96,ESE,108,0.0,0.0,67,0.00,,---,0.00,VWS V14.01,2013-04-11 01:04:00,
2013-04-10 19:05:00,28.1,18.4,29.96,ESE,108,0.0,0.0,67,0.00,,---,0.00,VWS V14.01,2013-04-11 01:05:00,
2013-04-10 19:06:00,28.1,18.4,29.96,ESE,108,0.0,0.0,67,0.00,,---,0.00,VWS V14.01,2013-04-11 01:06:00,
2013-04-10 19:07:00,28.0,18.3,29.96,ESE,108,0.0,0.0,67,0.00,,---,0.00,VWS V14.01,2013-04-11 01:07:00,
2013-04-10 19:08:00,28.0,18.4,29.96,ESE,108,0.0,0.0,67,0.00,,---,0.00,VWS V14.01,2013-04-11 01:08:00,
2013-04-10 19:09:00,28.0,18.4,29.96,ESE,108,0.0,0.0,67,0.00,,---,0.00,VWS V14.01,2013-04-11 01:09:00,
2013-04-10 19:10:00,28.0,18.3,29.96,ESE,108,0.0,0.0,66,0.00,,---,0.00,VWS V14.01,2013-04-11 01:10:00,
2013-04-10 19:11:00,28.0,18.3,29.96,ESE,108,0.0,0.0,66,0.00,,---,0.00,VWS V14.01,2013-04-11 01:11:00,
2013-04-10 19:12:00,27.9,18.3,29.96,ESE,108,0.0,0.0,67,0.00,,---,0.00,VWS V14.01,2013-04-11 01:12:00,
2013-04-10 19:13:00,27.8,18.1,29.96,ESE,108,0.0,0.0,66,0.00,,---,0.00,VWS V14.01,2013-04-11 01:13:00,
2013-04-10 19:14:00,27.8,18.1,29.96,ESE,108,0.0,0.0,66,0.00,,---,0.00,VWS V14.01,2013-04-11 01:14:00,
2013-04-10 19:15:00,27.8,18.0,29.96,ESE,108,0.0,0.0,66,0.00,,---,0.00,VWS V14.01,2013-04-11 01:15:00,
2013-04-10 19:16:00,27.8,18.0,29.96,ESE,108,0.0,0.0,66,0.00,,---,0.00,VWS V14.01,2013-04-11 01:16:00,
2013-04-10 19:17:00,27.6,18.0,29.96,ESE,108,0.0,0.0,67,0.00,,---,0.00,VWS V14.01,2013-04-11 01:17:00,
2013-04-10 19:18:00,27.5,18.0,29.96,ESE,108,0.0,0.0,67,0.00,,---,0.00,VWS V14.01,2013-04-11 01:18:00,
2013-04-10 19:19:00,27.6,18.1,29.96,ESE,108,0.0,0.0,67,0.00,,---,0.00,VWS V14.01,2013-04-11 01:19:00,
2013-04-10 19:20:00,27.5,18.1,29.96,ESE,108,0.0,0.0,67,0.00,,---,0.00,VWS V14.01,2013-04-11 01:20:00,
2013-04-10 19:21:00,27.5,18.1,29.96,ESE,108,0.0,0.0,67,0.00,,---,0.00,VWS V14.01,2013-04-11 01:21:00,
2013-04-10 19:22:00,27.3,17.7,29.96,ESE,108,0.0,0.0,67,0.00,,---,0.00,VWS V14.01,2013-04-11 01:22:00,
2013-04-10 19:23:00,27.3,17.8,29.96,ESE,108,0.0,0.0,67,0.00,,---,0.00,VWS V14.01,2013-04-11 01:23:00,
2013-04-10 19:24:00,27.2,17.8,29.96,ESE,108,0.0,0.0,67,0.00,,---,0.00,VWS V14.01,2013-04-11 01:24:00,
2013-04-10 19:25:00,27.2,17.9,29.96,ESE,108,0.0,0.0,68,0.00,,---,0.00,VWS V14.01,2013-04-11 01:25:00,
2013-04-10 19:26:00,27.2,17.9,29.96,ESE,108,0.0,0.0,68,0.00,,---,0.00,VWS V14.01,2013-04-11 01:26:00,
2013-04-10 19:27:00,27.1,17.9,29.96,ESE,108,0.0,0.0,68,0.00,,---,0.00,VWS V14.01,2013-04-11 01:27:00,
2013-04-10 19:28:00,27.2,18.1,29.96,South,170,0.0,0.0,68,0.00,,---,0.00,VWS V14.01,2013-04-11 01:28:00,
2013-04-10 19:29:00,27.0,17.9,29.96,South,170,0.0,0.0,68,0.00,,---,0.00,VWS V14.01,2013-04-11 01:29:00,
2013-04-10 19:30:00,26.9,17.8,29.96,South,170,0.0,0.0,68,0.00,,---,0.00,VWS V14.01,2013-04-11 01:30:00,
2013-04-10 19:31:00,26.9,17.8,29.96,South,170,0.0,0.0,68,0.00,,---,0.00,VWS V14.01,2013-04-11 01:31:00,
2013-04-10 19:32:00,26.9,17.8,29.96,South,170,0.0,0.0,68,0.00,,---,0.00,VWS V14.01,2013-04-11 01:32:00,
2013-04-10 19:33:00,26.9,17.9,29.96,South,170,0.0,0.0,68,0.00,,---,0.00,VWS V14.01,2013-04-11 01:33:00,
2013-04-10 19:34:00,26.8,17.8,29.96,South,170,0.0,0.0,68,0.00,,---,0.00,VWS V14.01,2013-04-11 01:34:00,
2013-04-10 19:35:00,26.8,17.9,29.96,South,170,0.0,0.0,69,0.00,,---,0.00,VWS V14.01,2013-04-11 01:35:00,
2013-04-10 19:36:00,26.8,17.9,29.96,South,170,0.0,0.0,69,0.00,,---,0.00,VWS V14.01,2013-04-11 01:36:00,
2013-04-10 19:37:00,26.7,17.8,29.96,South,170,0.0,0.0,69,0.00,,---,0.00,VWS V14.01,2013-04-11 01:37:00,
2013-04-10 19:38:00,26.8,17.9,29.96,South,170,0.0,0.0,69,0.00,,---,0.00,VWS V14.01,2013-04-11 01:38:00,
2013-04-10 19:39:00,26.8,17.9,29.96,South,170,0.0,0.0,69,0.00,,---,0.00,VWS V14.01,2013-04-11 01:39:00,
2013-04-10 19:40:00,26.7,17.8,29.95,South,170,0.0,0.0,69,0.00,,---,0.00,VWS V14.01,2013-04-11 01:40:00,
2013-04-10 19:41:00,26.7,17.8,29.95,South,170,0.0,0.0,69,0.00,,---,0.00,VWS V14.01,2013-04-11 01:41:00,
2013-04-10 19:42:00,26.8,17.9,29.95,South,170,0.0,0.0,69,0.00,,---,0.00,VWS V14.01,2013-04-11 01:42:00,
2013-04-10 19:43:00,26.8,17.9,29.95,South,170,0.0,0.0,69,0.00,,---,0.00,VWS V14.01,2013-04-11 01:43:00,
2013-04-10 19:44:00,26.7,17.8,29.95,South,170,0.0,0.0,69,0.00,,---,0.00,VWS V14.01,2013-04-11 01:44:00,
2013-04-10 19:45:00,26.7,17.8,29.95,South,170,0.0,0.0,69,0.00,,---,0.00,VWS V14.01,2013-04-11 01:45:00,
2013-04-10 19:46:00,26.7,17.8,29.95,South,170,0.0,0.0,69,0.00,,---,0.00,VWS V14.01,2013-04-11 01:46:00,
2013-04-10 19:47:00,26.6,17.7,29.95,South,170,0.0,0.0,69,0.00,,---,0.00,VWS V14.01,2013-04-11 01:47:00,
2013-04-10 19:48:00,26.6,17.8,29.95,South,170,0.0,0.0,69,0.00,,---,0.00,VWS V14.01,2013-04-11 01:48:00,
2013-04-10 19:49:00,26.6,17.8,29.95,South,170,0.0,0.0,69,0.00,,---,0.00,VWS V14.01,2013-04-11 01:49:00,
2013-04-10 19:50:00,26.6,17.7,29.95,South,170,0.0,0.0,69,0.00,,---,0.00,VWS V14.01,2013-04-11 01:50:00,
2013-04-10 19:51:00,26.6,17.7,29.95,South,170,0.0,0.0,69,0.00,,---,0.00,VWS V14.01,2013-04-11 01:51:00,
2013-04-10 19:52:00,26.6,17.9,29.95,South,170,0.0,0.0,69,0.00,,---,0.00,VWS V14.01,2013-04-11 01:52:00,
2013-04-10 19:53:00,26.6,17.9,29.95,South,170,0.0,0.0,69,0.00,,---,0.00,VWS V14.01,2013-04-11 01:53:00,
2013-04-10 19:54:00,26.5,17.9,29.95,South,170,0.0,0.0,70,0.00,,---,0.00,VWS V14.01,2013-04-11 01:54:00,
2013-04-10 19:55:00,26.5,17.9,29.95,South,170,0.0,0.0,70,0.00,,---,0.00,VWS V14.01,2013-04-11 01:55:00,
2013-04-10 19:56:00,26.5,17.9,29.95,South,170,0.0,0.0,70,0.00,,---,0.00,VWS V14.01,2013-04-11 01:56:00,
2013-04-10 19:57:00,26.5,17.9,29.95,South,170,0.0,0.0,69,0.00,,---,0.00,VWS V14.01,2013-04-11 01:57:00,
2013-04-10 19:58:00,26.5,17.9,29.95,South,170,0.0,0.0,70,0.00,,---,0.00,VWS V14.01,2013-04-11 01:58:00,
2013-04-10 19:59:00,26.5,17.8,29.95,South,170,0.0,0.0,69,0.00,,---,0.00,VWS V14.01,2013-04-11 01:59:00,
2013-04-10 20:00:00,26.4,17.7,29.95,South,170,0.0,0.0,69,0.00,,---,0.00,VWS V14.01,2013-04-11 02:00:00,
2013-04-10 20:01:00,26.4,17.7,29.95,South,170,0.0,0.0,69,0.00,,---,0.00,VWS V14.01,2013-04-11 02:01:00,
2013-04-10 20:02:00,26.3,17.7,29.95,South,170,0.0,0.0,70,0.00,,---,0.00,VWS V14.01,2013-04-11 02:02:00,
2013-04-10 20:03:00,26.4,17.8,29.95,South,170,0.0,0.0,70,0.00,,---,0.00,VWS V14.01,2013-04-11 02:03:00,
2013-04-10 20:04:00,26.3,17.8,29.95,South,170,0.0,0.0,70,0.00,,---,0.00,VWS V14.01,2013-04-11 02:04:00,
2013-04-10 20:05:00,26.3,17.8,29.95,South,170,0.0,0.0,70,0.00,,---,0.00,VWS V14.01,2013-04-11 02:05:00,
2013-04-10 20:06:00,26.3,17.9,29.95,South,170,0.0,0.0,70,0.00,,---,0.00,VWS V14.01,2013-04-11 02:06:00,
2013-04-10 20:07:00,26.3,17.8,29.95,South,170,0.0,0.0,70,0.00,,---,0.00,VWS V14.01,2013-04-11 02:07:00,
2013-04-10 20:08:00,26.3,18.0,29.94,South,170,0.0,0.0,70,0.00,,---,0.00,VWS V14.01,2013-04-11 02:08:00,
2013-04-10 20:09:00,26.3,18.1,29.94,South,170,0.0,0.0,71,0.00,,---,0.00,VWS V14.01,2013-04-11 02:09:00,
2013-04-10 20:10:00,26.4,18.2,29.95,South,170,0.0,0.0,71,0.00,,---,0.00,VWS V14.01,2013-04-11 02:10:00,
2013-04-10 20:11:00,26.4,18.2,29.94,South,170,0.0,0.0,71,0.00,,---,0.00,VWS V14.01,2013-04-11 02:11:00,
2013-04-10 20:12:00,26.4,18.2,29.95,South,170,0.0,0.0,71,0.00,,---,0.00,VWS V14.01,2013-04-11 02:12:00,
2013-04-10 20:13:00,26.4,18.2,29.94,South,170,0.0,0.0,71,0.00,,---,0.00,VWS V14.01,2013-04-11 02:13:00,
2013-04-10 20:14:00,26.4,18.2,29.94,South,170,0.0,0.0,71,0.00,,---,0.00,VWS V14.01,2013-04-11 02:14:00,
2013-04-10 20:15:00,26.4,18.1,29.94,South,170,0.0,0.0,70,0.00,,---,0.00,VWS V14.01,2013-04-11 02:15:00,
2013-04-10 20:16:00,26.5,18.1,29.94,South,170,0.0,0.0,70,0.00,,---,0.00,VWS V14.01,2013-04-11 02:16:00,
2013-04-10 20:17:00,26.5,18.1,29.95,South,170,0.0,0.0,70,0.00,,---,0.00,VWS V14.01,2013-04-11 02:17:00,
2013-04-10 20:18:00,26.4,18.0,29.94,South,170,0.0,0.0,70,0.00,,---,0.00,VWS V14.01,2013-04-11 02:18:00,
2013-04-10 20:19:00,26.4,18.0,29.94,South,170,0.0,0.0,70,0.00,,---,0.00,VWS V14.01,2013-04-11 02:19:00,
2013-04-10 20:20:00,26.4,18.0,29.94,South,170,0.0,0.0,70,0.00,,---,0.00,VWS V14.01,2013-04-11 02:20:00,
2013-04-10 20:21:00,26.4,18.0,29.94,South,170,0.0,0.0,70,0.00,,---,0.00,VWS V14.01,2013-04-11 02:21:00,
2013-04-10 20:22:00,26.4,18.0,29.95,South,170,0.0,0.0,70,0.00,,---,0.00,VWS V14.01,2013-04-11 02:22:00,
2013-04-10 20:23:00,26.3,17.8,29.94,South,170,0.0,0.0,70,0.00,,---,0.00,VWS V14.01,2013-04-11 02:23:00,
2013-04-10 20:24:00,26.3,18.0,29.94,South,181,0.0,0.0,70,0.00,,---,0.00,VWS V14.01,2013-04-11 02:24:00,
2013-04-10 20:25:00,26.2,18.0,29.94,South,181,0.0,0.0,71,0.00,,---,0.00,VWS V14.01,2013-04-11 02:25:00,
2013-04-10 20:26:00,26.2,18.0,29.94,South,181,2.7,2.7,71,0.00,,---,0.00,VWS V14.01,2013-04-11 02:26:00,
2013-04-10 20:27:00,26.2,18.0,29.95,South,181,2.7,2.7,71,0.00,,---,0.00,VWS V14.01,2013-04-11 02:27:00,
2013-04-10 20:28:00,26.2,18.1,29.94,SSW,201,0.0,0.0,71,0.00,,---,0.00,VWS V14.01,2013-04-11 02:28:00,
2013-04-10 20:29:00,26.2,18.1,29.94,SSW,201,0.0,0.0,71,0.00,,---,0.00,VWS V14.01,2013-04-11 02:29:00,
2013-04-10 20:30:00,26.2,18.1,29.94,SSW,201,0.0,0.0,71,0.00,,---,0.00,VWS V14.01,2013-04-11 02:30:00,
2013-04-10 20:31:00,26.2,18.1,29.94,SSW,201,0.0,0.0,71,0.00,,---,0.00,VWS V14.01,2013-04-11 02:31:00,
2013-04-10 20:32:00,26.2,18.1,29.94,SSW,201,0.0,0.0,71,0.00,,---,0.00,VWS V14.01,2013-04-11 02:32:00,
2013-04-10 20:33:00,26.2,18.1,29.94,SW,219,0.0,0.0,71,0.00,,---,0.00,VWS V14.01,2013-04-11 02:33:00,
2013-04-10 20:34:00,26.2,18.1,29.94,SW,214,3.5,5.3,71,0.00,,---,0.00,VWS V14.01,2013-04-11 02:34:00,
2013-04-10 20:35:00,26.2,18.1,29.94,SSW,193,0.0,0.0,71,0.00,,---,0.00,VWS V14.01,2013-04-11 02:35:00,
2013-04-10 20:36:00,26.2,18.1,29.94,SSW,193,0.0,0.0,71,0.00,,---,0.00,VWS V14.01,2013-04-11 02:36:00,
2013-04-10 20:37:00,26.2,18.1,29.94,SSW,193,0.0,0.0,71,0.00,,---,0.00,VWS V14.01,2013-04-11 02:37:00,
2013-04-10 20:38:00,26.1,18.1,29.94,SSW,193,0.0,0.0,71,0.00,,---,0.00,VWS V14.01,2013-04-11 02:38:00,
2013-04-10 20:39:00,26.1,18.0,29.94,SSW,193,0.0,0.0,71,0.00,,---,0.00,VWS V14.01,2013-04-11 02:39:00,
2013-04-10 20:40:00,26.1,18.0,29.94,SSW,193,0.0,0.0,71,0.00,,---,0.00,VWS V14.01,2013-04-11 02:40:00,
2013-04-10 20:41:00,26.1,18.0,29.94,SSW,193,0.0,0.0,71,0.00,,---,0.00,VWS V14.01,2013-04-11 02:41:00,
2013-04-10 20:42:00,26.1,18.0,29.94,SSW,193,0.0,0.0,71,0.00,,---,0.00,VWS V14.01,2013-04-11 02:42:00,
2013-04-10 20:43:00,26.1,18.1,29.94,SSW,193,0.0,0.0,71,0.00,,---,0.00,VWS V14.01,2013-04-11 02:43:00,
2013-04-10 20:44:00,26.0,18.0,29.94,SSW,193,0.0,0.0,71,0.00,,---,0.00,VWS V14.01,2013-04-11 02:44:00,
2013-04-10 20:45:00,26.1,18.2,29.94,SSW,193,0.0,0.0,72,0.00,,---,0.00,VWS V14.01,2013-04-11 02:45:00,
2013-04-10 20:46:00,26.0,18.2,29.94,SSW,193,0.0,0.0,72,0.00,,---,0.00,VWS V14.01,2013-04-11 02:46:00,
2013-04-10 20:47:00,26.0,18.2,29.94,SSW,193,0.0,0.0,72,0.00,,---,0.00,VWS V14.01,2013-04-11 02:47:00,
2013-04-10 20:48:00,26.1,18.3,29.94,SSW,193,0.0,0.0,72,0.00,,---,0.00,VWS V14.01,2013-04-11 02:48:00,
2013-04-10 20:49:00,26.0,18.2,29.94,SSW,193,0.0,0.0,72,0.00,,---,0.00,VWS V14.01,2013-04-11 02:49:00,
2013-04-10 20:50:00,26.0,18.2,29.94,SSW,193,0.0,0.0,72,0.00,,---,0.00,VWS V14.01,2013-04-11 02:50:00,
2013-04-10 20:51:00,26.0,18.2,29.94,SSW,193,0.0,0.0,72,0.00,,---,0.00,VWS V14.01,2013-04-11 02:51:00,
2013-04-10 20:52:00,26.0,18.2,29.94,SSW,193,0.0,0.0,72,0.00,,---,0.00,VWS V14.01,2013-04-11 02:52:00,
2013-04-10 20:53:00,25.9,18.1,29.94,SSW,193,0.0,0.0,72,0.00,,---,0.00,VWS V14.01,2013-04-11 02:53:00,
2013-04-10 20:54:00,26.0,18.2,29.94,SSW,193,0.0,0.0,72,0.00,,---,0.00,VWS V14.01,2013-04-11 02:54:00,
2013-04-10 20:55:00,25.9,18.2,29.94,SSW,193,0.0,0.0,72,0.00,,---,0.00,VWS V14.01,2013-04-11 02:55:00,
2013-04-10 20:56:00,25.9,18.2,29.94,SSW,193,0.0,0.0,72,0.00,,---,0.00,VWS V14.01,2013-04-11 02:56:00,
2013-04-10 20:57:00,25.9,18.2,29.94,SSW,193,0.0,0.0,72,0.00,,---,0.00,VWS V14.01,2013-04-11 02:57:00,
2013-04-10 20:58:00,25.9,18.1,29.94,SSW,193,0.0,0.0,72,0.00,,---,0.00,VWS V14.01,2013-04-11 02:58:00,
2013-04-10 20:59:00,25.9,18.1,29.94,SSW,193,0.0,0.0,72,0.00,,---,0.00,VWS V14.01,2013-04-11 02:59:00,
2013-04-10 21:00:00,25.8,18.0,29.94,SSW,193,0.0,0.0,72,0.00,,---,0.00,VWS V14.01,2013-04-11 03:00:00,
2013-04-10 21:01:00,25.8,18.0,29.94,SSW,193,0.0,0.0,72,0.00,,---,0.00,VWS V14.01,2013-04-11 03:01:00,
2013-04-10 21:02:00,25.8,18.0,29.94,SSW,193,0.0,0.0,72,0.00,,---,0.00,VWS V14.01,2013-04-11 03:02:00,
2013-04-10 21:03:00,25.8,18.1,29.94,SSW,193,0.0,0.0,72,0.00,,---,0.00,VWS V14.01,2013-04-11 03:03:00,
2013-04-10 21:04:00,25.8,18.1,29.94,SSW,193,0.0,0.0,72,0.00,,---,0.00,VWS V14.01,2013-04-11 03:04:00,
2013-04-10 21:05:00,25.8,18.2,29.94,SSW,193,0.0,0.0,72,0.00,,---,0.00,VWS V14.01,2013-04-11 03:05:00,
2013-04-10 21:06:00,25.8,18.2,29.94,SSW,193,0.0,0.0,73,0.00,,---,0.00,VWS V14.01,2013-04-11 03:06:00,
2013-04-10 21:07:00,25.8,18.2,29.94,SSW,193,0.0,0.0,73,0.00,,---,0.00,VWS V14.01,2013-04-11 03:07:00,
2013-04-10 21:08:00,25.8,18.3,29.94,SSW,193,0.0,0.0,73,0.00,,---,0.00,VWS V14.01,2013-04-11 03:08:00,
2013-04-10 21:09:00,25.7,18.2,29.94,SSW,193,0.0,0.0,73,0.00,,---,0.00,VWS V14.01,2013-04-11 03:09:00,
2013-04-10 21:10:00,25.7,18.2,29.94,SSW,193,0.0,0.0,73,0.00,,---,0.00,VWS V14.01,2013-04-11 03:10:00,
2013-04-10 21:11:00,25.7,18.2,29.94,SSW,193,0.0,0.0,73,0.00,,---,0.00,VWS V14.01,2013-04-11 03:11:00,
2013-04-10 21:12:00,25.7,18.2,29.94,SSW,193,0.0,0.0,73,0.00,,---,0.00,VWS V14.01,2013-04-11 03:12:00,
2013-04-10 21:13:00,25.7,18.2,29.94,SSW,193,0.0,0.0,73,0.00,,---,0.00,VWS V14.01,2013-04-11 03:13:00,
2013-04-10 21:14:00,25.7,18.1,29.94,SSW,193,0.0,0.0,73,0.00,,---,0.00,VWS V14.01,2013-04-11 03:14:00,
2013-04-10 21:15:00,25.7,18.2,29.94,SSW,193,0.0,0.0,73,0.00,,---,0.00,VWS V14.01,2013-04-11 03:15:00,
2013-04-10 21:16:00,25.7,18.2,29.94,SSW,193,0.0,0.0,73,0.00,,---,0.00,VWS V14.01,2013-04-11 03:16:00,
2013-04-10 21:17:00,25.7,18.2,29.94,SSW,193,0.0,0.0,73,0.00,,---,0.00,VWS V14.01,2013-04-11 03:17:00,
2013-04-10 21:18:00,25.6,18.1,29.94,SSW,193,0.0,0.0,73,0.00,,---,0.00,VWS V14.01,2013-04-11 03:18:00,
2013-04-10 21:19:00,25.6,18.1,29.94,SSW,193,0.0,0.0,73,0.00,,---,0.00,VWS V14.01,2013-04-11 03:19:00,
2013-04-10 21:20:00,25.6,18.2,29.94,SSW,193,0.0,0.0,73,0.00,,---,0.00,VWS V14.01,2013-04-11 03:20:00,
2013-04-10 21:21:00,25.6,18.3,29.94,SSW,193,0.0,0.0,73,0.00,,---,0.00,VWS V14.01,2013-04-11 03:21:00,
2013-04-10 21:22:00,25.6,18.3,29.94,SSW,193,0.0,0.0,73,0.00,,---,0.00,VWS V14.01,2013-04-11 03:22:00,
2013-04-10 21:23:00,25.6,18.3,29.94,SW,232,0.0,0.0,73,0.00,,---,0.00,VWS V14.01,2013-04-11 03:23:00,
2013-04-10 21:24:00,25.6,18.3,29.94,SW,232,0.0,0.0,74,0.00,,---,0.00,VWS V14.01,2013-04-11 03:24:00,
2013-04-10 21:25:00,25.6,18.3,29.93,SW,232,0.0,0.0,73,0.00,,---,0.00,VWS V14.01,2013-04-11 03:25:00,
2013-04-10 21:26:00,25.6,18.3,29.93,SW,232,0.0,0.0,73,0.00,,---,0.00,VWS V14.01,2013-04-11 03:26:00,
2013-04-10 21:27:00,25.6,18.3,29.93,SW,232,0.0,0.0,73,0.00,,---,0.00,VWS V14.01,2013-04-11 03:27:00,
2013-04-10 21:28:00,25.6,18.2,29.93,SW,232,0.0,0.0,73,0.00,,---,0.00,VWS V14.01,2013-04-11 03:28:00,
2013-04-10 21:29:00,25.5,18.1,29.93,SW,232,0.0,0.0,73,0.00,,---,0.00,VWS V14.01,2013-04-11 03:29:00,
2013-04-10 21:30:00,25.5,18.2,29.93,SW,232,0.0,0.0,73,0.00,,---,0.00,VWS V14.01,2013-04-11 03:30:00,
2013-04-10 21:31:00,25.5,18.2,29.93,SW,232,0.0,0.0,73,0.00,,---,0.00,VWS V14.01,2013-04-11 03:31:00,
2013-04-10 21:32:00,25.5,18.2,29.93,SW,232,0.0,0.0,73,0.00,,---,0.00,VWS V14.01,2013-04-11 03:32:00,
2013-04-10 21:33:00,25.5,18.2,29.92,SW,232,0.0,0.0,73,0.00,,---,0.00,VWS V14.01,2013-04-11 03:33:00,
2013-04-10 21:34:00,25.5,18.2,29.93,SW,232,0.0,0.0,73,0.00,,---,0.00,VWS V14.01,2013-04-11 03:34:00,
2013-04-10 21:35:00,25.5,18.2,29.93,SW,232,0.0,0.0,74,0.00,,---,0.00,VWS V14.01,2013-04-11 03:35:00,
2013-04-10 21:36:00,25.5,18.2,29.93,SW,232,0.0,0.0,74,0.00,,---,0.00,VWS V14.01,2013-04-11 03:36:00,
2013-04-10 21:37:00,25.5,18.2,29.93,SW,232,0.0,0.0,74,0.00,,---,0.00,VWS V14.01,2013-04-11 03:37:00,
2013-04-10 21:38:00,25.4,18.1,29.92,SW,232,0.0,0.0,73,0.00,,---,0.00,VWS V14.01,2013-04-11 03:38:00,
2013-04-10 21:39:00,25.4,18.2,29.92,SW,232,0.0,0.0,74,0.00,,---,0.00,VWS V14.01,2013-04-11 03:39:00,
2013-04-10 21:40:00,25.4,18.4,29.92,SW,232,0.0,0.0,74,0.00,,---,0.00,VWS V14.01,2013-04-11 03:40:00,
2013-04-10 21:41:00,25.4,18.4,29.93,SW,232,0.0,0.0,74,0.00,,---,0.00,VWS V14.01,2013-04-11 03:41:00,
2013-04-10 21:42:00,25.4,18.4,29.93,SW,232,0.0,0.0,74,0.00,,---,0.00,VWS V14.01,2013-04-11 03:42:00,
2013-04-10 21:43:00,25.4,18.4,29.92,SW,232,0.0,0.0,74,0.00,,---,0.00,VWS V14.01,2013-04-11 03:43:00,
2013-04-10 21:44:00,25.4,18.4,29.92,SW,232,0.0,0.0,74,0.00,,---,0.00,VWS V14.01,2013-04-11 03:44:00,
2013-04-10 21:45:00,25.4,18.4,29.92,SW,232,0.0,0.0,74,0.00,,---,0.00,VWS V14.01,2013-04-11 03:45:00,
2013-04-10 21:46:00,25.4,18.4,29.92,SW,232,0.0,0.0,74,0.00,,---,0.00,VWS V14.01,2013-04-11 03:46:00,
2013-04-10 21:47:00,25.4,18.4,29.92,SW,232,0.0,0.0,74,0.00,,---,0.00,VWS V14.01,2013-04-11 03:47:00,
2013-04-10 21:48:00,25.4,18.4,29.92,SW,232,0.0,0.0,74,0.00,,---,0.00,VWS V14.01,2013-04-11 03:48:00,
2013-04-10 21:49:00,25.4,18.4,29.92,SW,232,0.0,0.0,74,0.00,,---,0.00,VWS V14.01,2013-04-11 03:49:00,
2013-04-10 21:50:00,25.3,18.3,29.92,SW,232,0.0,0.0,74,0.00,,---,0.00,VWS V14.01,2013-04-11 03:50:00,
2013-04-10 21:51:00,25.3,18.3,29.92,SW,232,0.0,0.0,74,0.00,,---,0.00,VWS V14.01,2013-04-11 03:51:00,
2013-04-10 21:52:00,25.3,18.3,29.92,SW,232,0.0,0.0,74,0.00,,---,0.00,VWS V14.01,2013-04-11 03:52:00,
2013-04-10 21:53:00,25.3,18.3,29.93,SW,232,0.0,0.0,74,0.00,,---,0.00,VWS V14.01,2013-04-11 03:53:00,
2013-04-10 21:54:00,25.3,18.3,29.93,SW,232,0.0,0.0,74,0.00,,---,0.00,VWS V14.01,2013-04-11 03:54:00,
2013-04-10 21:55:00,25.3,18.4,29.93,SW,232,0.0,0.0,75,0.00,,---,0.00,VWS V14.01,2013-04-11 03:55:00,
2013-04-10 21:56:00,25.2,18.3,29.92,SW,232,0.0,0.0,75,0.00,,---,0.00,VWS V14.01,2013-04-11 03:56:00,
2013-04-10 21:57:00,25.2,18.3,29.92,SW,232,0.0,0.0,75,0.00,,---,0.00,VWS V14.01,2013-04-11 03:57:00,
2013-04-10 21:58:00,25.2,18.3,29.92,SW,232,0.0,0.0,75,0.00,,---,0.00,VWS V14.01,2013-04-11 03:58:00,
2013-04-10 21:59:00,25.2,18.3,29.92,SW,232,0.0,0.0,75,0.00,,---,0.00,VWS V14.01,2013-04-11 03:59:00,
2013-04-10 22:00:00,25.2,18.3,29.92,SW,232,0.0,0.0,75,0.00,,---,0.00,VWS V14.01,2013-04-11 04:00:00,
2013-04-10 22:01:00,25.2,18.4,29.92,SW,232,0.0,0.0,75,0.00,,---,0.00,VWS V14.01,2013-04-11 04:01:00,
2013-04-10 22:02:00,25.2,18.4,29.92,SW,232,0.0,0.0,75,0.00,,---,0.00,VWS V14.01,2013-04-11 04:02:00,
2013-04-10 22:03:00,25.2,18.4,29.92,SW,232,0.0,0.0,75,0.00,,---,0.00,VWS V14.01,2013-04-11 04:03:00,
2013-04-10 22:04:00,25.2,18.4,29.92,SW,232,0.0,0.0,75,0.00,,---,0.00,VWS V14.01,2013-04-11 04:04:00,
2013-04-10 22:05:00,25.2,18.4,29.92,SW,232,0.0,0.0,75,0.00,,---,0.00,VWS V14.01,2013-04-11 04:05:00,
2013-04-10 22:06:00,25.2,18.4,29.92,SW,232,0.0,0.0,75,0.00,,---,0.00,VWS V14.01,2013-04-11 04:06:00,
2013-04-10 22:07:00,25.2,18.4,29.92,SW,232,0.0,0.0,75,0.00,,---,0.00,VWS V14.01,2013-04-11 04:07:00,
2013-04-10 22:08:00,25.2,18.4,29.92,SW,232,0.0,0.0,75,0.00,,---,0.00,VWS V14.01,2013-04-11 04:08:00,
2013-04-10 22:09:00,25.2,18.4,29.92,SW,232,0.0,0.0,75,0.00,,---,0.00,VWS V14.01,2013-04-11 04:09:00,
2013-04-10 22:10:00,25.2,18.4,29.92,SW,232,0.0,0.0,75,0.00,,---,0.00,VWS V14.01,2013-04-11 04:10:00,
2013-04-10 22:11:00,25.1,18.4,29.92,SW,232,0.0,0.0,75,0.00,,---,0.00,VWS V14.01,2013-04-11 04:11:00,
2013-04-10 22:12:00,25.2,18.5,29.92,SW,232,0.0,0.0,75,0.00,,---,0.00,VWS V14.01,2013-04-11 04:12:00,
2013-04-10 22:13:00,25.2,18.6,29.92,SW,232,0.0,0.0,76,0.00,,---,0.00,VWS V14.01,2013-04-11 04:13:00,
2013-04-10 22:14:00,25.1,18.4,29.92,SW,232,0.0,0.0,75,0.00,,---,0.00,VWS V14.01,2013-04-11 04:14:00,
2013-04-10 22:15:00,25.2,18.5,29.92,SW,232,0.0,0.0,75,0.00,,---,0.00,VWS V14.01,2013-04-11 04:15:00,
2013-04-10 22:16:00,25.2,18.5,29.92,SW,232,0.0,0.0,75,0.00,,---,0.00,VWS V14.01,2013-04-11 04:16:00,
2013-04-10 22:17:00,25.1,18.4,29.92,SW,232,0.0,0.0,75,0.00,,---,0.00,VWS V14.01,2013-04-11 04:17:00,
2013-04-10 22:18:00,25.1,18.4,29.92,SW,232,0.0,0.0,75,0.00,,---,0.00,VWS V14.01,2013-04-11 04:18:00,
2013-04-10 22:19:00,25.1,18.4,29.91,SW,232,0.0,0.0,75,0.00,,---,0.00,VWS V14.01,2013-04-11 04:19:00,
2013-04-10 22:20:00,25.1,18.5,29.91,SW,232,0.0,0.0,76,0.00,,---,0.00,VWS V14.01,2013-04-11 04:20:00,
2013-04-10 22:21:00,25.1,18.5,29.91,SW,232,0.0,0.0,76,0.00,,---,0.00,VWS V14.01,2013-04-11 04:21:00,
2013-04-10 22:22:00,25.1,18.5,29.91,SW,232,0.0,0.0,76,0.00,,---,0.00,VWS V14.01,2013-04-11 04:22:00,
2013-04-10 22:23:00,25.1,18.5,29.91,SW,232,0.0,0.0,76,0.00,,---,0.00,VWS V14.01,2013-04-11 04:23:00,
2013-04-10 22:24:00,25.1,18.5,29.91,SW,232,0.0,0.0,76,0.00,,---,0.00,VWS V14.01,2013-04-11 04:24:00,
2013-04-10 22:25:00,25.1,18.6,29.91,SW,232,0.0,0.0,76,0.00,,---,0.00,VWS V14.01,2013-04-11 04:25:00,
2013-04-10 22:26:00,25.1,18.6,29.91,SW,232,0.0,0.0,76,0.00,,---,0.00,VWS V14.01,2013-04-11 04:26:00,
2013-04-10 22:27:00,25.1,18.7,29.91,SW,232,0.0,0.0,76,0.00,,---,0.00,VWS V14.01,2013-04-11 04:27:00,
2013-04-10 22:28:00,25.1,18.7,29.91,SW,232,0.0,0.0,76,0.00,,---,0.00,VWS V14.01,2013-04-11 04:28:00,
2013-04-10 22:29:00,25.1,18.7,29.91,SW,232,0.0,0.0,76,0.00,,---,0.00,VWS V14.01,2013-04-11 04:29:00,
2013-04-10 22:30:00,25.1,18.7,29.91,SW,232,0.0,0.0,76,0.00,,---,0.00,VWS V14.01,2013-04-11 04:30:00,
2013-04-10 22:31:00,25.1,18.7,29.91,SW,232,0.0,0.0,76,0.00,,---,0.00,VWS V14.01,2013-04-11 04:31:00,
2013-04-10 22:32:00,25.1,18.7,29.91,SW,232,0.0,0.0,76,0.00,,---,0.00,VWS V14.01,2013-04-11 04:32:00,
2013-04-10 22:33:00,25.1,18.7,29.91,SW,232,0.0,0.0,76,0.00,,---,0.00,VWS V14.01,2013-04-11 04:33:00,
2013-04-10 22:34:00,25.0,18.6,29.91,SW,232,0.0,0.0,76,0.00,,---,0.00,VWS V14.01,2013-04-11 04:34:00,
2013-04-10 22:35:00,25.0,18.6,29.91,SW,232,0.0,0.0,76,0.00,,---,0.00,VWS V14.01,2013-04-11 04:35:00,
2013-04-10 22:36:00,25.0,18.6,29.91,SW,232,0.0,0.0,76,0.00,,---,0.00,VWS V14.01,2013-04-11 04:36:00,
2013-04-10 22:37:00,25.0,18.6,29.91,SW,232,0.0,0.0,76,0.00,,---,0.00,VWS V14.01,2013-04-11 04:37:00,
2013-04-10 22:38:00,25.0,18.6,29.91,SW,232,0.0,0.0,76,0.00,,---,0.00,VWS V14.01,2013-04-11 04:38:00,
2013-04-10 22:39:00,25.0,18.6,29.91,SW,232,0.0,0.0,76,0.00,,---,0.00,VWS V14.01,2013-04-11 04:39:00,
2013-04-10 22:40:00,25.0,18.7,29.91,SW,232,0.0,0.0,77,0.00,,---,0.00,VWS V14.01,2013-04-11 04:40:00,
2013-04-10 22:41:00,25.0,18.7,29.91,SW,232,0.0,0.0,77,0.00,,---,0.00,VWS V14.01,2013-04-11 04:41:00,
2013-04-10 22:42:00,25.0,18.6,29.91,SW,232,0.0,0.0,76,0.00,,---,0.00,VWS V14.01,2013-04-11 04:42:00,
2013-04-10 22:43:00,25.0,18.6,29.91,SW,232,0.0,0.0,76,0.00,,---,0.00,VWS V14.01,2013-04-11 04:43:00,
2013-04-10 22:44:00,25.0,18.7,29.91,SW,232,0.0,0.0,76,0.00,,---,0.00,VWS V14.01,2013-04-11 04:44:00,
2013-04-10 22:45:00,25.0,18.7,29.91,SW,232,0.0,0.0,77,0.00,,---,0.00,VWS V14.01,2013-04-11 04:45:00,
2013-04-10 22:46:00,25.0,18.7,29.91,SW,232,0.0,0.0,77,0.00,,---,0.00,VWS V14.01,2013-04-11 04:46:00,
2013-04-10 22:47:00,25.0,18.7,29.91,SW,232,0.0,0.0,77,0.00,,---,0.00,VWS V14.01,2013-04-11 04:47:00,
2013-04-10 22:48:00,25.1,18.8,29.91,SW,232,0.0,0.0,77,0.00,,---,0.00,VWS V14.01,2013-04-11 04:48:00,
2013-04-10 22:49:00,25.1,18.8,29.91,SW,232,0.0,0.0,77,0.00,,---,0.00,VWS V14.01,2013-04-11 04:49:00,
2013-04-10 22:50:00,25.1,18.8,29.91,SW,232,0.0,0.0,76,0.00,,---,0.00,VWS V14.01,2013-04-11 04:50:00,
2013-04-10 22:51:00,25.1,18.8,29.91,SW,232,0.0,0.0,76,0.00,,---,0.00,VWS V14.01,2013-04-11 04:51:00,
2013-04-10 22:52:00,25.1,18.7,29.91,SW,232,0.0,0.0,76,0.00,,---,0.00,VWS V14.01,2013-04-11 04:52:00,
2013-04-10 22:53:00,25.1,18.7,29.91,SW,232,0.0,0.0,76,0.00,,---,0.00,VWS V14.01,2013-04-11 04:53:00,
2013-04-10 22:54:00,25.1,18.7,29.91,SW,232,0.0,0.0,76,0.00,,---,0.00,VWS V14.01,2013-04-11 04:54:00,
2013-04-10 22:55:00,25.1,18.8,29.91,SW,232,0.0,0.0,77,0.00,,---,0.00,VWS V14.01,2013-04-11 04:55:00,
2013-04-10 22:56:00,25.1,18.8,29.91,SW,232,0.0,0.0,77,0.00,,---,0.00,VWS V14.01,2013-04-11 04:56:00,
2013-04-10 22:57:00,25.0,18.7,29.91,SW,232,0.0,0.0,77,0.00,,---,0.00,VWS V14.01,2013-04-11 04:57:00,
2013-04-10 22:58:00,25.0,18.7,29.91,SW,232,0.0,0.0,77,0.00,,---,0.00,VWS V14.01,2013-04-11 04:58:00,
2013-04-10 22:59:00,25.1,18.8,29.90,SW,232,0.0,0.0,76,0.00,,---,0.00,VWS V14.01,2013-04-11 04:59:00,
2013-04-10 23:00:00,25.1,18.7,29.90,SW,232,0.0,0.0,76,0.00,,---,0.00,VWS V14.01,2013-04-11 05:00:00,
2013-04-10 23:01:00,25.1,18.7,29.90,SW,232,0.0,0.0,76,0.00,,---,0.00,VWS V14.01,2013-04-11 05:01:00,
2013-04-10 23:02:00,25.0,18.6,29.90,SW,232,0.0,0.0,76,0.00,,---,0.00,VWS V14.01,2013-04-11 05:02:00,
2013-04-10 23:03:00,25.0,18.6,29.90,SW,232,0.0,0.0,76,0.00,,---,0.00,VWS V14.01,2013-04-11 05:03:00,
2013-04-10 23:04:00,25.0,18.7,29.90,SW,232,0.0,0.0,76,0.00,,---,0.00,VWS V14.01,2013-04-11 05:04:00,
2013-04-10 23:05:00,25.0,18.7,29.90,SW,232,0.0,0.0,77,0.00,,---,0.00,VWS V14.01,2013-04-11 05:05:00,
2013-04-10 23:06:00,25.0,18.7,29.89,SW,232,0.0,0.0,77,0.00,,---,0.00,VWS V14.01,2013-04-11 05:06:00,
2013-04-10 23:07:00,24.9,18.8,29.90,SW,232,0.0,0.0,77,0.00,,---,0.00,VWS V14.01,2013-04-11 05:07:00,
2013-04-10 23:08:00,24.9,18.8,29.90,SW,232,0.0,0.0,77,0.00,,---,0.00,VWS V14.01,2013-04-11 05:08:00,
2013-04-10 23:09:00,24.9,18.8,29.90,SW,232,0.0,0.0,77,0.00,,---,0.00,VWS V14.01,2013-04-11 05:09:00,
2013-04-10 23:10:00,24.9,18.8,29.90,SW,232,0.0,0.0,77,0.00,,---,0.00,VWS V14.01,2013-04-11 05:10:00,
2013-04-10 23:11:00,24.9,18.8,29.89,SW,232,0.0,0.0,77,0.00,,---,0.00,VWS V14.01,2013-04-11 05:11:00,
2013-04-10 23:12:00,24.8,18.8,29.89,SW,232,0.0,0.0,77,0.00,,---,0.00,VWS V14.01,2013-04-11 05:12:00,
2013-04-10 23:13:00,24.9,18.8,29.89,SW,232,0.0,0.0,77,0.00,,---,0.00,VWS V14.01,2013-04-11 05:13:00,
2013-04-10 23:14:00,24.8,18.8,29.89,SW,232,0.0,0.0,77,0.00,,---,0.00,VWS V14.01,2013-04-11 05:14:00,
2013-04-10 23:15:00,24.8,18.7,29.89,SW,232,0.0,0.0,77,0.00,,---,0.00,VWS V14.01,2013-04-11 05:15:00,
2013-04-10 23:16:00,24.8,18.7,29.89,SW,232,0.0,0.0,77,0.00,,---,0.00,VWS V14.01,2013-04-11 05:16:00,
2013-04-10 23:17:00,24.7,18.6,29.89,SW,232,0.0,0.0,77,0.00,,---,0.00,VWS V14.01,2013-04-11 05:17:00,
2013-04-10 23:18:00,24.7,18.6,29.89,SW,232,0.0,0.0,77,0.00,,---,0.00,VWS V14.01,2013-04-11 05:18:00,
2013-04-10 23:19:00,24.6,18.6,29.89,SW,232,0.0,0.0,78,0.00,,---,0.00,VWS V14.01,2013-04-11 05:19:00,
2013-04-10 23:20:00,24.6,18.6,29.89,SW,232,0.0,0.0,78,0.00,,---,0.00,VWS V14.01,2013-04-11 05:20:00,
2013-04-10 23:21:00,24.6,18.6,29.89,SW,232,0.0,0.0,78,0.00,,---,0.00,VWS V14.01,2013-04-11 05:21:00,
2013-04-10 23:22:00,24.6,18.8,29.89,SW,232,0.0,0.0,78,0.00,,---,0.00,VWS V14.01,2013-04-11 05:22:00,
2013-04-10 23:23:00,24.6,18.8,29.89,SW,232,0.0,0.0,78,0.00,,---,0.00,VWS V14.01,2013-04-11 05:23:00,
2013-04-10 23:24:00,24.5,18.7,29.88,SW,232,0.0,0.0,78,0.00,,---,0.00,VWS V14.01,2013-04-11 05:24:00,
2013-04-10 23:25:00,24.5,18.7,29.88,SW,232,0.0,0.0,78,0.00,,---,0.00,VWS V14.01,2013-04-11 05:25:00,
2013-04-10 23:26:00,24.5,18.7,29.88,SW,232,0.0,0.0,78,0.00,,---,0.00,VWS V14.01,2013-04-11 05:26:00,
2013-04-10 23:27:00,24.5,18.6,29.88,SW,232,0.0,0.0,78,0.00,,---,0.00,VWS V14.01,2013-04-11 05:27:00,
2013-04-10 23:28:00,24.5,18.6,29.88,SW,232,0.0,0.0,78,0.00,,---,0.00,VWS V14.01,2013-04-11 05:28:00,
2013-04-10 23:29:00,24.4,18.5,29.88,SW,232,0.0,0.0,78,0.00,,---,0.00,VWS V14.01,2013-04-11 05:29:00,
2013-04-10 23:30:00,24.4,18.5,29.87,SW,232,0.0,0.0,78,0.00,,---,0.00,VWS V14.01,2013-04-11 05:30:00,
2013-04-10 23:31:00,24.4,18.5,29.87,SW,232,0.0,0.0,78,0.00,,---,0.00,VWS V14.01,2013-04-11 05:31:00,
2013-04-10 23:32:00,24.4,18.6,29.87,SW,232,0.0,0.0,78,0.00,,---,0.00,VWS V14.01,2013-04-11 05:32:00,
2013-04-10 23:33:00,24.4,18.7,29.87,SW,232,0.0,0.0,78,0.00,,---,0.00,VWS V14.01,2013-04-11 05:33:00,
2013-04-10 23:34:00,24.3,18.6,29.87,SW,232,0.0,0.0,78,0.00,,---,0.00,VWS V14.01,2013-04-11 05:34:00,
2013-04-10 23:35:00,24.4,18.8,29.87,SW,232,0.0,0.0,79,0.00,,---,0.00,VWS V14.01,2013-04-11 05:35:00,
2013-04-10 23:36:00,24.3,18.7,29.87,SW,232,0.0,0.0,79,0.00,,---,0.00,VWS V14.01,2013-04-11 05:36:00,
2013-04-10 23:37:00,24.4,18.8,29.87,SW,232,0.0,0.0,79,0.00,,---,0.00,VWS V14.01,2013-04-11 05:37:00,
2013-04-10 23:38:00,24.3,18.6,29.87,SW,232,0.0,0.0,78,0.00,,---,0.00,VWS V14.01,2013-04-11 05:38:00,
2013-04-10 23:39:00,24.3,18.6,29.87,SW,232,0.0,0.0,78,0.00,,---,0.00,VWS V14.01,2013-04-11 05:39:00,
2013-04-10 23:40:00,24.3,18.6,29.86,SW,232,0.0,0.0,78,0.00,,---,0.00,VWS V14.01,2013-04-11 05:40:00,
2013-04-10 23:41:00,24.3,18.6,29.86,South,190,0.0,3.4,78,0.00,,---,0.00,VWS V14.01,2013-04-11 05:41:00,
2013-04-10 23:42:00,24.2,18.5,29.86,South,190,0.0,0.0,78,0.00,,---,0.00,VWS V14.01,2013-04-11 05:42:00,
2013-04-10 23:43:00,24.2,18.5,29.86,South,190,0.0,0.0,79,0.00,,---,0.00,VWS V14.01,2013-04-11 05:43:00,
2013-04-10 23:44:00,24.2,18.6,29.86,South,190,0.0,0.0,79,0.00,,---,0.00,VWS V14.01,2013-04-11 05:44:00,
2013-04-10 23:45:00,24.2,18.6,29.86,South,190,0.0,0.0,79,0.00,,---,0.00,VWS V14.01,2013-04-11 05:45:00,
2013-04-10 23:46:00,24.1,18.5,29.86,South,190,0.0,0.0,79,0.00,,---,0.00,VWS V14.01,2013-04-11 05:46:00,
2013-04-10 23:47:00,24.1,18.6,29.86,South,190,0.0,0.0,79,0.00,,---,0.00,VWS V14.01,2013-04-11 05:47:00,
2013-04-10 23:48:00,24.1,18.6,29.86,South,190,0.0,0.0,79,0.00,,---,0.00,VWS V14.01,2013-04-11 05:48:00,
2013-04-10 23:49:00,24.2,18.7,29.86,South,190,0.0,0.0,79,0.00,,---,0.00,VWS V14.01,2013-04-11 05:49:00,
2013-04-10 23:50:00,24.2,18.8,29.86,South,190,0.0,0.0,79,0.00,,---,0.00,VWS V14.01,2013-04-11 05:50:00,
2013-04-10 23:51:00,24.2,18.8,29.86,South,190,0.0,0.0,80,0.00,,---,0.00,VWS V14.01,2013-04-11 05:51:00,
2013-04-10 23:52:00,24.2,18.8,29.85,South,190,0.0,0.0,80,0.00,,---,0.00,VWS V14.01,2013-04-11 05:52:00,
2013-04-10 23:53:00,24.2,18.8,29.85,South,190,0.0,0.0,80,0.00,,---,0.00,VWS V14.01,2013-04-11 05:53:00,
2013-04-10 23:54:00,24.2,18.8,29.85,South,190,0.0,0.0,79,0.00,,---,0.00,VWS V14.01,2013-04-11 05:54:00,
2013-04-10 23:55:00,24.2,18.8,29.85,South,190,0.0,0.0,79,0.00,,---,0.00,VWS V14.01,2013-04-11 05:55:00,
2013-04-10 23:56:00,24.3,18.9,29.85,South,190,0.0,0.0,79,0.00,,---,0.00,VWS V14.01,2013-04-11 05:56:00,
2013-04-10 23:57:00,24.3,18.9,29.85,South,190,0.0,0.0,80,0.00,,---,0.00,VWS V14.01,2013-04-11 05:57:00,
2013-04-10 23:58:00,24.3,19.0,29.85,South,190,0.0,0.0,80,0.00,,---,0.00,VWS V14.01,2013-04-11 05:58:00,
2013-04-10 23:59:00,24.3,18.9,29.85,South,190,0.0,0.0,80,0.00,,---,0.00,VWS V14.01,2013-04-11 05:59:00,